LAN809 SCEL-YSSY
Flight info
| Callsign | LAN809 |
|---|---|
| Flight time | 14h 10m |
| Altitude | 33000 |
| Route | ANGOD6C ANGOD UQ803 SUMKO UT115 VLD DCT 47S077W 54S082W/N0489F350 56S084W 61S090W/N0484F360 64S096W 68S108W 70S116W 71S131W 71S140W 70S150W 69S160W 67S170W/N0491F380 63S180W 57S170E 51S163E 45S158E/N0493F400 DCT 39S54 DCT MARLN |
| Aircraft | B789/H-SDE1E2E3FGHIJ2J3J4J5M1RWXY/LB1D1 |
Departure
| Time | 2026-05-07 04:48 |
|---|---|
| Airport | Comodoro Arturo Merino Benítez International Airport (SCEL) |
Arrival
| Time | 2026-05-07 18:59 |
|---|---|
| Airport | Sydney Kingsford Smith International Airport (YSSY) |
| Time | Latitude | Longitude | Altitude | Speed | Heading |
|---|---|---|---|---|---|
| 2026-05-07 04:14 | -33.40222 | -70.79063 | 0 ft | 0 kts | 178° |
| 2026-05-07 04:37 | -33.40220 | -70.79063 | 1569 ft | 2 kts | 178° |
| 2026-05-07 04:37 | -33.40194 | -70.79065 | 1569 ft | 4 kts | 175° |
| 2026-05-07 04:38 | -33.40172 | -70.79067 | 1569 ft | 4 kts | 171° |
| 2026-05-07 04:38 | -33.40152 | -70.79076 | 1569 ft | 4 kts | 133° |
| 2026-05-07 04:38 | -33.40142 | -70.79098 | 1569 ft | 4 kts | 94° |
| 2026-05-07 04:38 | -33.40141 | -70.79106 | 1569 ft | 0 kts | 87° |
| 2026-05-07 04:41 | -33.40141 | -70.79104 | 1569 ft | 1 kts | 87° |
| 2026-05-07 04:41 | -33.40141 | -70.79090 | 1569 ft | 3 kts | 87° |
| 2026-05-07 04:41 | -33.40139 | -70.79056 | 1569 ft | 6 kts | 87° |
| 2026-05-07 04:41 | -33.40137 | -70.78994 | 1569 ft | 9 kts | 87° |
| 2026-05-07 04:42 | -33.40134 | -70.78903 | 1569 ft | 13 kts | 87° |
| 2026-05-07 04:42 | -33.40115 | -70.78789 | 1569 ft | 15 kts | 63° |
| 2026-05-07 04:42 | -33.40024 | -70.78756 | 1569 ft | 15 kts | 358° |
| 2026-05-07 04:42 | -33.39905 | -70.78764 | 1569 ft | 19 kts | 357° |
| 2026-05-07 04:43 | -33.39767 | -70.78772 | 1569 ft | 21 kts | 357° |
| 2026-05-07 04:43 | -33.39610 | -70.78780 | 1569 ft | 24 kts | 358° |
| 2026-05-07 04:43 | -33.39444 | -70.78788 | 1569 ft | 23 kts | 358° |
| 2026-05-07 04:43 | -33.39288 | -70.78795 | 1569 ft | 22 kts | 358° |
| 2026-05-07 04:44 | -33.39140 | -70.78801 | 1569 ft | 21 kts | 358° |
| 2026-05-07 04:44 | -33.39001 | -70.78809 | 1569 ft | 19 kts | 356° |
| 2026-05-07 04:44 | -33.38867 | -70.78820 | 1569 ft | 19 kts | 360° |
| 2026-05-07 04:44 | -33.38730 | -70.78826 | 1569 ft | 20 kts | 357° |
| 2026-05-07 04:45 | -33.38590 | -70.78833 | 1569 ft | 21 kts | 357° |
| 2026-05-07 04:45 | -33.38445 | -70.78840 | 1569 ft | 21 kts | 358° |
| 2026-05-07 04:45 | -33.38299 | -70.78848 | 1569 ft | 21 kts | 357° |
| 2026-05-07 04:45 | -33.38147 | -70.78856 | 1569 ft | 23 kts | 358° |
| 2026-05-07 04:46 | -33.37976 | -70.78864 | 1570 ft | 26 kts | 358° |
| 2026-05-07 04:46 | -33.37789 | -70.78876 | 1569 ft | 27 kts | 356° |
| 2026-05-07 04:46 | -33.37598 | -70.78875 | 1569 ft | 26 kts | 22° |
| 2026-05-07 04:46 | -33.37573 | -70.78699 | 1569 ft | 24 kts | 134° |
| 2026-05-07 04:47 | -33.37719 | -70.78660 | 1570 ft | 19 kts | 182° |
| 2026-05-07 04:47 | -33.37946 | -70.78652 | 1569 ft | 56 kts | 176° |
| 2026-05-07 04:47 | -33.38525 | -70.78621 | 1570 ft | 109 kts | 177° |
| 2026-05-07 04:47 | -33.39450 | -70.78570 | 1569 ft | 155 kts | 177° |
| 2026-05-07 04:48 | -33.40666 | -70.78505 | 1583 ft | 193 kts | 176° |
| 2026-05-07 04:48 | -33.41966 | -70.78444 | 2147 ft | 189 kts | 176° |
| 2026-05-07 04:48 | -33.43336 | -70.78370 | 2474 ft | 204 kts | 176° |
| 2026-05-07 04:48 | -33.44764 | -70.78246 | 3002 ft | 207 kts | 176° |
| 2026-05-07 04:49 | -33.46221 | -70.78151 | 3415 ft | 216 kts | 178° |
| 2026-05-07 04:49 | -33.47803 | -70.78063 | 3455 ft | 241 kts | 178° |
| 2026-05-07 04:49 | -33.49541 | -70.77961 | 3717 ft | 257 kts | 177° |
| 2026-05-07 04:49 | -33.51345 | -70.77853 | 4294 ft | 261 kts | 177° |
| 2026-05-07 04:50 | -33.53174 | -70.77748 | 4895 ft | 265 kts | 178° |
| 2026-05-07 04:50 | -33.55014 | -70.78053 | 5322 ft | 270 kts | 196° |
| 2026-05-07 04:50 | -33.56833 | -70.78621 | 5958 ft | 272 kts | 194° |
| 2026-05-07 04:50 | -33.58689 | -70.79136 | 6522 ft | 275 kts | 194° |
| 2026-05-07 04:51 | -33.60542 | -70.79789 | 6995 ft | 280 kts | 198° |
| 2026-05-07 04:51 | -33.62443 | -70.80324 | 7573 ft | 281 kts | 193° |
| 2026-05-07 04:51 | -33.64350 | -70.80839 | 8196 ft | 281 kts | 195° |
| 2026-05-07 04:51 | -33.66243 | -70.81436 | 8808 ft | 281 kts | 197° |
| 2026-05-07 04:52 | -33.68133 | -70.82051 | 9441 ft | 282 kts | 197° |
| 2026-05-07 04:52 | -33.70033 | -70.82643 | 10050 ft | 283 kts | 197° |
| 2026-05-07 04:52 | -33.71943 | -70.83229 | 10495 ft | 288 kts | 197° |
| 2026-05-07 04:52 | -33.73942 | -70.83852 | 10686 ft | 304 kts | 197° |
| 2026-05-07 04:53 | -33.76034 | -70.84509 | 10886 ft | 319 kts | 197° |
| 2026-05-07 04:53 | -33.78233 | -70.85195 | 11109 ft | 332 kts | 197° |
| 2026-05-07 04:53 | -33.80486 | -70.85894 | 11585 ft | 337 kts | 197° |
| 2026-05-07 04:53 | -33.82768 | -70.86603 | 12136 ft | 340 kts | 197° |
| 2026-05-07 04:54 | -33.85065 | -70.87321 | 12671 ft | 342 kts | 197° |
| 2026-05-07 04:54 | -33.87379 | -70.88044 | 13194 ft | 345 kts | 197° |
| 2026-05-07 04:54 | -33.89708 | -70.88771 | 13740 ft | 347 kts | 197° |
| 2026-05-07 04:54 | -33.92047 | -70.89502 | 14276 ft | 349 kts | 198° |
| 2026-05-07 04:55 | -33.94403 | -70.90239 | 14760 ft | 351 kts | 198° |
| 2026-05-07 04:55 | -33.96774 | -70.90982 | 15238 ft | 353 kts | 198° |
| 2026-05-07 04:55 | -33.99165 | -70.91730 | 15699 ft | 357 kts | 198° |
| 2026-05-07 04:55 | -34.01574 | -70.92479 | 16199 ft | 359 kts | 197° |
| 2026-05-07 04:56 | -34.04031 | -70.93103 | 16625 ft | 362 kts | 196° |
| 2026-05-07 04:56 | -34.06456 | -70.93789 | 17104 ft | 364 kts | 197° |
| 2026-05-07 04:56 | -34.08927 | -70.94493 | 17566 ft | 366 kts | 197° |
| 2026-05-07 04:56 | -34.11425 | -70.95166 | 18052 ft | 369 kts | 196° |
| 2026-05-07 04:57 | -34.13944 | -70.95834 | 18526 ft | 372 kts | 196° |
| 2026-05-07 04:57 | -34.16476 | -70.96523 | 18950 ft | 374 kts | 197° |
| 2026-05-07 04:57 | -34.19018 | -70.97223 | 19358 ft | 376 kts | 197° |
| 2026-05-07 04:57 | -34.21575 | -70.97921 | 19781 ft | 378 kts | 197° |
| 2026-05-07 04:58 | -34.24146 | -70.98619 | 20188 ft | 380 kts | 197° |
| 2026-05-07 04:58 | -34.26727 | -70.99322 | 20601 ft | 381 kts | 197° |
| 2026-05-07 04:58 | -34.29319 | -71.00031 | 21002 ft | 383 kts | 197° |
| 2026-05-07 04:58 | -34.31923 | -71.00743 | 21390 ft | 385 kts | 197° |
| 2026-05-07 04:59 | -34.34539 | -71.01458 | 21773 ft | 386 kts | 197° |
| 2026-05-07 04:59 | -34.37168 | -71.02176 | 22175 ft | 388 kts | 197° |
| 2026-05-07 04:59 | -34.39808 | -71.02899 | 22531 ft | 390 kts | 197° |
| 2026-05-07 04:59 | -34.42461 | -71.03626 | 22903 ft | 392 kts | 197° |
| 2026-05-07 05:00 | -34.45127 | -71.04356 | 23297 ft | 394 kts | 197° |
| 2026-05-07 05:00 | -34.47806 | -71.05090 | 23655 ft | 396 kts | 197° |
| 2026-05-07 05:00 | -34.50497 | -71.05829 | 23972 ft | 398 kts | 197° |
| 2026-05-07 05:00 | -34.53202 | -71.06572 | 24274 ft | 399 kts | 197° |
| 2026-05-07 05:01 | -34.55915 | -71.07317 | 24568 ft | 401 kts | 197° |
| 2026-05-07 05:01 | -34.58640 | -71.08066 | 24851 ft | 402 kts | 197° |
| 2026-05-07 05:01 | -34.61375 | -71.08819 | 25184 ft | 403 kts | 197° |
| 2026-05-07 05:01 | -34.64109 | -71.09572 | 25484 ft | 404 kts | 197° |
| 2026-05-07 05:02 | -34.66862 | -71.10331 | 25792 ft | 405 kts | 197° |
| 2026-05-07 05:02 | -34.69611 | -71.11088 | 26093 ft | 407 kts | 197° |
| 2026-05-07 05:02 | -34.72375 | -71.11850 | 26394 ft | 408 kts | 197° |
| 2026-05-07 05:02 | -34.75173 | -71.12519 | 26668 ft | 410 kts | 195° |
| 2026-05-07 05:03 | -34.77976 | -71.13203 | 26963 ft | 411 kts | 195° |
| 2026-05-07 05:03 | -34.80782 | -71.13905 | 27275 ft | 413 kts | 195° |
| 2026-05-07 05:03 | -34.83568 | -71.14583 | 27555 ft | 414 kts | 195° |
| 2026-05-07 05:03 | -34.86387 | -71.15257 | 27868 ft | 416 kts | 195° |
| 2026-05-07 05:04 | -34.89227 | -71.15945 | 28152 ft | 417 kts | 195° |
| 2026-05-07 05:04 | -34.92079 | -71.16644 | 28456 ft | 418 kts | 195° |
| 2026-05-07 05:04 | -34.94943 | -71.17344 | 28747 ft | 420 kts | 195° |
| 2026-05-07 05:04 | -34.97802 | -71.18038 | 29031 ft | 421 kts | 194° |
| 2026-05-07 05:05 | -35.00685 | -71.18739 | 29324 ft | 423 kts | 194° |
| 2026-05-07 05:05 | -35.03577 | -71.19446 | 29613 ft | 424 kts | 194° |
| 2026-05-07 05:05 | -35.06478 | -71.20156 | 29917 ft | 425 kts | 194° |
| 2026-05-07 05:05 | -35.09376 | -71.20864 | 30168 ft | 427 kts | 194° |
| 2026-05-07 05:06 | -35.12306 | -71.21579 | 30430 ft | 429 kts | 194° |
| 2026-05-07 05:06 | -35.15226 | -71.22294 | 30670 ft | 430 kts | 194° |
| 2026-05-07 05:06 | -35.18169 | -71.23015 | 30912 ft | 432 kts | 194° |
| 2026-05-07 05:06 | -35.21122 | -71.23739 | 31154 ft | 433 kts | 194° |
| 2026-05-07 05:07 | -35.24069 | -71.24462 | 31392 ft | 434 kts | 194° |
| 2026-05-07 05:07 | -35.27042 | -71.25191 | 31644 ft | 436 kts | 194° |
| 2026-05-07 05:07 | -35.30022 | -71.25924 | 31879 ft | 437 kts | 194° |
| 2026-05-07 05:07 | -35.32997 | -71.26655 | 32131 ft | 438 kts | 194° |
| 2026-05-07 05:08 | -35.35999 | -71.27393 | 32368 ft | 440 kts | 194° |
| 2026-05-07 05:08 | -35.39006 | -71.28134 | 32610 ft | 441 kts | 193° |
| 2026-05-07 05:08 | -35.42009 | -71.28874 | 32874 ft | 442 kts | 193° |
| 2026-05-07 05:08 | -35.45034 | -71.29620 | 33127 ft | 444 kts | 193° |
| 2026-05-07 05:09 | -35.48071 | -71.30369 | 33370 ft | 445 kts | 193° |
| 2026-05-07 05:09 | -35.51101 | -71.31118 | 33601 ft | 446 kts | 193° |
| 2026-05-07 05:09 | -35.54152 | -71.31872 | 33850 ft | 447 kts | 193° |
| 2026-05-07 05:09 | -35.57163 | -71.32617 | 34140 ft | 447 kts | 193° |
| 2026-05-07 05:10 | -35.60209 | -71.33372 | 34453 ft | 446 kts | 193° |
| 2026-05-07 05:10 | -35.63255 | -71.34129 | 34726 ft | 446 kts | 193° |
| 2026-05-07 05:10 | -35.66328 | -71.34892 | 34979 ft | 446 kts | 193° |
| 2026-05-07 05:10 | -35.69330 | -71.35638 | 35187 ft | 447 kts | 193° |
| 2026-05-07 05:11 | -35.75474 | -71.37168 | 35273 ft | 451 kts | 193° |
| 2026-05-07 05:11 | -35.81586 | -71.38690 | 35269 ft | 444 kts | 193° |
| 2026-05-07 05:12 | -35.87628 | -71.40199 | 35276 ft | 443 kts | 193° |
| 2026-05-07 05:12 | -35.93674 | -71.41710 | 35279 ft | 442 kts | 193° |
| 2026-05-07 05:13 | -35.99688 | -71.43217 | 35277 ft | 441 kts | 193° |
| 2026-05-07 05:13 | -36.05676 | -71.44719 | 35280 ft | 442 kts | 193° |
| 2026-05-07 05:14 | -36.11743 | -71.46242 | 35291 ft | 442 kts | 193° |
| 2026-05-07 05:14 | -36.17755 | -71.47755 | 35289 ft | 440 kts | 193° |
| 2026-05-07 05:15 | -36.23704 | -71.49254 | 35288 ft | 438 kts | 192° |
| 2026-05-07 05:15 | -36.29680 | -71.50762 | 35291 ft | 437 kts | 192° |
| 2026-05-07 05:16 | -36.35620 | -71.52263 | 35289 ft | 435 kts | 192° |
| 2026-05-07 05:16 | -36.41550 | -71.53765 | 35290 ft | 435 kts | 192° |
| 2026-05-07 05:17 | -36.47473 | -71.55267 | 35297 ft | 435 kts | 192° |
| 2026-05-07 05:17 | -36.53424 | -71.56778 | 35298 ft | 436 kts | 192° |
| 2026-05-07 05:18 | -36.59338 | -71.58282 | 35294 ft | 433 kts | 192° |
| 2026-05-07 05:18 | -36.64240 | -71.59531 | 35297 ft | 432 kts | 192° |
| 2026-05-07 05:19 | -36.70129 | -71.61033 | 35300 ft | 432 kts | 192° |
| 2026-05-07 05:19 | -36.76012 | -71.62536 | 35300 ft | 432 kts | 192° |
| 2026-05-07 05:20 | -36.81907 | -71.64044 | 35286 ft | 431 kts | 192° |
| 2026-05-07 05:20 | -36.87754 | -71.65543 | 35303 ft | 429 kts | 192° |
| 2026-05-07 05:21 | -36.96514 | -71.67792 | 35284 ft | 427 kts | 192° |
| 2026-05-07 05:22 | -37.02312 | -71.69284 | 35300 ft | 425 kts | 192° |
| 2026-05-07 05:22 | -37.08068 | -71.70768 | 35303 ft | 424 kts | 192° |
| 2026-05-07 05:23 | -37.13842 | -71.72258 | 35300 ft | 424 kts | 192° |
| 2026-05-07 05:23 | -37.19609 | -71.73748 | 35301 ft | 423 kts | 192° |
| 2026-05-07 05:24 | -37.25371 | -71.75240 | 35295 ft | 421 kts | 192° |
| 2026-05-07 05:24 | -37.31112 | -71.76729 | 35295 ft | 420 kts | 192° |
| 2026-05-07 05:25 | -37.36814 | -71.78210 | 35278 ft | 417 kts | 192° |
| 2026-05-07 05:25 | -37.42486 | -71.79685 | 35301 ft | 417 kts | 192° |
| 2026-05-07 05:26 | -37.48163 | -71.81164 | 35300 ft | 417 kts | 191° |
| 2026-05-07 05:26 | -37.53837 | -71.82644 | 35296 ft | 415 kts | 191° |
| 2026-05-07 05:27 | -37.59467 | -71.84115 | 35292 ft | 412 kts | 191° |
| 2026-05-07 05:27 | -37.65030 | -71.85572 | 35288 ft | 410 kts | 191° |
| 2026-05-07 05:28 | -37.70627 | -71.87130 | 35274 ft | 411 kts | 195° |
| 2026-05-07 05:28 | -37.75858 | -71.89953 | 35287 ft | 413 kts | 204° |
| 2026-05-07 05:29 | -37.80980 | -71.93214 | 35287 ft | 411 kts | 203° |
| 2026-05-07 05:29 | -37.86061 | -71.96456 | 35288 ft | 408 kts | 203° |
| 2026-05-07 05:30 | -37.91119 | -71.99693 | 35287 ft | 407 kts | 203° |
| 2026-05-07 05:30 | -37.96176 | -72.02930 | 35289 ft | 406 kts | 203° |
| 2026-05-07 05:31 | -38.01194 | -72.06152 | 35288 ft | 403 kts | 203° |
| 2026-05-07 05:31 | -38.06189 | -72.09359 | 35279 ft | 400 kts | 202° |
| 2026-05-07 05:32 | -38.11129 | -72.12539 | 35275 ft | 398 kts | 202° |
| 2026-05-07 05:32 | -38.16068 | -72.15721 | 35271 ft | 397 kts | 202° |
| 2026-05-07 05:33 | -38.20977 | -72.18890 | 35277 ft | 395 kts | 202° |
| 2026-05-07 05:33 | -38.25855 | -72.22043 | 35273 ft | 392 kts | 202° |
| 2026-05-07 05:34 | -38.30704 | -72.25182 | 35276 ft | 389 kts | 202° |
| 2026-05-07 05:34 | -38.35514 | -72.28301 | 35269 ft | 387 kts | 202° |
| 2026-05-07 05:35 | -38.40288 | -72.31400 | 35270 ft | 387 kts | 202° |
| 2026-05-07 05:35 | -38.45074 | -72.34513 | 35278 ft | 386 kts | 202° |
| 2026-05-07 05:36 | -38.49855 | -72.37626 | 35279 ft | 385 kts | 201° |
| 2026-05-07 05:36 | -38.54613 | -72.40732 | 35264 ft | 382 kts | 201° |
| 2026-05-07 05:37 | -38.59318 | -72.43807 | 35273 ft | 378 kts | 201° |
| 2026-05-07 05:37 | -38.63992 | -72.46865 | 35262 ft | 377 kts | 201° |
| 2026-05-07 05:38 | -38.68670 | -72.49930 | 35266 ft | 378 kts | 201° |
| 2026-05-07 05:38 | -38.73337 | -72.52994 | 35265 ft | 376 kts | 201° |
| 2026-05-07 05:39 | -38.77968 | -72.56039 | 35260 ft | 373 kts | 201° |
| 2026-05-07 05:39 | -38.82586 | -72.59079 | 35259 ft | 371 kts | 201° |
| 2026-05-07 05:40 | -38.87160 | -72.62095 | 35261 ft | 368 kts | 201° |
| 2026-05-07 05:40 | -38.91703 | -72.65005 | 35253 ft | 365 kts | 198° |
| 2026-05-07 05:41 | -38.96357 | -72.67646 | 35268 ft | 366 kts | 199° |
| 2026-05-07 05:41 | -39.00998 | -72.70315 | 35268 ft | 365 kts | 198° |
| 2026-05-07 05:42 | -39.05630 | -72.72960 | 35262 ft | 363 kts | 198° |
| 2026-05-07 05:42 | -39.10212 | -72.75592 | 35263 ft | 361 kts | 198° |
| 2026-05-07 05:43 | -39.14801 | -72.78226 | 35251 ft | 360 kts | 198° |
| 2026-05-07 05:43 | -39.19362 | -72.80850 | 35253 ft | 359 kts | 198° |
| 2026-05-07 05:44 | -39.23925 | -72.83477 | 35254 ft | 360 kts | 198° |
| 2026-05-07 05:44 | -39.28490 | -72.86114 | 35247 ft | 358 kts | 198° |
| 2026-05-07 05:45 | -39.33036 | -72.88738 | 35256 ft | 359 kts | 198° |
| 2026-05-07 05:45 | -39.37596 | -72.91379 | 35254 ft | 359 kts | 198° |
| 2026-05-07 05:46 | -39.42125 | -72.94003 | 35252 ft | 359 kts | 198° |
| 2026-05-07 05:46 | -39.46699 | -72.96660 | 35250 ft | 358 kts | 198° |
| 2026-05-07 05:47 | -39.51209 | -72.99280 | 35264 ft | 357 kts | 198° |
| 2026-05-07 05:47 | -39.55734 | -73.01915 | 35263 ft | 357 kts | 198° |
| 2026-05-07 05:48 | -39.60259 | -73.04553 | 35261 ft | 357 kts | 198° |
| 2026-05-07 05:48 | -39.64782 | -73.07193 | 35258 ft | 357 kts | 199° |
| 2026-05-07 05:49 | -39.69369 | -73.09608 | 35267 ft | 354 kts | 195° |
| 2026-05-07 05:49 | -39.73973 | -73.11787 | 35266 ft | 355 kts | 195° |
| 2026-05-07 05:50 | -39.78603 | -73.13971 | 35261 ft | 354 kts | 195° |
| 2026-05-07 05:50 | -39.83231 | -73.16155 | 35261 ft | 354 kts | 195° |
| 2026-05-07 05:51 | -39.87855 | -73.18346 | 35253 ft | 353 kts | 195° |
| 2026-05-07 05:51 | -39.92467 | -73.20529 | 35249 ft | 352 kts | 195° |
| 2026-05-07 05:52 | -39.97061 | -73.22709 | 35250 ft | 352 kts | 195° |
| 2026-05-07 05:52 | -40.01658 | -73.24893 | 35250 ft | 352 kts | 195° |
| 2026-05-07 05:53 | -40.06269 | -73.27087 | 35247 ft | 353 kts | 196° |
| 2026-05-07 05:53 | -40.10878 | -73.29284 | 35247 ft | 351 kts | 196° |
| 2026-05-07 05:54 | -40.15467 | -73.31473 | 35250 ft | 351 kts | 196° |
| 2026-05-07 05:54 | -40.20032 | -73.33655 | 35248 ft | 351 kts | 196° |
| 2026-05-07 05:55 | -40.24655 | -73.35867 | 35250 ft | 352 kts | 196° |
| 2026-05-07 05:55 | -40.29229 | -73.38060 | 35250 ft | 352 kts | 196° |
| 2026-05-07 05:56 | -40.33833 | -73.40269 | 35252 ft | 352 kts | 196° |
| 2026-05-07 05:56 | -40.38407 | -73.42469 | 35256 ft | 350 kts | 196° |
| 2026-05-07 05:57 | -40.42987 | -73.44673 | 35253 ft | 350 kts | 196° |
| 2026-05-07 05:57 | -40.47549 | -73.46872 | 35246 ft | 350 kts | 196° |
| 2026-05-07 05:58 | -40.52133 | -73.49084 | 35266 ft | 352 kts | 196° |
| 2026-05-07 05:58 | -40.56728 | -73.51307 | 35265 ft | 352 kts | 196° |
| 2026-05-07 05:59 | -40.61330 | -73.53535 | 35260 ft | 351 kts | 196° |
| 2026-05-07 05:59 | -40.65910 | -73.55755 | 35255 ft | 351 kts | 196° |
| 2026-05-07 06:00 | -40.70488 | -73.57979 | 35259 ft | 349 kts | 196° |
| 2026-05-07 06:00 | -40.75072 | -73.60207 | 35271 ft | 352 kts | 196° |
| 2026-05-07 06:01 | -40.79657 | -73.62442 | 35265 ft | 352 kts | 196° |
| 2026-05-07 06:01 | -40.84277 | -73.64694 | 35265 ft | 354 kts | 197° |
| 2026-05-07 06:02 | -40.88892 | -73.66950 | 35292 ft | 352 kts | 197° |
| 2026-05-07 06:02 | -40.93491 | -73.69198 | 35261 ft | 353 kts | 197° |
| 2026-05-07 06:03 | -40.98088 | -73.71452 | 35265 ft | 353 kts | 197° |
| 2026-05-07 06:03 | -41.02699 | -73.73713 | 35274 ft | 354 kts | 197° |
| 2026-05-07 06:04 | -41.07298 | -73.75974 | 35256 ft | 355 kts | 197° |
| 2026-05-07 06:04 | -41.11930 | -73.78253 | 35259 ft | 356 kts | 197° |
| 2026-05-07 06:05 | -41.16570 | -73.80540 | 35272 ft | 355 kts | 197° |
| 2026-05-07 06:05 | -41.21202 | -73.82827 | 35280 ft | 356 kts | 197° |
| 2026-05-07 06:06 | -41.25853 | -73.85126 | 35276 ft | 356 kts | 197° |
| 2026-05-07 06:06 | -41.30482 | -73.87418 | 35269 ft | 354 kts | 197° |
| 2026-05-07 06:07 | -41.35090 | -73.89703 | 35271 ft | 353 kts | 197° |
| 2026-05-07 06:07 | -41.39699 | -73.91991 | 35275 ft | 355 kts | 197° |
| 2026-05-07 06:08 | -41.44316 | -73.94289 | 35279 ft | 357 kts | 198° |
| 2026-05-07 06:08 | -41.48987 | -73.96615 | 35282 ft | 355 kts | 198° |
| 2026-05-07 06:09 | -41.53584 | -73.98909 | 35275 ft | 354 kts | 198° |
| 2026-05-07 06:09 | -41.58191 | -74.01211 | 35272 ft | 354 kts | 198° |
| 2026-05-07 06:10 | -41.62802 | -74.03519 | 35272 ft | 353 kts | 198° |
| 2026-05-07 06:10 | -41.67396 | -74.05821 | 35272 ft | 353 kts | 198° |
| 2026-05-07 06:11 | -41.72003 | -74.08134 | 35273 ft | 355 kts | 198° |
| 2026-05-07 06:11 | -41.76636 | -74.10463 | 35282 ft | 356 kts | 198° |
| 2026-05-07 06:12 | -41.81269 | -74.12796 | 35277 ft | 355 kts | 198° |
| 2026-05-07 06:12 | -41.85885 | -74.15124 | 35272 ft | 354 kts | 198° |
| 2026-05-07 06:13 | -41.89707 | -74.17054 | 35272 ft | 353 kts | 198° |
| 2026-05-07 06:13 | -41.94311 | -74.19382 | 35272 ft | 354 kts | 198° |
| 2026-05-07 06:14 | -41.98918 | -74.21716 | 35275 ft | 355 kts | 199° |
| 2026-05-07 06:14 | -42.03546 | -74.24063 | 35279 ft | 356 kts | 199° |
| 2026-05-07 06:15 | -42.08183 | -74.26419 | 35271 ft | 356 kts | 199° |
| 2026-05-07 06:15 | -42.12808 | -74.28773 | 35271 ft | 355 kts | 199° |
| 2026-05-07 06:16 | -42.17428 | -74.31128 | 35266 ft | 354 kts | 199° |
| 2026-05-07 06:16 | -42.22026 | -74.33475 | 35264 ft | 353 kts | 199° |
| 2026-05-07 06:17 | -42.26633 | -74.35830 | 35267 ft | 355 kts | 199° |
| 2026-05-07 06:17 | -42.31270 | -74.38205 | 35275 ft | 357 kts | 199° |
| 2026-05-07 06:18 | -42.35886 | -74.40573 | 35272 ft | 358 kts | 199° |
| 2026-05-07 06:18 | -42.40526 | -74.42956 | 35270 ft | 356 kts | 199° |
| 2026-05-07 06:19 | -42.45157 | -74.45339 | 35264 ft | 355 kts | 199° |
| 2026-05-07 06:19 | -42.49768 | -74.47715 | 35266 ft | 355 kts | 199° |
| 2026-05-07 06:20 | -42.54393 | -74.50102 | 35267 ft | 356 kts | 199° |
| 2026-05-07 06:20 | -42.59036 | -74.52503 | 35275 ft | 358 kts | 199° |
| 2026-05-07 06:21 | -42.63700 | -74.54918 | 35275 ft | 358 kts | 200° |
| 2026-05-07 06:21 | -42.68355 | -74.57332 | 35272 ft | 357 kts | 200° |
| 2026-05-07 06:22 | -42.72984 | -74.59737 | 35266 ft | 356 kts | 200° |
| 2026-05-07 06:22 | -42.79929 | -74.63351 | 35268 ft | 357 kts | 200° |
| 2026-05-07 06:23 | -42.84581 | -74.65778 | 35273 ft | 358 kts | 200° |
| 2026-05-07 06:23 | -42.89240 | -74.68211 | 35279 ft | 359 kts | 200° |
| 2026-05-07 06:24 | -42.93871 | -74.70635 | 35271 ft | 358 kts | 200° |
| 2026-05-07 06:24 | -42.98549 | -74.73087 | 35271 ft | 358 kts | 200° |
| 2026-05-07 06:25 | -43.03160 | -74.75507 | 35267 ft | 357 kts | 200° |
| 2026-05-07 06:25 | -43.07789 | -74.77941 | 35264 ft | 356 kts | 200° |
| 2026-05-07 06:26 | -43.12414 | -74.80376 | 35263 ft | 357 kts | 200° |
| 2026-05-07 06:26 | -43.17055 | -74.82825 | 35282 ft | 359 kts | 200° |
| 2026-05-07 06:27 | -43.21729 | -74.85294 | 35271 ft | 359 kts | 201° |
| 2026-05-07 06:27 | -43.26388 | -74.87760 | 35266 ft | 359 kts | 201° |
| 2026-05-07 06:28 | -43.31053 | -74.90233 | 35267 ft | 359 kts | 201° |
| 2026-05-07 06:28 | -43.35702 | -74.92701 | 35264 ft | 358 kts | 201° |
| 2026-05-07 06:29 | -43.40356 | -74.95177 | 35264 ft | 358 kts | 201° |
| 2026-05-07 06:29 | -43.44972 | -74.97636 | 35263 ft | 358 kts | 201° |
| 2026-05-07 06:30 | -43.49613 | -75.00113 | 35272 ft | 358 kts | 201° |
| 2026-05-07 06:30 | -43.54263 | -75.02598 | 35279 ft | 360 kts | 201° |
| 2026-05-07 06:31 | -43.58935 | -75.05099 | 35283 ft | 361 kts | 201° |
| 2026-05-07 06:31 | -43.63617 | -75.07610 | 35278 ft | 362 kts | 201° |
| 2026-05-07 06:32 | -43.68305 | -75.10128 | 35277 ft | 360 kts | 201° |
| 2026-05-07 06:32 | -43.72967 | -75.12637 | 35273 ft | 359 kts | 201° |
| 2026-05-07 06:33 | -43.77628 | -75.15149 | 35267 ft | 359 kts | 202° |
| 2026-05-07 06:33 | -43.82272 | -75.17656 | 35263 ft | 359 kts | 202° |
| 2026-05-07 06:34 | -43.86932 | -75.20177 | 35261 ft | 360 kts | 202° |
| 2026-05-07 06:34 | -43.91621 | -75.22717 | 35276 ft | 362 kts | 202° |
| 2026-05-07 06:35 | -43.96308 | -75.25260 | 35274 ft | 362 kts | 202° |
| 2026-05-07 06:35 | -44.00990 | -75.27805 | 35272 ft | 361 kts | 202° |
| 2026-05-07 06:36 | -44.05660 | -75.30347 | 35272 ft | 360 kts | 202° |
| 2026-05-07 06:36 | -44.10325 | -75.32892 | 35269 ft | 359 kts | 202° |
| 2026-05-07 06:37 | -44.14988 | -75.35439 | 35268 ft | 361 kts | 202° |
| 2026-05-07 06:37 | -44.19639 | -75.37985 | 35278 ft | 362 kts | 202° |
| 2026-05-07 06:38 | -44.24365 | -75.40575 | 35269 ft | 363 kts | 202° |
| 2026-05-07 06:38 | -44.29054 | -75.43150 | 35269 ft | 362 kts | 203° |
| 2026-05-07 06:39 | -44.33708 | -75.45710 | 35276 ft | 361 kts | 203° |
| 2026-05-07 06:39 | -44.38371 | -75.48280 | 35267 ft | 360 kts | 203° |
| 2026-05-07 06:40 | -44.43033 | -75.50853 | 35274 ft | 360 kts | 203° |
| 2026-05-07 06:40 | -44.47692 | -75.53429 | 35266 ft | 359 kts | 203° |
| 2026-05-07 06:41 | -44.52333 | -75.56000 | 35275 ft | 360 kts | 203° |
| 2026-05-07 06:41 | -44.56994 | -75.58586 | 35280 ft | 361 kts | 203° |
| 2026-05-07 06:42 | -44.61685 | -75.61193 | 35272 ft | 362 kts | 204° |
| 2026-05-07 06:42 | -44.66358 | -75.63795 | 35260 ft | 362 kts | 204° |
| 2026-05-07 06:43 | -44.71025 | -75.66397 | 35262 ft | 361 kts | 204° |
| 2026-05-07 06:43 | -44.75695 | -75.69006 | 35262 ft | 360 kts | 204° |
| 2026-05-07 06:44 | -44.80319 | -75.71594 | 35257 ft | 360 kts | 204° |
| 2026-05-07 06:44 | -44.84960 | -75.74196 | 35258 ft | 359 kts | 204° |
| 2026-05-07 06:45 | -44.89604 | -75.76804 | 35255 ft | 359 kts | 204° |
| 2026-05-07 06:45 | -44.94285 | -75.79438 | 35257 ft | 361 kts | 204° |
| 2026-05-07 06:46 | -44.98926 | -75.82053 | 35269 ft | 362 kts | 204° |
| 2026-05-07 06:46 | -45.03601 | -75.84693 | 35268 ft | 362 kts | 204° |
| 2026-05-07 06:47 | -45.08268 | -75.87332 | 35270 ft | 360 kts | 204° |
| 2026-05-07 06:47 | -45.12919 | -75.89967 | 35263 ft | 359 kts | 205° |
| 2026-05-07 06:48 | -45.17551 | -75.92597 | 35266 ft | 360 kts | 205° |
| 2026-05-07 06:48 | -45.22216 | -75.95249 | 35273 ft | 362 kts | 205° |
| 2026-05-07 06:49 | -45.26899 | -75.97916 | 35273 ft | 363 kts | 205° |
| 2026-05-07 06:49 | -45.31570 | -76.00581 | 35277 ft | 362 kts | 205° |
| 2026-05-07 06:50 | -45.36241 | -76.03251 | 35273 ft | 361 kts | 205° |
| 2026-05-07 06:50 | -45.40871 | -76.05902 | 35272 ft | 361 kts | 205° |
| 2026-05-07 06:51 | -45.45523 | -76.08571 | 35277 ft | 360 kts | 205° |
| 2026-05-07 06:51 | -45.50165 | -76.11239 | 35267 ft | 361 kts | 205° |
| 2026-05-07 06:52 | -45.54838 | -76.13929 | 35276 ft | 363 kts | 206° |
| 2026-05-07 06:52 | -45.59523 | -76.16630 | 35270 ft | 364 kts | 206° |
| 2026-05-07 06:53 | -45.64206 | -76.19336 | 35271 ft | 362 kts | 206° |
| 2026-05-07 06:53 | -45.68860 | -76.22030 | 35268 ft | 361 kts | 206° |
| 2026-05-07 06:54 | -45.73519 | -76.24732 | 35273 ft | 361 kts | 206° |
| 2026-05-07 06:54 | -45.78181 | -76.27441 | 35273 ft | 363 kts | 206° |
| 2026-05-07 06:55 | -45.82876 | -76.30172 | 35272 ft | 364 kts | 206° |
| 2026-05-07 06:55 | -45.87530 | -76.32885 | 35269 ft | 363 kts | 206° |
| 2026-05-07 06:56 | -45.92229 | -76.35630 | 35268 ft | 362 kts | 206° |
| 2026-05-07 06:56 | -45.96855 | -76.38337 | 35269 ft | 361 kts | 206° |
| 2026-05-07 06:57 | -46.01506 | -76.41064 | 35275 ft | 361 kts | 207° |
| 2026-05-07 06:57 | -46.06155 | -76.43794 | 35269 ft | 362 kts | 207° |
| 2026-05-07 06:58 | -46.10830 | -76.46544 | 35268 ft | 363 kts | 207° |
| 2026-05-07 06:58 | -46.15505 | -76.49301 | 35272 ft | 364 kts | 207° |
| 2026-05-07 06:59 | -46.20189 | -76.52066 | 35268 ft | 363 kts | 207° |
| 2026-05-07 06:59 | -46.24847 | -76.54822 | 35269 ft | 362 kts | 207° |
| 2026-05-07 07:00 | -46.29498 | -76.57578 | 35266 ft | 361 kts | 207° |
| 2026-05-07 07:00 | -46.34156 | -76.60345 | 35266 ft | 363 kts | 207° |
| 2026-05-07 07:01 | -46.38806 | -76.63111 | 35267 ft | 365 kts | 207° |
| 2026-05-07 07:01 | -46.43503 | -76.65910 | 35266 ft | 364 kts | 207° |
| 2026-05-07 07:02 | -46.48184 | -76.68705 | 35263 ft | 364 kts | 208° |
| 2026-05-07 07:02 | -46.52854 | -76.71499 | 35265 ft | 364 kts | 208° |
| 2026-05-07 07:03 | -46.57542 | -76.74309 | 35266 ft | 364 kts | 208° |
| 2026-05-07 07:03 | -46.62228 | -76.77123 | 35269 ft | 365 kts | 208° |
| 2026-05-07 07:04 | -46.66927 | -76.79949 | 35264 ft | 365 kts | 208° |
| 2026-05-07 07:04 | -46.71578 | -76.82753 | 35262 ft | 364 kts | 208° |
| 2026-05-07 07:05 | -46.76271 | -76.85587 | 35260 ft | 363 kts | 208° |
| 2026-05-07 07:05 | -46.80910 | -76.88394 | 35259 ft | 364 kts | 208° |
| 2026-05-07 07:06 | -46.85586 | -76.91228 | 35249 ft | 365 kts | 208° |
| 2026-05-07 07:06 | -46.90283 | -76.94081 | 35246 ft | 366 kts | 208° |
| 2026-05-07 07:07 | -46.94194 | -76.96460 | 35250 ft | 367 kts | 208° |
| 2026-05-07 07:07 | -46.98901 | -76.99328 | 35254 ft | 366 kts | 208° |
| 2026-05-07 07:08 | -47.03602 | -77.02193 | 35250 ft | 366 kts | 208° |
| 2026-05-07 07:08 | -47.08310 | -77.05060 | 35248 ft | 366 kts | 209° |
| 2026-05-07 07:09 | -47.13001 | -77.07927 | 35255 ft | 365 kts | 209° |
| 2026-05-07 07:09 | -47.17685 | -77.10793 | 35252 ft | 365 kts | 209° |
| 2026-05-07 07:10 | -47.22377 | -77.13672 | 35258 ft | 366 kts | 209° |
| 2026-05-07 07:10 | -47.27101 | -77.16574 | 35262 ft | 369 kts | 209° |
| 2026-05-07 07:11 | -47.31836 | -77.19487 | 35258 ft | 369 kts | 209° |
| 2026-05-07 07:11 | -47.36573 | -77.22409 | 35257 ft | 368 kts | 209° |
| 2026-05-07 07:12 | -47.41298 | -77.25329 | 35261 ft | 368 kts | 209° |
| 2026-05-07 07:12 | -47.46008 | -77.28245 | 35253 ft | 367 kts | 209° |
| 2026-05-07 07:13 | -47.50726 | -77.31173 | 35251 ft | 368 kts | 210° |
| 2026-05-07 07:13 | -47.55434 | -77.34100 | 35244 ft | 371 kts | 210° |
| 2026-05-07 07:14 | -47.60191 | -77.37062 | 35244 ft | 372 kts | 210° |
| 2026-05-07 07:14 | -47.64968 | -77.40042 | 35252 ft | 372 kts | 210° |
| 2026-05-07 07:15 | -47.69720 | -77.43014 | 35247 ft | 371 kts | 210° |
| 2026-05-07 07:15 | -47.74481 | -77.45997 | 35254 ft | 371 kts | 210° |
| 2026-05-07 07:16 | -47.79228 | -77.48978 | 35248 ft | 371 kts | 210° |
| 2026-05-07 07:16 | -47.84001 | -77.51981 | 35251 ft | 373 kts | 210° |
| 2026-05-07 07:17 | -47.88785 | -77.54996 | 35251 ft | 375 kts | 210° |
| 2026-05-07 07:17 | -47.93597 | -77.58035 | 35248 ft | 375 kts | 210° |
| 2026-05-07 07:18 | -47.98367 | -77.61053 | 35247 ft | 374 kts | 210° |
| 2026-05-07 07:18 | -48.03156 | -77.64090 | 35244 ft | 374 kts | 210° |
| 2026-05-07 07:19 | -48.07948 | -77.67136 | 35242 ft | 375 kts | 210° |
| 2026-05-07 07:19 | -48.12767 | -77.70205 | 35243 ft | 377 kts | 210° |
| 2026-05-07 07:20 | -48.17606 | -77.73292 | 35239 ft | 379 kts | 211° |
| 2026-05-07 07:20 | -48.22461 | -77.76395 | 35236 ft | 380 kts | 211° |
| 2026-05-07 07:21 | -48.27317 | -77.79505 | 35238 ft | 379 kts | 211° |
| 2026-05-07 07:21 | -48.32152 | -77.82610 | 35234 ft | 378 kts | 211° |
| 2026-05-07 07:22 | -48.36993 | -77.85726 | 35233 ft | 379 kts | 211° |
| 2026-05-07 07:22 | -48.41852 | -77.88858 | 35241 ft | 381 kts | 211° |
| 2026-05-07 07:23 | -48.46713 | -77.91997 | 35236 ft | 382 kts | 211° |
| 2026-05-07 07:23 | -48.51583 | -77.95149 | 35234 ft | 381 kts | 211° |
| 2026-05-07 07:24 | -48.56479 | -77.98326 | 35233 ft | 381 kts | 211° |
| 2026-05-07 07:24 | -48.61331 | -78.01482 | 35232 ft | 383 kts | 211° |
| 2026-05-07 07:25 | -48.68699 | -78.06284 | 35231 ft | 386 kts | 211° |
| 2026-05-07 07:26 | -48.73636 | -78.09510 | 35234 ft | 387 kts | 211° |
| 2026-05-07 07:26 | -48.78567 | -78.12739 | 35236 ft | 386 kts | 211° |
| 2026-05-07 07:27 | -48.83501 | -78.15978 | 35227 ft | 386 kts | 212° |
| 2026-05-07 07:27 | -48.88416 | -78.19211 | 35226 ft | 385 kts | 212° |
| 2026-05-07 07:28 | -48.93340 | -78.22458 | 35227 ft | 387 kts | 212° |
| 2026-05-07 07:28 | -48.98282 | -78.25722 | 35231 ft | 388 kts | 212° |
| 2026-05-07 07:29 | -49.03235 | -78.29001 | 35225 ft | 389 kts | 212° |
| 2026-05-07 07:29 | -49.08202 | -78.32297 | 35227 ft | 389 kts | 212° |
| 2026-05-07 07:30 | -49.13137 | -78.35578 | 35224 ft | 389 kts | 212° |
| 2026-05-07 07:30 | -49.18099 | -78.38885 | 35223 ft | 390 kts | 212° |
| 2026-05-07 07:31 | -49.23069 | -78.42205 | 35226 ft | 390 kts | 212° |
| 2026-05-07 07:31 | -49.28053 | -78.45543 | 35222 ft | 393 kts | 212° |
| 2026-05-07 07:32 | -49.33074 | -78.48910 | 35223 ft | 395 kts | 212° |
| 2026-05-07 07:32 | -49.38120 | -78.52301 | 35221 ft | 395 kts | 212° |
| 2026-05-07 07:33 | -49.43135 | -78.55681 | 35214 ft | 394 kts | 212° |
| 2026-05-07 07:33 | -49.48141 | -78.59062 | 35212 ft | 393 kts | 213° |
| 2026-05-07 07:34 | -49.53168 | -78.62466 | 35218 ft | 394 kts | 213° |
| 2026-05-07 07:34 | -49.58191 | -78.65873 | 35217 ft | 395 kts | 213° |
| 2026-05-07 07:35 | -49.63227 | -78.69297 | 35214 ft | 396 kts | 213° |
| 2026-05-07 07:35 | -49.68235 | -78.72710 | 35215 ft | 396 kts | 213° |
| 2026-05-07 07:36 | -49.73271 | -78.76150 | 35212 ft | 396 kts | 213° |
| 2026-05-07 07:36 | -49.78323 | -78.79610 | 35214 ft | 399 kts | 213° |
| 2026-05-07 07:37 | -49.83417 | -78.83105 | 35212 ft | 401 kts | 213° |
| 2026-05-07 07:37 | -49.88521 | -78.86614 | 35209 ft | 402 kts | 213° |
| 2026-05-07 07:38 | -49.93627 | -78.90134 | 35204 ft | 401 kts | 213° |
| 2026-05-07 07:38 | -49.98723 | -78.93656 | 35203 ft | 401 kts | 213° |
| 2026-05-07 07:39 | -50.03827 | -78.97192 | 35203 ft | 402 kts | 213° |
| 2026-05-07 07:39 | -50.08951 | -79.00750 | 35202 ft | 405 kts | 213° |
| 2026-05-07 07:40 | -50.14082 | -79.04319 | 35199 ft | 406 kts | 213° |
| 2026-05-07 07:40 | -50.19279 | -79.07942 | 35199 ft | 406 kts | 213° |
| 2026-05-07 07:41 | -50.24393 | -79.11519 | 35197 ft | 406 kts | 213° |
| 2026-05-07 07:41 | -50.29557 | -79.15137 | 35199 ft | 406 kts | 213° |
| 2026-05-07 07:42 | -50.34704 | -79.18754 | 35196 ft | 406 kts | 213° |
| 2026-05-07 07:42 | -50.39867 | -79.22391 | 35195 ft | 408 kts | 213° |
| 2026-05-07 07:43 | -50.45068 | -79.26060 | 35179 ft | 409 kts | 213° |
| 2026-05-07 07:43 | -50.50256 | -79.29732 | 35182 ft | 410 kts | 213° |
| 2026-05-07 07:44 | -50.55459 | -79.33422 | 35181 ft | 410 kts | 213° |
| 2026-05-07 07:44 | -50.60661 | -79.37121 | 35181 ft | 411 kts | 213° |
| 2026-05-07 07:45 | -50.65872 | -79.40835 | 35181 ft | 411 kts | 213° |
| 2026-05-07 07:45 | -50.71106 | -79.44577 | 35186 ft | 414 kts | 213° |
| 2026-05-07 07:46 | -50.76323 | -79.48313 | 35183 ft | 416 kts | 213° |
| 2026-05-07 07:46 | -50.81641 | -79.52130 | 35186 ft | 417 kts | 213° |
| 2026-05-07 07:47 | -50.86892 | -79.55909 | 35179 ft | 417 kts | 213° |
| 2026-05-07 07:47 | -50.92155 | -79.59708 | 35178 ft | 416 kts | 213° |
| 2026-05-07 07:48 | -50.97441 | -79.63534 | 35181 ft | 418 kts | 213° |
| 2026-05-07 07:48 | -51.02737 | -79.67374 | 35181 ft | 420 kts | 213° |
| 2026-05-07 07:49 | -51.08056 | -79.71242 | 35180 ft | 421 kts | 213° |
| 2026-05-07 07:49 | -51.13378 | -79.75120 | 35179 ft | 421 kts | 213° |
| 2026-05-07 07:50 | -51.18708 | -79.79016 | 35174 ft | 421 kts | 213° |
| 2026-05-07 07:50 | -51.24035 | -79.82919 | 35174 ft | 421 kts | 213° |
| 2026-05-07 07:51 | -51.29316 | -79.86799 | 35174 ft | 422 kts | 213° |
| 2026-05-07 07:51 | -51.34702 | -79.90765 | 35169 ft | 424 kts | 213° |
| 2026-05-07 07:52 | -51.40070 | -79.94729 | 35171 ft | 425 kts | 213° |
| 2026-05-07 07:52 | -51.45414 | -79.98685 | 35169 ft | 426 kts | 213° |
| 2026-05-07 07:53 | -51.50787 | -80.02672 | 35170 ft | 426 kts | 213° |
| 2026-05-07 07:53 | -51.56162 | -80.06673 | 35164 ft | 426 kts | 213° |
| 2026-05-07 07:54 | -51.61543 | -80.10687 | 35165 ft | 427 kts | 213° |
| 2026-05-07 07:54 | -51.66950 | -80.14733 | 35166 ft | 429 kts | 213° |
| 2026-05-07 07:55 | -51.72372 | -80.18799 | 35167 ft | 431 kts | 212° |
| 2026-05-07 07:55 | -51.77815 | -80.22893 | 35167 ft | 433 kts | 212° |
| 2026-05-07 07:56 | -51.83265 | -80.27001 | 35161 ft | 432 kts | 212° |
| 2026-05-07 07:56 | -51.88723 | -80.31129 | 35168 ft | 433 kts | 212° |
| 2026-05-07 07:57 | -51.94184 | -80.35269 | 35149 ft | 434 kts | 212° |
| 2026-05-07 07:57 | -51.99629 | -80.39408 | 35165 ft | 436 kts | 212° |
| 2026-05-07 07:58 | -52.05122 | -80.43595 | 35152 ft | 437 kts | 212° |
| 2026-05-07 07:58 | -52.10616 | -80.47794 | 35153 ft | 437 kts | 212° |
| 2026-05-07 07:59 | -52.16111 | -80.52006 | 35141 ft | 437 kts | 212° |
| 2026-05-07 07:59 | -52.21615 | -80.56235 | 35140 ft | 437 kts | 212° |
| 2026-05-07 08:00 | -52.27103 | -80.60465 | 35141 ft | 437 kts | 212° |
| 2026-05-07 08:00 | -52.32609 | -80.64721 | 35148 ft | 439 kts | 212° |
| 2026-05-07 08:01 | -52.38142 | -80.69007 | 35139 ft | 441 kts | 212° |
| 2026-05-07 08:01 | -52.43708 | -80.73334 | 35149 ft | 443 kts | 212° |
| 2026-05-07 08:02 | -52.49241 | -80.77644 | 35143 ft | 442 kts | 211° |
| 2026-05-07 08:02 | -52.54796 | -80.81986 | 35142 ft | 443 kts | 211° |
| 2026-05-07 08:03 | -52.60359 | -80.86346 | 35132 ft | 444 kts | 211° |
| 2026-05-07 08:03 | -52.65047 | -80.90028 | 35137 ft | 445 kts | 211° |
| 2026-05-07 08:04 | -52.70639 | -80.94434 | 35137 ft | 446 kts | 211° |
| 2026-05-07 08:04 | -52.76201 | -80.98826 | 35137 ft | 445 kts | 211° |
| 2026-05-07 08:05 | -52.81775 | -81.03243 | 35131 ft | 445 kts | 211° |
| 2026-05-07 08:05 | -52.87348 | -81.07671 | 35128 ft | 445 kts | 211° |
| 2026-05-07 08:06 | -52.92946 | -81.12133 | 35132 ft | 447 kts | 211° |
| 2026-05-07 08:06 | -52.98557 | -81.16616 | 35131 ft | 449 kts | 211° |
| 2026-05-07 08:07 | -53.04200 | -81.21138 | 35122 ft | 450 kts | 211° |
| 2026-05-07 08:07 | -53.09835 | -81.25668 | 35124 ft | 450 kts | 211° |
| 2026-05-07 08:08 | -53.15473 | -81.30213 | 35124 ft | 451 kts | 211° |
| 2026-05-07 08:08 | -53.21125 | -81.34783 | 35117 ft | 451 kts | 211° |
| 2026-05-07 08:09 | -53.26768 | -81.39360 | 35116 ft | 451 kts | 211° |
| 2026-05-07 08:09 | -53.32374 | -81.43919 | 35113 ft | 451 kts | 211° |
| 2026-05-07 08:10 | -53.38013 | -81.48519 | 35114 ft | 452 kts | 211° |
| 2026-05-07 08:10 | -53.43692 | -81.53165 | 35110 ft | 454 kts | 211° |
| 2026-05-07 08:11 | -53.49372 | -81.57825 | 35110 ft | 455 kts | 211° |
| 2026-05-07 08:11 | -53.55053 | -81.62501 | 35107 ft | 455 kts | 211° |
| 2026-05-07 08:12 | -53.60736 | -81.67193 | 35103 ft | 455 kts | 211° |
| 2026-05-07 08:12 | -53.66417 | -81.71897 | 35100 ft | 455 kts | 211° |
| 2026-05-07 08:13 | -53.72108 | -81.76624 | 35103 ft | 456 kts | 211° |
| 2026-05-07 08:13 | -53.77786 | -81.81354 | 35098 ft | 459 kts | 211° |
| 2026-05-07 08:14 | -53.83555 | -81.86174 | 35090 ft | 461 kts | 211° |
| 2026-05-07 08:14 | -53.89265 | -81.90959 | 35088 ft | 460 kts | 211° |
| 2026-05-07 08:15 | -53.94999 | -81.95782 | 35086 ft | 460 kts | 211° |
| 2026-05-07 08:15 | -54.00719 | -82.00657 | 35080 ft | 457 kts | 213° |
| 2026-05-07 08:16 | -54.06288 | -82.05959 | 35075 ft | 461 kts | 213° |
| 2026-05-07 08:16 | -54.11896 | -82.11253 | 35082 ft | 462 kts | 213° |
| 2026-05-07 08:17 | -54.17509 | -82.16612 | 35078 ft | 462 kts | 213° |
| 2026-05-07 08:17 | -54.23123 | -82.21961 | 35077 ft | 462 kts | 213° |
| 2026-05-07 08:18 | -54.28730 | -82.27336 | 35065 ft | 463 kts | 213° |
| 2026-05-07 08:18 | -54.34354 | -82.32736 | 35067 ft | 463 kts | 213° |
| 2026-05-07 08:19 | -54.39958 | -82.38138 | 35063 ft | 462 kts | 213° |
| 2026-05-07 08:19 | -54.45533 | -82.43528 | 35057 ft | 462 kts | 213° |
| 2026-05-07 08:20 | -54.51146 | -82.48971 | 35056 ft | 464 kts | 213° |
| 2026-05-07 08:20 | -54.56770 | -82.54443 | 35059 ft | 466 kts | 213° |
| 2026-05-07 08:21 | -54.62422 | -82.59959 | 35051 ft | 468 kts | 213° |
| 2026-05-07 08:21 | -54.68082 | -82.65501 | 35047 ft | 468 kts | 213° |
| 2026-05-07 08:22 | -54.73746 | -82.71065 | 35043 ft | 468 kts | 213° |
| 2026-05-07 08:22 | -54.79395 | -82.76633 | 35037 ft | 468 kts | 213° |
| 2026-05-07 08:23 | -54.85045 | -82.82219 | 35034 ft | 467 kts | 213° |
| 2026-05-07 08:23 | -54.90700 | -82.87829 | 35029 ft | 468 kts | 213° |
| 2026-05-07 08:24 | -54.96360 | -82.93462 | 35026 ft | 469 kts | 213° |
| 2026-05-07 08:24 | -55.01988 | -82.99082 | 35029 ft | 471 kts | 213° |
| 2026-05-07 08:25 | -55.07670 | -83.04773 | 35013 ft | 471 kts | 213° |
| 2026-05-07 08:25 | -55.13347 | -83.10480 | 35011 ft | 471 kts | 214° |
| 2026-05-07 08:26 | -55.21859 | -83.19070 | 35006 ft | 470 kts | 214° |
| 2026-05-07 08:26 | -55.27517 | -83.24806 | 35005 ft | 471 kts | 214° |
| 2026-05-07 08:27 | -55.33197 | -83.30581 | 35002 ft | 473 kts | 214° |
| 2026-05-07 08:27 | -55.38890 | -83.36390 | 34994 ft | 474 kts | 214° |
| 2026-05-07 08:28 | -55.44599 | -83.42232 | 34994 ft | 474 kts | 214° |
| 2026-05-07 08:28 | -55.50298 | -83.48090 | 34990 ft | 475 kts | 214° |
| 2026-05-07 08:29 | -55.56007 | -83.53969 | 34988 ft | 475 kts | 214° |
| 2026-05-07 08:29 | -55.61725 | -83.59887 | 34982 ft | 475 kts | 214° |
| 2026-05-07 08:30 | -55.67386 | -83.65758 | 34977 ft | 474 kts | 214° |
| 2026-05-07 08:30 | -55.73080 | -83.71689 | 34977 ft | 476 kts | 214° |
| 2026-05-07 08:31 | -55.78792 | -83.77659 | 34973 ft | 477 kts | 214° |
| 2026-05-07 08:31 | -55.84512 | -83.83654 | 34966 ft | 478 kts | 214° |
| 2026-05-07 08:32 | -55.90231 | -83.89673 | 34959 ft | 478 kts | 215° |
| 2026-05-07 08:32 | -55.95960 | -83.95716 | 34958 ft | 477 kts | 215° |
| 2026-05-07 08:33 | -56.01694 | -84.01689 | 34952 ft | 480 kts | 213° |
| 2026-05-07 08:33 | -56.07508 | -84.07634 | 34953 ft | 481 kts | 214° |
| 2026-05-07 08:34 | -56.13341 | -84.13584 | 34948 ft | 483 kts | 213° |
| 2026-05-07 08:34 | -56.19169 | -84.19542 | 34939 ft | 482 kts | 214° |
| 2026-05-07 08:35 | -56.24947 | -84.25494 | 34935 ft | 482 kts | 214° |
| 2026-05-07 08:35 | -56.30776 | -84.31499 | 34937 ft | 482 kts | 214° |
| 2026-05-07 08:36 | -56.36587 | -84.37520 | 34918 ft | 483 kts | 214° |
| 2026-05-07 08:36 | -56.42426 | -84.43577 | 34930 ft | 485 kts | 214° |
| 2026-05-07 08:37 | -56.48271 | -84.49678 | 34916 ft | 485 kts | 214° |
| 2026-05-07 08:37 | -56.54112 | -84.55784 | 34916 ft | 485 kts | 214° |
| 2026-05-07 08:38 | -56.59954 | -84.61922 | 34910 ft | 486 kts | 214° |
| 2026-05-07 08:38 | -56.65824 | -84.68106 | 34906 ft | 488 kts | 214° |
| 2026-05-07 08:39 | -56.71702 | -84.74322 | 34902 ft | 490 kts | 215° |
| 2026-05-07 08:39 | -56.77592 | -84.80571 | 34898 ft | 490 kts | 215° |
| 2026-05-07 08:40 | -56.83438 | -84.86805 | 34896 ft | 490 kts | 215° |
| 2026-05-07 08:40 | -56.89315 | -84.93087 | 34891 ft | 490 kts | 215° |
| 2026-05-07 08:41 | -56.95193 | -84.99397 | 34882 ft | 490 kts | 215° |
| 2026-05-07 08:41 | -57.01093 | -85.05751 | 34883 ft | 491 kts | 215° |
| 2026-05-07 08:42 | -57.06974 | -85.12111 | 34867 ft | 492 kts | 215° |
| 2026-05-07 08:42 | -57.12878 | -85.18517 | 34864 ft | 492 kts | 215° |
| 2026-05-07 08:43 | -57.18776 | -85.24947 | 34855 ft | 494 kts | 215° |
| 2026-05-07 08:43 | -57.24688 | -85.31411 | 34854 ft | 494 kts | 215° |
| 2026-05-07 08:44 | -57.30606 | -85.37906 | 34846 ft | 495 kts | 215° |
| 2026-05-07 08:44 | -57.36535 | -85.44438 | 34846 ft | 496 kts | 216° |
| 2026-05-07 08:45 | -57.42428 | -85.50953 | 34842 ft | 497 kts | 216° |
| 2026-05-07 08:45 | -57.48371 | -85.57552 | 34837 ft | 499 kts | 216° |
| 2026-05-07 08:46 | -57.54329 | -85.64197 | 34828 ft | 500 kts | 216° |
| 2026-05-07 08:46 | -57.60307 | -85.70878 | 34823 ft | 501 kts | 216° |
| 2026-05-07 08:47 | -57.66275 | -85.77589 | 34809 ft | 500 kts | 216° |
| 2026-05-07 08:47 | -57.72233 | -85.84299 | 34808 ft | 500 kts | 216° |
| 2026-05-07 08:48 | -57.78160 | -85.91014 | 34802 ft | 501 kts | 216° |
| 2026-05-07 08:48 | -57.84127 | -85.97792 | 34803 ft | 502 kts | 216° |
| 2026-05-07 08:49 | -57.90138 | -86.04645 | 34787 ft | 502 kts | 216° |
| 2026-05-07 08:49 | -57.96070 | -86.11444 | 34789 ft | 503 kts | 216° |
| 2026-05-07 08:50 | -58.02055 | -86.18321 | 34783 ft | 504 kts | 216° |
| 2026-05-07 08:50 | -58.08043 | -86.25237 | 34774 ft | 504 kts | 216° |
| 2026-05-07 08:51 | -58.14031 | -86.32177 | 34768 ft | 505 kts | 216° |
| 2026-05-07 08:51 | -58.20014 | -86.39136 | 34752 ft | 505 kts | 216° |
| 2026-05-07 08:52 | -58.26010 | -86.46142 | 34747 ft | 506 kts | 216° |
| 2026-05-07 08:52 | -58.31999 | -86.53167 | 34747 ft | 506 kts | 216° |
| 2026-05-07 08:53 | -58.37983 | -86.60215 | 34734 ft | 506 kts | 217° |
| 2026-05-07 08:53 | -58.43929 | -86.67246 | 34737 ft | 506 kts | 217° |
| 2026-05-07 08:54 | -58.49897 | -86.74331 | 34730 ft | 506 kts | 217° |
| 2026-05-07 08:54 | -58.55871 | -86.81455 | 34716 ft | 506 kts | 217° |
| 2026-05-07 08:55 | -58.61861 | -86.88624 | 34711 ft | 507 kts | 217° |
| 2026-05-07 08:55 | -58.67842 | -86.95811 | 34705 ft | 508 kts | 217° |
| 2026-05-07 08:56 | -58.73841 | -87.03053 | 34700 ft | 510 kts | 217° |
| 2026-05-07 08:56 | -58.79849 | -87.10331 | 34688 ft | 511 kts | 217° |
| 2026-05-07 08:57 | -58.85865 | -87.17655 | 34683 ft | 511 kts | 217° |
| 2026-05-07 08:57 | -58.91836 | -87.24951 | 34678 ft | 511 kts | 217° |
| 2026-05-07 08:58 | -58.97877 | -87.32361 | 34672 ft | 512 kts | 217° |
| 2026-05-07 08:58 | -59.03846 | -87.39721 | 34664 ft | 511 kts | 217° |
| 2026-05-07 08:59 | -59.09852 | -87.47145 | 34651 ft | 512 kts | 217° |
| 2026-05-07 08:59 | -59.15852 | -87.54607 | 34650 ft | 512 kts | 217° |
| 2026-05-07 09:00 | -59.21870 | -87.62113 | 34629 ft | 513 kts | 217° |
| 2026-05-07 09:00 | -59.27870 | -87.69633 | 34627 ft | 513 kts | 217° |
| 2026-05-07 09:01 | -59.32868 | -87.75922 | 34628 ft | 514 kts | 217° |
| 2026-05-07 09:01 | -59.38874 | -87.83506 | 34626 ft | 514 kts | 218° |
| 2026-05-07 09:02 | -59.44888 | -87.91137 | 34615 ft | 514 kts | 218° |
| 2026-05-07 09:02 | -59.50884 | -87.98771 | 34607 ft | 514 kts | 218° |
| 2026-05-07 09:03 | -59.56885 | -88.06449 | 34601 ft | 514 kts | 218° |
| 2026-05-07 09:03 | -59.62879 | -88.14151 | 34589 ft | 515 kts | 218° |
| 2026-05-07 09:04 | -59.68888 | -88.21907 | 34587 ft | 515 kts | 218° |
| 2026-05-07 09:04 | -59.74900 | -88.29696 | 34576 ft | 516 kts | 218° |
| 2026-05-07 09:05 | -59.80897 | -88.37505 | 34564 ft | 516 kts | 218° |
| 2026-05-07 09:05 | -59.86884 | -88.45331 | 34556 ft | 515 kts | 218° |
| 2026-05-07 09:06 | -59.92875 | -88.53198 | 34555 ft | 515 kts | 218° |
| 2026-05-07 09:06 | -59.98850 | -88.61080 | 34544 ft | 515 kts | 218° |
| 2026-05-07 09:07 | -60.04780 | -88.68936 | 34536 ft | 515 kts | 218° |
| 2026-05-07 09:07 | -60.10760 | -88.76893 | 34530 ft | 516 kts | 218° |
| 2026-05-07 09:08 | -60.16726 | -88.84866 | 34521 ft | 516 kts | 218° |
| 2026-05-07 09:08 | -60.22688 | -88.92869 | 34518 ft | 516 kts | 218° |
| 2026-05-07 09:09 | -60.28665 | -89.00933 | 34508 ft | 516 kts | 219° |
| 2026-05-07 09:09 | -60.34629 | -89.09007 | 34502 ft | 517 kts | 219° |
| 2026-05-07 09:10 | -60.40601 | -89.17135 | 34495 ft | 517 kts | 219° |
| 2026-05-07 09:10 | -60.46558 | -89.25274 | 34486 ft | 517 kts | 219° |
| 2026-05-07 09:11 | -60.52491 | -89.33420 | 34483 ft | 518 kts | 219° |
| 2026-05-07 09:11 | -60.58454 | -89.41643 | 34473 ft | 518 kts | 219° |
| 2026-05-07 09:12 | -60.64408 | -89.49891 | 34457 ft | 518 kts | 219° |
| 2026-05-07 09:12 | -60.70369 | -89.58187 | 34446 ft | 519 kts | 219° |
| 2026-05-07 09:13 | -60.76336 | -89.66529 | 34449 ft | 518 kts | 219° |
| 2026-05-07 09:13 | -60.82276 | -89.74873 | 34441 ft | 518 kts | 219° |
| 2026-05-07 09:14 | -60.88221 | -89.83261 | 34438 ft | 518 kts | 219° |
| 2026-05-07 09:14 | -60.94154 | -89.91670 | 34425 ft | 519 kts | 219° |
| 2026-05-07 09:15 | -61.00074 | -90.00148 | 34420 ft | 516 kts | 222° |
| 2026-05-07 09:15 | -61.05550 | -90.09657 | 34414 ft | 514 kts | 226° |
| 2026-05-07 09:16 | -61.10997 | -90.19189 | 34401 ft | 514 kts | 225° |
| 2026-05-07 09:16 | -61.16459 | -90.28759 | 34396 ft | 513 kts | 226° |
| 2026-05-07 09:17 | -61.21885 | -90.38365 | 34384 ft | 513 kts | 225° |
| 2026-05-07 09:17 | -61.27328 | -90.47992 | 34377 ft | 513 kts | 226° |
| 2026-05-07 09:18 | -61.32753 | -90.57679 | 34374 ft | 515 kts | 226° |
| 2026-05-07 09:18 | -61.38149 | -90.67324 | 34356 ft | 515 kts | 226° |
| 2026-05-07 09:19 | -61.43583 | -90.77107 | 34355 ft | 515 kts | 226° |
| 2026-05-07 09:19 | -61.48999 | -90.86892 | 34349 ft | 515 kts | 226° |
| 2026-05-07 09:20 | -61.54421 | -90.96739 | 34323 ft | 515 kts | 226° |
| 2026-05-07 09:20 | -61.59814 | -91.06577 | 34324 ft | 514 kts | 226° |
| 2026-05-07 09:21 | -61.65201 | -91.16459 | 34325 ft | 515 kts | 226° |
| 2026-05-07 09:21 | -61.70608 | -91.26418 | 34319 ft | 516 kts | 226° |
| 2026-05-07 09:22 | -61.76005 | -91.36412 | 34309 ft | 516 kts | 226° |
| 2026-05-07 09:22 | -61.81395 | -91.46438 | 34301 ft | 516 kts | 226° |
| 2026-05-07 09:23 | -61.86738 | -91.56425 | 34291 ft | 516 kts | 227° |
| 2026-05-07 09:23 | -61.92099 | -91.66496 | 34286 ft | 516 kts | 227° |
| 2026-05-07 09:24 | -61.97474 | -91.76642 | 34275 ft | 516 kts | 227° |
| 2026-05-07 09:24 | -62.02830 | -91.86803 | 34269 ft | 517 kts | 227° |
| 2026-05-07 09:25 | -62.08204 | -91.97049 | 34256 ft | 518 kts | 227° |
| 2026-05-07 09:25 | -62.13577 | -92.07341 | 34250 ft | 518 kts | 227° |
| 2026-05-07 09:26 | -62.18927 | -92.17643 | 34240 ft | 518 kts | 227° |
| 2026-05-07 09:26 | -62.24251 | -92.27944 | 34231 ft | 519 kts | 227° |
| 2026-05-07 09:27 | -62.29593 | -92.38331 | 34225 ft | 518 kts | 227° |
| 2026-05-07 09:28 | -62.37586 | -92.53972 | 34214 ft | 519 kts | 227° |
| 2026-05-07 09:28 | -62.42929 | -92.64495 | 34211 ft | 520 kts | 227° |
| 2026-05-07 09:29 | -62.48258 | -92.75041 | 34199 ft | 519 kts | 227° |
| 2026-05-07 09:29 | -62.53565 | -92.85596 | 34179 ft | 518 kts | 227° |
| 2026-05-07 09:30 | -62.58859 | -92.96183 | 34173 ft | 518 kts | 228° |
| 2026-05-07 09:30 | -62.64153 | -93.06823 | 34178 ft | 519 kts | 228° |
| 2026-05-07 09:31 | -62.69462 | -93.17544 | 34166 ft | 521 kts | 228° |
| 2026-05-07 09:31 | -62.74732 | -93.28241 | 34161 ft | 520 kts | 228° |
| 2026-05-07 09:32 | -62.80015 | -93.39024 | 34148 ft | 520 kts | 228° |
| 2026-05-07 09:32 | -62.85294 | -93.49850 | 34141 ft | 521 kts | 228° |
| 2026-05-07 09:33 | -62.90572 | -93.60735 | 34121 ft | 521 kts | 228° |
| 2026-05-07 09:33 | -62.95825 | -93.71616 | 34129 ft | 519 kts | 229° |
| 2026-05-07 09:34 | -63.01069 | -93.82545 | 34121 ft | 520 kts | 229° |
| 2026-05-07 09:34 | -63.06322 | -93.93544 | 34108 ft | 521 kts | 229° |
| 2026-05-07 09:35 | -63.11540 | -94.04530 | 34084 ft | 522 kts | 229° |
| 2026-05-07 09:35 | -63.16771 | -94.15597 | 34087 ft | 520 kts | 229° |
| 2026-05-07 09:36 | -63.21994 | -94.26709 | 34086 ft | 519 kts | 229° |
| 2026-05-07 09:36 | -63.27188 | -94.37818 | 34081 ft | 519 kts | 229° |
| 2026-05-07 09:37 | -63.32396 | -94.49015 | 34069 ft | 520 kts | 229° |
| 2026-05-07 09:37 | -63.37594 | -94.60250 | 34068 ft | 521 kts | 229° |
| 2026-05-07 09:38 | -63.42786 | -94.71529 | 34057 ft | 521 kts | 229° |
| 2026-05-07 09:38 | -63.47975 | -94.82865 | 34048 ft | 520 kts | 229° |
| 2026-05-07 09:39 | -63.53129 | -94.94186 | 34050 ft | 519 kts | 229° |
| 2026-05-07 09:39 | -63.58275 | -95.05548 | 34039 ft | 520 kts | 229° |
| 2026-05-07 09:40 | -63.63432 | -95.16996 | 34031 ft | 521 kts | 230° |
| 2026-05-07 09:40 | -63.68548 | -95.28415 | 34027 ft | 522 kts | 230° |
| 2026-05-07 09:41 | -63.73721 | -95.40022 | 34016 ft | 521 kts | 230° |
| 2026-05-07 09:41 | -63.78815 | -95.51515 | 34013 ft | 520 kts | 230° |
| 2026-05-07 09:42 | -63.83917 | -95.63089 | 33993 ft | 519 kts | 230° |
| 2026-05-07 09:42 | -63.89009 | -95.74704 | 33997 ft | 520 kts | 230° |
| 2026-05-07 09:43 | -63.94107 | -95.86397 | 33991 ft | 522 kts | 230° |
| 2026-05-07 09:43 | -63.99219 | -95.98184 | 33988 ft | 523 kts | 230° |
| 2026-05-07 09:44 | -64.04329 | -96.09997 | 33982 ft | 523 kts | 230° |
| 2026-05-07 09:44 | -64.09438 | -96.21839 | 33979 ft | 521 kts | 230° |
| 2026-05-07 09:45 | -64.14505 | -96.33680 | 33975 ft | 521 kts | 231° |
| 2026-05-07 09:45 | -64.19567 | -96.45552 | 33970 ft | 521 kts | 231° |
| 2026-05-07 09:46 | -64.24635 | -96.57518 | 33966 ft | 521 kts | 231° |
| 2026-05-07 09:46 | -64.29653 | -96.69426 | 33959 ft | 521 kts | 231° |
| 2026-05-07 09:47 | -64.34687 | -96.81443 | 33950 ft | 521 kts | 231° |
| 2026-05-07 09:47 | -64.39725 | -96.93534 | 33952 ft | 521 kts | 231° |
| 2026-05-07 09:48 | -64.44738 | -97.05635 | 33934 ft | 521 kts | 231° |
| 2026-05-07 09:48 | -64.49744 | -97.17786 | 33939 ft | 521 kts | 232° |
| 2026-05-07 09:49 | -64.54745 | -97.29996 | 33931 ft | 521 kts | 232° |
| 2026-05-07 09:49 | -64.59728 | -97.42229 | 33922 ft | 521 kts | 232° |
| 2026-05-07 09:50 | -64.64708 | -97.54528 | 33925 ft | 523 kts | 232° |
| 2026-05-07 09:50 | -64.69663 | -97.66832 | 33920 ft | 523 kts | 232° |
| 2026-05-07 09:51 | -64.74623 | -97.79220 | 33906 ft | 522 kts | 232° |
| 2026-05-07 09:51 | -64.79583 | -97.91680 | 33907 ft | 521 kts | 232° |
| 2026-05-07 09:52 | -64.84515 | -98.04143 | 33901 ft | 522 kts | 233° |
| 2026-05-07 09:52 | -64.89448 | -98.16681 | 33901 ft | 523 kts | 233° |
| 2026-05-07 09:53 | -64.94383 | -98.29292 | 33898 ft | 522 kts | 233° |
| 2026-05-07 09:53 | -64.99287 | -98.41901 | 33891 ft | 521 kts | 233° |
| 2026-05-07 09:54 | -65.04144 | -98.54464 | 33883 ft | 519 kts | 233° |
| 2026-05-07 09:54 | -65.09004 | -98.67108 | 33886 ft | 519 kts | 234° |
| 2026-05-07 09:55 | -65.13861 | -98.79817 | 33881 ft | 520 kts | 234° |
| 2026-05-07 09:55 | -65.18706 | -98.92569 | 33874 ft | 521 kts | 234° |
| 2026-05-07 09:56 | -65.23551 | -99.05398 | 33868 ft | 521 kts | 234° |
| 2026-05-07 09:56 | -65.28400 | -99.18310 | 33867 ft | 521 kts | 234° |
| 2026-05-07 09:57 | -65.33223 | -99.31230 | 33863 ft | 520 kts | 234° |
| 2026-05-07 09:57 | -65.38013 | -99.44141 | 33858 ft | 518 kts | 234° |
| 2026-05-07 09:58 | -65.42795 | -99.57109 | 33856 ft | 519 kts | 235° |
| 2026-05-07 09:58 | -65.46765 | -99.67935 | 33846 ft | 521 kts | 235° |
| 2026-05-07 09:59 | -65.51553 | -99.81058 | 33846 ft | 521 kts | 235° |
| 2026-05-07 09:59 | -65.56320 | -99.94205 | 33845 ft | 521 kts | 235° |
| 2026-05-07 10:00 | -65.61077 | -100.07403 | 33840 ft | 521 kts | 236° |
| 2026-05-07 10:00 | -65.65832 | -100.20676 | 33819 ft | 520 kts | 236° |
| 2026-05-07 10:01 | -65.70558 | -100.33952 | 33831 ft | 520 kts | 236° |
| 2026-05-07 10:01 | -65.75274 | -100.47282 | 33826 ft | 522 kts | 236° |
| 2026-05-07 10:02 | -65.80002 | -100.60721 | 33818 ft | 522 kts | 237° |
| 2026-05-07 10:02 | -65.84698 | -100.74156 | 33822 ft | 521 kts | 237° |
| 2026-05-07 10:03 | -65.89369 | -100.87605 | 33817 ft | 523 kts | 237° |
| 2026-05-07 10:03 | -65.94046 | -101.01137 | 33820 ft | 519 kts | 237° |
| 2026-05-07 10:04 | -65.98695 | -101.14699 | 33810 ft | 519 kts | 237° |
| 2026-05-07 10:04 | -66.03318 | -101.28247 | 33807 ft | 517 kts | 238° |
| 2026-05-07 10:05 | -66.07930 | -101.41868 | 33803 ft | 518 kts | 238° |
| 2026-05-07 10:05 | -66.12526 | -101.55505 | 33803 ft | 517 kts | 238° |
| 2026-05-07 10:06 | -66.17105 | -101.69194 | 33794 ft | 517 kts | 238° |
| 2026-05-07 10:06 | -66.21679 | -101.82939 | 33790 ft | 516 kts | 238° |
| 2026-05-07 10:07 | -66.26193 | -101.96602 | 33794 ft | 516 kts | 238° |
| 2026-05-07 10:07 | -66.30720 | -102.10380 | 33785 ft | 514 kts | 238° |
| 2026-05-07 10:08 | -66.35232 | -102.24209 | 33785 ft | 515 kts | 238° |
| 2026-05-07 10:08 | -66.39728 | -102.38063 | 33777 ft | 514 kts | 238° |
| 2026-05-07 10:09 | -66.44211 | -102.51981 | 33773 ft | 515 kts | 239° |
| 2026-05-07 10:09 | -66.48692 | -102.65965 | 33772 ft | 513 kts | 239° |
| 2026-05-07 10:10 | -66.53142 | -102.79958 | 33767 ft | 514 kts | 239° |
| 2026-05-07 10:10 | -66.57581 | -102.93992 | 33760 ft | 513 kts | 239° |
| 2026-05-07 10:11 | -66.61975 | -103.07983 | 33763 ft | 513 kts | 239° |
| 2026-05-07 10:11 | -66.66382 | -103.22094 | 33762 ft | 512 kts | 239° |
| 2026-05-07 10:12 | -66.70776 | -103.36269 | 33759 ft | 512 kts | 240° |
| 2026-05-07 10:12 | -66.75149 | -103.50452 | 33749 ft | 511 kts | 240° |
| 2026-05-07 10:13 | -66.79504 | -103.64683 | 33743 ft | 512 kts | 240° |
| 2026-05-07 10:13 | -66.83846 | -103.78952 | 33747 ft | 510 kts | 240° |
| 2026-05-07 10:14 | -66.88174 | -103.93279 | 33742 ft | 511 kts | 240° |
| 2026-05-07 10:14 | -66.92484 | -104.07629 | 33726 ft | 510 kts | 240° |
| 2026-05-07 10:15 | -66.96769 | -104.21994 | 33741 ft | 509 kts | 240° |
| 2026-05-07 10:15 | -67.01047 | -104.36432 | 33739 ft | 508 kts | 241° |
| 2026-05-07 10:16 | -67.05270 | -104.50774 | 33733 ft | 508 kts | 241° |
| 2026-05-07 10:16 | -67.09507 | -104.65263 | 33729 ft | 507 kts | 241° |
| 2026-05-07 10:17 | -67.13726 | -104.79787 | 33726 ft | 508 kts | 241° |
| 2026-05-07 10:17 | -67.17928 | -104.94336 | 33727 ft | 506 kts | 241° |
| 2026-05-07 10:18 | -67.22110 | -105.08929 | 33724 ft | 505 kts | 242° |
| 2026-05-07 10:18 | -67.26270 | -105.23530 | 33727 ft | 504 kts | 242° |
| 2026-05-07 10:19 | -67.30414 | -105.38184 | 33721 ft | 506 kts | 242° |
| 2026-05-07 10:19 | -67.34531 | -105.52824 | 33705 ft | 505 kts | 242° |
| 2026-05-07 10:20 | -67.38645 | -105.67563 | 33725 ft | 504 kts | 242° |
| 2026-05-07 10:20 | -67.42738 | -105.82323 | 33723 ft | 503 kts | 242° |
| 2026-05-07 10:21 | -67.46828 | -105.97178 | 33721 ft | 505 kts | 242° |
| 2026-05-07 10:21 | -67.50900 | -106.12054 | 33729 ft | 503 kts | 242° |
| 2026-05-07 10:22 | -67.54947 | -106.26953 | 33723 ft | 502 kts | 243° |
| 2026-05-07 10:22 | -67.58983 | -106.41908 | 33724 ft | 502 kts | 243° |
| 2026-05-07 10:23 | -67.63002 | -106.56903 | 33713 ft | 503 kts | 243° |
| 2026-05-07 10:23 | -67.67000 | -106.71916 | 33725 ft | 501 kts | 243° |
| 2026-05-07 10:24 | -67.70989 | -106.87006 | 33715 ft | 500 kts | 243° |
| 2026-05-07 10:24 | -67.74940 | -107.02053 | 33719 ft | 500 kts | 243° |
| 2026-05-07 10:25 | -67.78882 | -107.17172 | 33725 ft | 501 kts | 243° |
| 2026-05-07 10:25 | -67.82824 | -107.32390 | 33725 ft | 500 kts | 244° |
| 2026-05-07 10:26 | -67.86733 | -107.47592 | 33714 ft | 499 kts | 244° |
| 2026-05-07 10:26 | -67.90597 | -107.62722 | 33720 ft | 499 kts | 244° |
| 2026-05-07 10:27 | -67.94475 | -107.78018 | 33705 ft | 500 kts | 244° |
| 2026-05-07 10:27 | -67.98345 | -107.93372 | 33719 ft | 499 kts | 244° |
| 2026-05-07 10:28 | -68.02487 | -108.08351 | 33718 ft | 504 kts | 239° |
| 2026-05-07 10:28 | -68.06855 | -108.23009 | 33718 ft | 505 kts | 239° |
| 2026-05-07 10:29 | -68.11202 | -108.37811 | 33702 ft | 506 kts | 239° |
| 2026-05-07 10:29 | -68.15553 | -108.52622 | 33718 ft | 504 kts | 239° |
| 2026-05-07 10:30 | -68.22011 | -108.74894 | 33717 ft | 504 kts | 239° |
| 2026-05-07 10:30 | -68.26309 | -108.89823 | 33716 ft | 504 kts | 240° |
| 2026-05-07 10:31 | -68.30567 | -109.04723 | 33714 ft | 503 kts | 240° |
| 2026-05-07 10:31 | -68.34824 | -109.19715 | 33713 ft | 503 kts | 240° |
| 2026-05-07 10:32 | -68.39068 | -109.34776 | 33712 ft | 503 kts | 240° |
| 2026-05-07 10:32 | -68.43298 | -109.49876 | 33702 ft | 502 kts | 240° |
| 2026-05-07 10:33 | -68.47512 | -109.65038 | 33704 ft | 501 kts | 240° |
| 2026-05-07 10:33 | -68.51695 | -109.80183 | 33660 ft | 500 kts | 240° |
| 2026-05-07 10:34 | -68.55885 | -109.95443 | 33687 ft | 505 kts | 243° |
| 2026-05-07 10:34 | -68.60115 | -110.11045 | 33693 ft | 515 kts | 243° |
| 2026-05-07 10:35 | -68.64397 | -110.26823 | 33693 ft | 515 kts | 243° |
| 2026-05-07 10:35 | -68.68597 | -110.42516 | 33692 ft | 514 kts | 243° |
| 2026-05-07 10:36 | -68.72832 | -110.58393 | 33682 ft | 515 kts | 243° |
| 2026-05-07 10:36 | -68.77048 | -110.74343 | 33682 ft | 513 kts | 243° |
| 2026-05-07 10:37 | -68.81228 | -110.90264 | 33679 ft | 512 kts | 243° |
| 2026-05-07 10:37 | -68.85400 | -111.06273 | 33679 ft | 512 kts | 243° |
| 2026-05-07 10:38 | -68.89550 | -111.22327 | 33680 ft | 513 kts | 243° |
| 2026-05-07 10:38 | -68.93695 | -111.38464 | 33670 ft | 514 kts | 244° |
| 2026-05-07 10:39 | -68.97840 | -111.54729 | 33666 ft | 515 kts | 244° |
| 2026-05-07 10:39 | -69.01959 | -111.71008 | 33673 ft | 514 kts | 244° |
| 2026-05-07 10:40 | -69.06053 | -111.87322 | 33659 ft | 512 kts | 244° |
| 2026-05-07 10:40 | -69.10099 | -112.03558 | 33664 ft | 511 kts | 244° |
| 2026-05-07 10:41 | -69.14157 | -112.19970 | 33656 ft | 513 kts | 244° |
| 2026-05-07 10:41 | -69.18209 | -112.36474 | 33650 ft | 514 kts | 244° |
| 2026-05-07 10:42 | -69.22241 | -112.53027 | 33642 ft | 513 kts | 244° |
| 2026-05-07 10:42 | -69.26260 | -112.69656 | 33644 ft | 512 kts | 244° |
| 2026-05-07 10:43 | -69.30247 | -112.86278 | 33638 ft | 510 kts | 244° |
| 2026-05-07 10:43 | -69.34205 | -113.02910 | 33638 ft | 510 kts | 244° |
| 2026-05-07 10:44 | -69.38134 | -113.19546 | 33630 ft | 511 kts | 244° |
| 2026-05-07 10:44 | -69.42075 | -113.36358 | 33626 ft | 512 kts | 244° |
| 2026-05-07 10:45 | -69.46010 | -113.53275 | 33616 ft | 511 kts | 244° |
| 2026-05-07 10:45 | -69.49906 | -113.70160 | 33620 ft | 509 kts | 244° |
| 2026-05-07 10:46 | -69.53778 | -113.87078 | 33615 ft | 508 kts | 244° |
| 2026-05-07 10:46 | -69.57630 | -114.04036 | 33609 ft | 509 kts | 244° |
| 2026-05-07 10:47 | -69.61475 | -114.21096 | 33609 ft | 510 kts | 244° |
| 2026-05-07 10:47 | -69.65302 | -114.38211 | 33588 ft | 509 kts | 244° |
| 2026-05-07 10:48 | -69.69107 | -114.55364 | 33594 ft | 508 kts | 244° |
| 2026-05-07 10:48 | -69.72861 | -114.72428 | 33589 ft | 506 kts | 244° |
| 2026-05-07 10:49 | -69.76635 | -114.89717 | 33581 ft | 506 kts | 244° |
| 2026-05-07 10:49 | -69.80349 | -115.06869 | 33574 ft | 507 kts | 244° |
| 2026-05-07 10:50 | -69.84076 | -115.24217 | 33568 ft | 508 kts | 244° |
| 2026-05-07 10:50 | -69.87785 | -115.41625 | 33568 ft | 507 kts | 244° |
| 2026-05-07 10:51 | -69.91473 | -115.59077 | 33558 ft | 505 kts | 244° |
| 2026-05-07 10:51 | -69.95129 | -115.76518 | 33553 ft | 504 kts | 244° |
| 2026-05-07 10:52 | -69.98763 | -115.93997 | 33551 ft | 504 kts | 244° |
| 2026-05-07 10:52 | -70.01419 | -116.12434 | 33545 ft | 494 kts | 258° |
| 2026-05-07 10:53 | -70.03534 | -116.31598 | 33535 ft | 495 kts | 257° |
| 2026-05-07 10:53 | -70.05667 | -116.50759 | 33534 ft | 495 kts | 257° |
| 2026-05-07 10:54 | -70.07748 | -116.69957 | 33529 ft | 494 kts | 257° |
| 2026-05-07 10:54 | -70.09824 | -116.89149 | 33528 ft | 493 kts | 257° |
| 2026-05-07 10:55 | -70.11864 | -117.08352 | 33521 ft | 494 kts | 257° |
| 2026-05-07 10:55 | -70.13895 | -117.27638 | 33526 ft | 495 kts | 257° |
| 2026-05-07 10:56 | -70.15912 | -117.47055 | 33525 ft | 496 kts | 258° |
| 2026-05-07 10:56 | -70.17905 | -117.66465 | 33522 ft | 495 kts | 258° |
| 2026-05-07 10:57 | -70.19874 | -117.85901 | 33525 ft | 494 kts | 258° |
| 2026-05-07 10:57 | -70.21818 | -118.05328 | 33527 ft | 494 kts | 258° |
| 2026-05-07 10:58 | -70.23421 | -118.21520 | 33529 ft | 495 kts | 258° |
| 2026-05-07 10:58 | -70.25639 | -118.44244 | 33535 ft | 494 kts | 258° |
| 2026-05-07 10:59 | -70.27215 | -118.60589 | 33535 ft | 493 kts | 258° |
| 2026-05-07 10:59 | -70.29075 | -118.80114 | 33535 ft | 492 kts | 258° |
| 2026-05-07 11:00 | -70.30901 | -118.99548 | 33540 ft | 491 kts | 258° |
| 2026-05-07 11:00 | -70.32723 | -119.19195 | 33549 ft | 490 kts | 258° |
| 2026-05-07 11:01 | -70.34501 | -119.38628 | 33556 ft | 492 kts | 258° |
| 2026-05-07 11:01 | -70.36275 | -119.58274 | 33551 ft | 493 kts | 258° |
| 2026-05-07 11:02 | -70.38031 | -119.78001 | 33565 ft | 493 kts | 259° |
| 2026-05-07 11:02 | -70.39760 | -119.97694 | 33569 ft | 491 kts | 259° |
| 2026-05-07 11:03 | -70.41463 | -120.17380 | 33567 ft | 490 kts | 259° |
| 2026-05-07 11:03 | -70.43141 | -120.37051 | 33577 ft | 490 kts | 259° |
| 2026-05-07 11:04 | -70.44800 | -120.56781 | 33576 ft | 491 kts | 259° |
| 2026-05-07 11:04 | -70.46445 | -120.76623 | 33589 ft | 492 kts | 259° |
| 2026-05-07 11:05 | -70.48065 | -120.96473 | 33587 ft | 493 kts | 259° |
| 2026-05-07 11:05 | -70.49670 | -121.16413 | 33588 ft | 491 kts | 259° |
| 2026-05-07 11:06 | -70.51230 | -121.36112 | 33593 ft | 489 kts | 260° |
| 2026-05-07 11:06 | -70.52790 | -121.56114 | 33604 ft | 490 kts | 260° |
| 2026-05-07 11:07 | -70.54308 | -121.75883 | 33612 ft | 491 kts | 260° |
| 2026-05-07 11:07 | -70.55823 | -121.95924 | 33610 ft | 492 kts | 260° |
| 2026-05-07 11:08 | -70.57313 | -122.15944 | 33622 ft | 492 kts | 261° |
| 2026-05-07 11:08 | -70.58783 | -122.36041 | 33627 ft | 491 kts | 261° |
| 2026-05-07 11:09 | -70.60225 | -122.56081 | 33633 ft | 489 kts | 261° |
| 2026-05-07 11:09 | -70.61640 | -122.76074 | 33637 ft | 489 kts | 261° |
| 2026-05-07 11:10 | -70.63034 | -122.96111 | 33642 ft | 490 kts | 261° |
| 2026-05-07 11:10 | -70.64402 | -123.16110 | 33644 ft | 491 kts | 261° |
| 2026-05-07 11:11 | -70.65758 | -123.36288 | 33655 ft | 491 kts | 262° |
| 2026-05-07 11:11 | -70.67091 | -123.56472 | 33660 ft | 490 kts | 262° |
| 2026-05-07 11:12 | -70.68399 | -123.76653 | 33664 ft | 489 kts | 262° |
| 2026-05-07 11:12 | -70.69682 | -123.96796 | 33668 ft | 488 kts | 262° |
| 2026-05-07 11:13 | -70.70941 | -124.16968 | 33677 ft | 489 kts | 262° |
| 2026-05-07 11:13 | -70.72182 | -124.37207 | 33679 ft | 490 kts | 262° |
| 2026-05-07 11:14 | -70.73397 | -124.57411 | 33685 ft | 490 kts | 262° |
| 2026-05-07 11:14 | -70.74594 | -124.77707 | 33688 ft | 489 kts | 263° |
| 2026-05-07 11:15 | -70.75764 | -124.97986 | 33693 ft | 487 kts | 263° |
| 2026-05-07 11:15 | -70.76910 | -125.18219 | 33697 ft | 488 kts | 263° |
| 2026-05-07 11:16 | -70.78036 | -125.38548 | 33705 ft | 489 kts | 263° |
| 2026-05-07 11:16 | -70.79145 | -125.58913 | 33712 ft | 489 kts | 263° |
| 2026-05-07 11:17 | -70.80222 | -125.79264 | 33714 ft | 488 kts | 263° |
| 2026-05-07 11:17 | -70.81284 | -125.99646 | 33721 ft | 487 kts | 263° |
| 2026-05-07 11:18 | -70.82316 | -126.19999 | 33713 ft | 488 kts | 264° |
| 2026-05-07 11:18 | -70.83330 | -126.40396 | 33723 ft | 488 kts | 264° |
| 2026-05-07 11:19 | -70.84319 | -126.60794 | 33727 ft | 487 kts | 264° |
| 2026-05-07 11:19 | -70.85285 | -126.81217 | 33735 ft | 486 kts | 264° |
| 2026-05-07 11:20 | -70.86229 | -127.01646 | 33740 ft | 487 kts | 264° |
| 2026-05-07 11:20 | -70.87148 | -127.22056 | 33750 ft | 486 kts | 264° |
| 2026-05-07 11:21 | -70.88039 | -127.42337 | 33752 ft | 484 kts | 264° |
| 2026-05-07 11:21 | -70.88909 | -127.62670 | 33750 ft | 483 kts | 265° |
| 2026-05-07 11:22 | -70.89756 | -127.83041 | 33768 ft | 484 kts | 265° |
| 2026-05-07 11:22 | -70.90582 | -128.03425 | 33761 ft | 484 kts | 265° |
| 2026-05-07 11:23 | -70.91385 | -128.23824 | 33762 ft | 483 kts | 265° |
| 2026-05-07 11:23 | -70.92166 | -128.44243 | 33768 ft | 483 kts | 265° |
| 2026-05-07 11:24 | -70.92925 | -128.64667 | 33781 ft | 484 kts | 265° |
| 2026-05-07 11:24 | -70.93658 | -128.85088 | 33771 ft | 483 kts | 265° |
| 2026-05-07 11:25 | -70.94370 | -129.05502 | 33783 ft | 483 kts | 265° |
| 2026-05-07 11:25 | -70.95055 | -129.25821 | 33789 ft | 483 kts | 266° |
| 2026-05-07 11:26 | -70.95723 | -129.46271 | 33816 ft | 482 kts | 266° |
| 2026-05-07 11:26 | -70.96365 | -129.66692 | 33809 ft | 482 kts | 266° |
| 2026-05-07 11:27 | -70.96988 | -129.87168 | 33819 ft | 482 kts | 266° |
| 2026-05-07 11:27 | -70.97585 | -130.07607 | 33823 ft | 482 kts | 266° |
| 2026-05-07 11:28 | -70.98160 | -130.28045 | 33826 ft | 481 kts | 266° |
| 2026-05-07 11:28 | -70.98709 | -130.48357 | 33834 ft | 481 kts | 266° |
| 2026-05-07 11:29 | -70.99238 | -130.68781 | 33835 ft | 481 kts | 266° |
| 2026-05-07 11:29 | -70.99746 | -130.89233 | 33839 ft | 480 kts | 266° |
| 2026-05-07 11:30 | -71.00231 | -131.09652 | 33838 ft | 479 kts | 267° |
| 2026-05-07 11:30 | -71.00707 | -131.30034 | 33845 ft | 480 kts | 267° |
| 2026-05-07 11:31 | -71.01156 | -131.50452 | 33846 ft | 479 kts | 267° |
| 2026-05-07 11:31 | -71.01584 | -131.70886 | 33850 ft | 479 kts | 267° |
| 2026-05-07 11:32 | -71.02182 | -132.01476 | 33855 ft | 478 kts | 267° |
| 2026-05-07 11:33 | -71.02553 | -132.21865 | 33855 ft | 478 kts | 268° |
| 2026-05-07 11:33 | -71.02902 | -132.42273 | 33857 ft | 477 kts | 268° |
| 2026-05-07 11:34 | -71.03227 | -132.62627 | 33856 ft | 477 kts | 268° |
| 2026-05-07 11:34 | -71.03531 | -132.82998 | 33862 ft | 477 kts | 268° |
| 2026-05-07 11:35 | -71.03809 | -133.03282 | 33867 ft | 478 kts | 268° |
| 2026-05-07 11:35 | -71.04069 | -133.23686 | 33869 ft | 477 kts | 268° |
| 2026-05-07 11:36 | -71.04304 | -133.44063 | 33870 ft | 477 kts | 268° |
| 2026-05-07 11:36 | -71.04519 | -133.64427 | 33874 ft | 477 kts | 268° |
| 2026-05-07 11:37 | -71.04710 | -133.84831 | 33877 ft | 477 kts | 268° |
| 2026-05-07 11:37 | -71.04880 | -134.05288 | 33878 ft | 478 kts | 269° |
| 2026-05-07 11:38 | -71.05027 | -134.25688 | 33880 ft | 477 kts | 269° |
| 2026-05-07 11:38 | -71.05152 | -134.46027 | 33876 ft | 475 kts | 269° |
| 2026-05-07 11:39 | -71.05254 | -134.66357 | 33885 ft | 476 kts | 269° |
| 2026-05-07 11:39 | -71.05335 | -134.86785 | 33890 ft | 477 kts | 269° |
| 2026-05-07 11:40 | -71.05393 | -135.07217 | 33889 ft | 478 kts | 269° |
| 2026-05-07 11:40 | -71.05428 | -135.27502 | 33894 ft | 476 kts | 269° |
| 2026-05-07 11:41 | -71.05441 | -135.47863 | 33890 ft | 475 kts | 269° |
| 2026-05-07 11:41 | -71.05433 | -135.68195 | 33892 ft | 476 kts | 270° |
| 2026-05-07 11:42 | -71.05402 | -135.88559 | 33895 ft | 476 kts | 270° |
| 2026-05-07 11:42 | -71.05349 | -136.08907 | 33899 ft | 476 kts | 270° |
| 2026-05-07 11:43 | -71.05273 | -136.29271 | 33901 ft | 475 kts | 270° |
| 2026-05-07 11:43 | -71.05176 | -136.49578 | 33901 ft | 475 kts | 270° |
| 2026-05-07 11:44 | -71.05056 | -136.69941 | 33902 ft | 475 kts | 270° |
| 2026-05-07 11:44 | -71.04914 | -136.90239 | 33903 ft | 475 kts | 270° |
| 2026-05-07 11:45 | -71.04750 | -137.10581 | 33904 ft | 475 kts | 271° |
| 2026-05-07 11:45 | -71.04565 | -137.30848 | 33905 ft | 474 kts | 271° |
| 2026-05-07 11:46 | -71.04358 | -137.51083 | 33907 ft | 473 kts | 271° |
| 2026-05-07 11:46 | -71.04130 | -137.71186 | 33909 ft | 474 kts | 271° |
| 2026-05-07 11:47 | -71.03877 | -137.91572 | 33913 ft | 475 kts | 271° |
| 2026-05-07 11:47 | -71.03604 | -138.11759 | 33918 ft | 476 kts | 271° |
| 2026-05-07 11:48 | -71.03308 | -138.32010 | 33925 ft | 474 kts | 271° |
| 2026-05-07 11:48 | -71.02991 | -138.52214 | 33923 ft | 473 kts | 271° |
| 2026-05-07 11:49 | -71.02653 | -138.72378 | 33919 ft | 472 kts | 272° |
| 2026-05-07 11:49 | -71.02293 | -138.92520 | 33918 ft | 471 kts | 272° |
| 2026-05-07 11:50 | -71.01912 | -139.12644 | 33923 ft | 472 kts | 272° |
| 2026-05-07 11:50 | -71.01508 | -139.32791 | 33930 ft | 473 kts | 272° |
| 2026-05-07 11:51 | -71.01082 | -139.52957 | 33927 ft | 473 kts | 272° |
| 2026-05-07 11:51 | -71.00636 | -139.73039 | 33927 ft | 471 kts | 272° |
| 2026-05-07 11:52 | -71.00173 | -139.92916 | 33928 ft | 469 kts | 272° |
| 2026-05-07 11:52 | -70.99119 | -140.12676 | 33942 ft | 472 kts | 281° |
| 2026-05-07 11:53 | -70.97745 | -140.32407 | 33949 ft | 472 kts | 280° |
| 2026-05-07 11:53 | -70.96346 | -140.52050 | 33943 ft | 472 kts | 280° |
| 2026-05-07 11:54 | -70.94926 | -140.71626 | 33948 ft | 471 kts | 280° |
| 2026-05-07 11:54 | -70.93491 | -140.91196 | 33944 ft | 470 kts | 281° |
| 2026-05-07 11:55 | -70.92035 | -141.10645 | 33941 ft | 469 kts | 281° |
| 2026-05-07 11:55 | -70.90567 | -141.30024 | 33943 ft | 469 kts | 281° |
| 2026-05-07 11:56 | -70.89326 | -141.46143 | 33943 ft | 470 kts | 281° |
| 2026-05-07 11:56 | -70.87564 | -141.68728 | 33946 ft | 470 kts | 281° |
| 2026-05-07 11:57 | -70.86286 | -141.84839 | 33946 ft | 470 kts | 281° |
| 2026-05-07 11:57 | -70.84735 | -142.04157 | 33951 ft | 470 kts | 281° |
| 2026-05-07 11:58 | -70.83162 | -142.23460 | 33963 ft | 470 kts | 281° |
| 2026-05-07 11:58 | -70.81570 | -142.42716 | 33963 ft | 470 kts | 281° |
| 2026-05-07 11:59 | -70.79957 | -142.61962 | 33959 ft | 469 kts | 282° |
| 2026-05-07 11:59 | -70.78332 | -142.81078 | 33964 ft | 467 kts | 282° |
| 2026-05-07 12:00 | -70.76690 | -143.00130 | 33960 ft | 465 kts | 282° |
| 2026-05-07 12:00 | -70.75033 | -143.19090 | 33961 ft | 466 kts | 282° |
| 2026-05-07 12:01 | -70.73351 | -143.38089 | 33967 ft | 467 kts | 282° |
| 2026-05-07 12:01 | -70.71650 | -143.57052 | 33964 ft | 467 kts | 282° |
| 2026-05-07 12:02 | -70.69926 | -143.76017 | 33973 ft | 467 kts | 282° |
| 2026-05-07 12:02 | -70.68189 | -143.94871 | 33974 ft | 465 kts | 283° |
| 2026-05-07 12:03 | -70.66447 | -144.13550 | 33975 ft | 464 kts | 283° |
| 2026-05-07 12:03 | -70.64680 | -144.32255 | 33970 ft | 465 kts | 283° |
| 2026-05-07 12:04 | -70.62891 | -144.50959 | 33982 ft | 466 kts | 283° |
| 2026-05-07 12:04 | -70.61073 | -144.69729 | 33979 ft | 466 kts | 283° |
| 2026-05-07 12:05 | -70.59239 | -144.88433 | 33984 ft | 467 kts | 284° |
| 2026-05-07 12:05 | -70.57390 | -145.07061 | 33979 ft | 464 kts | 284° |
| 2026-05-07 12:06 | -70.55526 | -145.25622 | 33981 ft | 463 kts | 284° |
| 2026-05-07 12:06 | -70.53648 | -145.44093 | 33985 ft | 463 kts | 284° |
| 2026-05-07 12:07 | -70.51761 | -145.62440 | 33988 ft | 464 kts | 284° |
| 2026-05-07 12:07 | -70.49845 | -145.80858 | 33989 ft | 464 kts | 284° |
| 2026-05-07 12:08 | -70.47909 | -145.99252 | 33987 ft | 464 kts | 285° |
| 2026-05-07 12:08 | -70.45949 | -146.17654 | 33992 ft | 463 kts | 285° |
| 2026-05-07 12:09 | -70.43984 | -146.35904 | 33995 ft | 462 kts | 285° |
| 2026-05-07 12:09 | -70.41997 | -146.54152 | 33995 ft | 461 kts | 285° |
| 2026-05-07 12:10 | -70.39998 | -146.72303 | 33998 ft | 461 kts | 285° |
| 2026-05-07 12:10 | -70.37980 | -146.90425 | 34001 ft | 462 kts | 286° |
| 2026-05-07 12:11 | -70.35953 | -147.08435 | 34019 ft | 463 kts | 286° |
| 2026-05-07 12:11 | -70.33894 | -147.26535 | 34012 ft | 463 kts | 286° |
| 2026-05-07 12:12 | -70.31813 | -147.44620 | 34016 ft | 462 kts | 286° |
| 2026-05-07 12:12 | -70.29724 | -147.62588 | 34004 ft | 461 kts | 287° |
| 2026-05-07 12:13 | -70.27619 | -147.80509 | 34018 ft | 459 kts | 287° |
| 2026-05-07 12:13 | -70.25502 | -147.98344 | 34016 ft | 460 kts | 287° |
| 2026-05-07 12:14 | -70.23364 | -148.16166 | 34010 ft | 461 kts | 287° |
| 2026-05-07 12:14 | -70.21198 | -148.34035 | 34019 ft | 462 kts | 287° |
| 2026-05-07 12:15 | -70.19016 | -148.51857 | 34017 ft | 462 kts | 288° |
| 2026-05-07 12:15 | -70.16821 | -148.69598 | 34016 ft | 460 kts | 288° |
| 2026-05-07 12:16 | -70.14612 | -148.87283 | 34018 ft | 459 kts | 288° |
| 2026-05-07 12:16 | -70.12395 | -149.04852 | 34019 ft | 459 kts | 288° |
| 2026-05-07 12:17 | -70.10153 | -149.22441 | 34019 ft | 461 kts | 288° |
| 2026-05-07 12:17 | -70.07903 | -149.39925 | 34028 ft | 462 kts | 289° |
| 2026-05-07 12:18 | -70.05616 | -149.57516 | 34027 ft | 461 kts | 289° |
| 2026-05-07 12:18 | -70.03323 | -149.74990 | 34024 ft | 460 kts | 289° |
| 2026-05-07 12:19 | -70.01015 | -149.92402 | 34024 ft | 459 kts | 289° |
| 2026-05-07 12:19 | -69.99309 | -150.10233 | 34033 ft | 458 kts | 279° |
| 2026-05-07 12:20 | -69.98046 | -150.28492 | 34044 ft | 459 kts | 280° |
| 2026-05-07 12:20 | -69.96764 | -150.46767 | 34040 ft | 459 kts | 280° |
| 2026-05-07 12:21 | -69.95471 | -150.64968 | 34037 ft | 459 kts | 281° |
| 2026-05-07 12:21 | -69.94151 | -150.83185 | 34032 ft | 459 kts | 281° |
| 2026-05-07 12:22 | -69.92819 | -151.01353 | 34028 ft | 458 kts | 281° |
| 2026-05-07 12:22 | -69.91469 | -151.19442 | 34028 ft | 458 kts | 281° |
| 2026-05-07 12:23 | -69.90104 | -151.37500 | 34031 ft | 459 kts | 282° |
| 2026-05-07 12:23 | -69.88719 | -151.55528 | 34336 ft | 459 kts | 282° |
| 2026-05-07 12:23 | -69.88018 | -151.64557 | 34694 ft | 457 kts | 282° |
| 2026-05-07 12:24 | -69.87318 | -151.73522 | 35015 ft | 457 kts | 282° |
| 2026-05-07 12:24 | -69.86608 | -151.82545 | 35297 ft | 457 kts | 282° |
| 2026-05-07 12:24 | -69.85895 | -151.91534 | 35586 ft | 457 kts | 282° |
| 2026-05-07 12:24 | -69.85177 | -152.00516 | 35846 ft | 457 kts | 282° |
| 2026-05-07 12:25 | -69.84453 | -152.09527 | 36006 ft | 460 kts | 282° |
| 2026-05-07 12:25 | -69.82977 | -152.27686 | 36013 ft | 461 kts | 282° |
| 2026-05-07 12:26 | -69.81495 | -152.45670 | 36015 ft | 458 kts | 283° |
| 2026-05-07 12:26 | -69.79999 | -152.63582 | 36010 ft | 458 kts | 283° |
| 2026-05-07 12:27 | -69.78486 | -152.81454 | 36008 ft | 458 kts | 283° |
| 2026-05-07 12:27 | -69.76951 | -152.99337 | 36005 ft | 459 kts | 283° |
| 2026-05-07 12:28 | -69.75407 | -153.17097 | 36002 ft | 459 kts | 283° |
| 2026-05-07 12:28 | -69.73834 | -153.34968 | 36001 ft | 460 kts | 283° |
| 2026-05-07 12:29 | -69.72240 | -153.52830 | 36001 ft | 460 kts | 284° |
| 2026-05-07 12:29 | -69.70627 | -153.70681 | 36000 ft | 460 kts | 284° |
| 2026-05-07 12:30 | -69.69014 | -153.88303 | 36000 ft | 461 kts | 284° |
| 2026-05-07 12:30 | -69.67368 | -154.06067 | 35990 ft | 459 kts | 284° |
| 2026-05-07 12:31 | -69.65708 | -154.23759 | 35981 ft | 458 kts | 284° |
| 2026-05-07 12:31 | -69.64045 | -154.41273 | 35976 ft | 458 kts | 284° |
| 2026-05-07 12:32 | -69.62350 | -154.58910 | 35974 ft | 459 kts | 285° |
| 2026-05-07 12:32 | -69.60634 | -154.76551 | 35971 ft | 460 kts | 285° |
| 2026-05-07 12:33 | -69.58021 | -155.03016 | 35974 ft | 461 kts | 285° |
| 2026-05-07 12:33 | -69.56254 | -155.20653 | 35970 ft | 461 kts | 285° |
| 2026-05-07 12:34 | -69.54475 | -155.38204 | 35961 ft | 459 kts | 285° |
| 2026-05-07 12:34 | -69.52681 | -155.55694 | 35950 ft | 458 kts | 285° |
| 2026-05-07 12:35 | -69.50875 | -155.73110 | 35944 ft | 457 kts | 286° |
| 2026-05-07 12:35 | -69.49049 | -155.90523 | 35942 ft | 459 kts | 286° |
| 2026-05-07 12:36 | -69.47200 | -156.07950 | 35935 ft | 460 kts | 286° |
| 2026-05-07 12:36 | -69.45328 | -156.25408 | 35936 ft | 461 kts | 286° |
| 2026-05-07 12:37 | -69.43441 | -156.42816 | 35932 ft | 461 kts | 287° |
| 2026-05-07 12:37 | -69.41537 | -156.60180 | 35924 ft | 459 kts | 287° |
| 2026-05-07 12:38 | -69.39621 | -156.77471 | 35913 ft | 458 kts | 287° |
| 2026-05-07 12:38 | -69.37691 | -156.94696 | 35901 ft | 457 kts | 287° |
| 2026-05-07 12:39 | -69.35758 | -157.11773 | 35900 ft | 459 kts | 287° |
| 2026-05-07 12:39 | -69.33775 | -157.29116 | 35905 ft | 461 kts | 287° |
| 2026-05-07 12:40 | -69.31779 | -157.46379 | 35901 ft | 461 kts | 288° |
| 2026-05-07 12:40 | -69.29768 | -157.63591 | 35896 ft | 460 kts | 288° |
| 2026-05-07 12:41 | -69.27760 | -157.80607 | 35885 ft | 460 kts | 288° |
| 2026-05-07 12:41 | -69.25723 | -157.97695 | 35877 ft | 459 kts | 288° |
| 2026-05-07 12:42 | -69.23671 | -158.14729 | 35867 ft | 458 kts | 288° |
| 2026-05-07 12:42 | -69.21606 | -158.31711 | 35858 ft | 458 kts | 288° |
| 2026-05-07 12:43 | -69.19522 | -158.48669 | 35852 ft | 459 kts | 288° |
| 2026-05-07 12:43 | -69.17416 | -158.65643 | 35851 ft | 460 kts | 288° |
| 2026-05-07 12:44 | -69.15288 | -158.82624 | 35852 ft | 461 kts | 289° |
| 2026-05-07 12:44 | -69.13142 | -158.99581 | 35836 ft | 460 kts | 289° |
| 2026-05-07 12:45 | -69.10989 | -159.16430 | 35826 ft | 458 kts | 289° |
| 2026-05-07 12:45 | -69.08840 | -159.33086 | 35818 ft | 458 kts | 289° |
| 2026-05-07 12:46 | -69.06657 | -159.49851 | 35812 ft | 459 kts | 289° |
| 2026-05-07 12:46 | -69.04453 | -159.66614 | 35811 ft | 460 kts | 289° |
| 2026-05-07 12:47 | -69.02229 | -159.83370 | 35814 ft | 460 kts | 289° |
| 2026-05-07 12:47 | -68.99985 | -160.00084 | 35808 ft | 460 kts | 290° |
| 2026-05-07 12:48 | -68.97437 | -160.16421 | 35798 ft | 460 kts | 292° |
| 2026-05-07 12:48 | -68.94884 | -160.32747 | 35797 ft | 460 kts | 292° |
| 2026-05-07 12:49 | -68.92300 | -160.49031 | 35796 ft | 460 kts | 292° |
| 2026-05-07 12:49 | -68.89710 | -160.65265 | 35794 ft | 459 kts | 292° |
| 2026-05-07 12:50 | -68.87107 | -160.81426 | 35791 ft | 458 kts | 293° |
| 2026-05-07 12:50 | -68.84938 | -160.94794 | 35790 ft | 458 kts | 293° |
| 2026-05-07 12:51 | -68.82317 | -161.10836 | 35785 ft | 457 kts | 293° |
| 2026-05-07 12:51 | -68.79684 | -161.26813 | 35786 ft | 456 kts | 293° |
| 2026-05-07 12:52 | -68.77040 | -161.42733 | 35788 ft | 457 kts | 293° |
| 2026-05-07 12:52 | -68.74372 | -161.58664 | 35798 ft | 458 kts | 294° |
| 2026-05-07 12:53 | -68.71681 | -161.74607 | 35806 ft | 459 kts | 294° |
| 2026-05-07 12:53 | -68.68977 | -161.90502 | 35809 ft | 458 kts | 294° |
| 2026-05-07 12:54 | -68.66268 | -162.06298 | 35809 ft | 456 kts | 294° |
| 2026-05-07 12:54 | -68.63569 | -162.21914 | 35808 ft | 456 kts | 294° |
| 2026-05-07 12:55 | -68.60835 | -162.37611 | 35821 ft | 457 kts | 294° |
| 2026-05-07 12:55 | -68.58077 | -162.53323 | 35829 ft | 458 kts | 294° |
| 2026-05-07 12:56 | -68.55299 | -162.69027 | 35837 ft | 459 kts | 295° |
| 2026-05-07 12:56 | -68.52508 | -162.84680 | 35843 ft | 458 kts | 295° |
| 2026-05-07 12:57 | -68.49711 | -163.00251 | 35842 ft | 456 kts | 295° |
| 2026-05-07 12:57 | -68.46906 | -163.15746 | 35844 ft | 455 kts | 295° |
| 2026-05-07 12:58 | -68.44112 | -163.31066 | 35842 ft | 455 kts | 295° |
| 2026-05-07 12:58 | -68.41270 | -163.46534 | 35844 ft | 455 kts | 295° |
| 2026-05-07 12:59 | -68.38449 | -163.61771 | 35849 ft | 456 kts | 295° |
| 2026-05-07 12:59 | -68.35587 | -163.77115 | 35854 ft | 456 kts | 295° |
| 2026-05-07 13:00 | -68.32706 | -163.92444 | 35855 ft | 457 kts | 295° |
| 2026-05-07 13:00 | -68.29814 | -164.07721 | 35859 ft | 456 kts | 296° |
| 2026-05-07 13:01 | -68.26919 | -164.22905 | 35855 ft | 454 kts | 296° |
| 2026-05-07 13:01 | -68.24019 | -164.37999 | 35858 ft | 452 kts | 296° |
| 2026-05-07 13:02 | -68.21112 | -164.53025 | 35876 ft | 453 kts | 296° |
| 2026-05-07 13:02 | -68.18186 | -164.68039 | 35873 ft | 454 kts | 296° |
| 2026-05-07 13:03 | -68.15242 | -164.83036 | 35859 ft | 454 kts | 296° |
| 2026-05-07 13:03 | -68.12279 | -164.98025 | 35858 ft | 454 kts | 296° |
| 2026-05-07 13:04 | -68.09312 | -165.12924 | 35859 ft | 453 kts | 296° |
| 2026-05-07 13:04 | -68.06333 | -165.27781 | 35856 ft | 453 kts | 296° |
| 2026-05-07 13:05 | -68.03364 | -165.42485 | 35870 ft | 452 kts | 297° |
| 2026-05-07 13:05 | -68.00366 | -165.57229 | 35855 ft | 452 kts | 297° |
| 2026-05-07 13:06 | -67.97359 | -165.71913 | 35861 ft | 451 kts | 297° |
| 2026-05-07 13:06 | -67.94344 | -165.86533 | 35862 ft | 450 kts | 297° |
| 2026-05-07 13:07 | -67.91323 | -166.01084 | 35861 ft | 450 kts | 297° |
| 2026-05-07 13:07 | -67.88277 | -166.15654 | 35852 ft | 451 kts | 297° |
| 2026-05-07 13:08 | -67.85219 | -166.30184 | 35855 ft | 452 kts | 297° |
| 2026-05-07 13:08 | -67.82143 | -166.44694 | 35854 ft | 451 kts | 297° |
| 2026-05-07 13:09 | -67.79066 | -166.59116 | 35848 ft | 449 kts | 297° |
| 2026-05-07 13:09 | -67.75985 | -166.73458 | 35844 ft | 448 kts | 297° |
| 2026-05-07 13:10 | -67.72899 | -166.87730 | 35850 ft | 448 kts | 297° |
| 2026-05-07 13:10 | -67.69794 | -167.01995 | 35850 ft | 449 kts | 298° |
| 2026-05-07 13:11 | -67.66667 | -167.16260 | 35851 ft | 451 kts | 298° |
| 2026-05-07 13:11 | -67.63524 | -167.30508 | 35848 ft | 452 kts | 298° |
| 2026-05-07 13:12 | -67.60387 | -167.44633 | 35849 ft | 450 kts | 298° |
| 2026-05-07 13:12 | -67.57230 | -167.58756 | 35843 ft | 448 kts | 298° |
| 2026-05-07 13:13 | -67.54074 | -167.72784 | 35838 ft | 446 kts | 298° |
| 2026-05-07 13:13 | -67.50908 | -167.86764 | 35838 ft | 447 kts | 298° |
| 2026-05-07 13:14 | -67.47723 | -168.00737 | 35842 ft | 448 kts | 298° |
| 2026-05-07 13:14 | -67.44520 | -168.14700 | 35842 ft | 449 kts | 298° |
| 2026-05-07 13:15 | -67.41306 | -168.28617 | 35837 ft | 448 kts | 298° |
| 2026-05-07 13:15 | -67.38089 | -168.42461 | 35838 ft | 446 kts | 298° |
| 2026-05-07 13:16 | -67.34875 | -168.56205 | 35837 ft | 444 kts | 298° |
| 2026-05-07 13:16 | -67.31654 | -168.69891 | 35837 ft | 445 kts | 299° |
| 2026-05-07 13:17 | -67.28436 | -168.83480 | 35836 ft | 446 kts | 299° |
| 2026-05-07 13:17 | -67.25178 | -168.97148 | 35840 ft | 447 kts | 299° |
| 2026-05-07 13:18 | -67.21904 | -169.10802 | 35840 ft | 447 kts | 299° |
| 2026-05-07 13:18 | -67.18616 | -169.24426 | 35839 ft | 447 kts | 299° |
| 2026-05-07 13:19 | -67.15329 | -169.37962 | 35839 ft | 445 kts | 299° |
| 2026-05-07 13:19 | -67.12046 | -169.51396 | 35840 ft | 443 kts | 300° |
| 2026-05-07 13:20 | -67.08760 | -169.64764 | 35839 ft | 443 kts | 300° |
| 2026-05-07 13:20 | -67.05450 | -169.78149 | 35840 ft | 444 kts | 300° |
| 2026-05-07 13:21 | -67.02148 | -169.91416 | 35839 ft | 445 kts | 300° |
| 2026-05-07 13:21 | -66.98614 | -170.04405 | 35863 ft | 446 kts | 306° |
| 2026-05-07 13:22 | -66.94715 | -170.16741 | 35848 ft | 447 kts | 305° |
| 2026-05-07 13:22 | -66.90814 | -170.29055 | 35844 ft | 446 kts | 306° |
| 2026-05-07 13:23 | -66.86899 | -170.41283 | 35848 ft | 445 kts | 306° |
| 2026-05-07 13:23 | -66.82993 | -170.53468 | 35855 ft | 444 kts | 306° |
| 2026-05-07 13:24 | -66.79076 | -170.65577 | 35852 ft | 443 kts | 306° |
| 2026-05-07 13:24 | -66.75164 | -170.77635 | 35858 ft | 443 kts | 306° |
| 2026-05-07 13:25 | -66.71235 | -170.89664 | 35857 ft | 444 kts | 306° |
| 2026-05-07 13:25 | -66.67286 | -171.01692 | 35861 ft | 445 kts | 306° |
| 2026-05-07 13:26 | -66.63318 | -171.13706 | 35862 ft | 446 kts | 306° |
| 2026-05-07 13:26 | -66.59358 | -171.25633 | 35867 ft | 443 kts | 306° |
| 2026-05-07 13:27 | -66.55430 | -171.37400 | 35866 ft | 442 kts | 306° |
| 2026-05-07 13:27 | -66.51469 | -171.49203 | 35872 ft | 442 kts | 307° |
| 2026-05-07 13:28 | -66.47492 | -171.60987 | 35874 ft | 443 kts | 307° |
| 2026-05-07 13:28 | -66.43502 | -171.72747 | 35869 ft | 444 kts | 307° |
| 2026-05-07 13:29 | -66.39499 | -171.84481 | 35878 ft | 444 kts | 307° |
| 2026-05-07 13:29 | -66.35485 | -171.96186 | 35885 ft | 444 kts | 307° |
| 2026-05-07 13:30 | -66.31474 | -172.07816 | 35888 ft | 442 kts | 307° |
| 2026-05-07 13:30 | -66.27463 | -172.19388 | 35882 ft | 441 kts | 307° |
| 2026-05-07 13:31 | -66.23453 | -172.30892 | 35878 ft | 440 kts | 307° |
| 2026-05-07 13:31 | -66.19445 | -172.42333 | 35892 ft | 440 kts | 307° |
| 2026-05-07 13:32 | -66.15425 | -172.53747 | 35892 ft | 440 kts | 307° |
| 2026-05-07 13:32 | -66.11388 | -172.65145 | 35885 ft | 441 kts | 307° |
| 2026-05-07 13:33 | -66.07366 | -172.76446 | 35893 ft | 442 kts | 307° |
| 2026-05-07 13:33 | -66.03306 | -172.87791 | 35896 ft | 441 kts | 308° |
| 2026-05-07 13:34 | -65.97231 | -173.04659 | 35898 ft | 438 kts | 308° |
| 2026-05-07 13:35 | -65.93191 | -173.15807 | 35899 ft | 438 kts | 308° |
| 2026-05-07 13:35 | -65.89134 | -173.26941 | 35910 ft | 438 kts | 308° |
| 2026-05-07 13:36 | -65.85063 | -173.38056 | 35904 ft | 439 kts | 308° |
| 2026-05-07 13:36 | -65.80979 | -173.49148 | 35909 ft | 439 kts | 308° |
| 2026-05-07 13:37 | -65.76884 | -173.60215 | 35917 ft | 440 kts | 308° |
| 2026-05-07 13:37 | -65.72777 | -173.71257 | 35925 ft | 440 kts | 308° |
| 2026-05-07 13:38 | -65.68662 | -173.82264 | 35918 ft | 439 kts | 308° |
| 2026-05-07 13:38 | -65.64589 | -173.93103 | 35923 ft | 437 kts | 308° |
| 2026-05-07 13:39 | -65.60493 | -174.03951 | 35933 ft | 436 kts | 308° |
| 2026-05-07 13:39 | -65.56387 | -174.14769 | 35929 ft | 437 kts | 308° |
| 2026-05-07 13:40 | -65.52268 | -174.25566 | 35929 ft | 437 kts | 309° |
| 2026-05-07 13:40 | -65.48138 | -174.36339 | 35932 ft | 438 kts | 309° |
| 2026-05-07 13:41 | -65.43998 | -174.47085 | 35934 ft | 438 kts | 309° |
| 2026-05-07 13:41 | -65.39847 | -174.57803 | 35937 ft | 438 kts | 309° |
| 2026-05-07 13:42 | -65.35688 | -174.68490 | 35941 ft | 438 kts | 309° |
| 2026-05-07 13:42 | -65.31532 | -174.79115 | 35942 ft | 437 kts | 309° |
| 2026-05-07 13:43 | -65.27380 | -174.89678 | 35950 ft | 435 kts | 309° |
| 2026-05-07 13:43 | -65.23237 | -175.00169 | 35947 ft | 434 kts | 309° |
| 2026-05-07 13:44 | -65.19087 | -175.10625 | 35954 ft | 435 kts | 309° |
| 2026-05-07 13:44 | -65.14917 | -175.21080 | 35958 ft | 436 kts | 309° |
| 2026-05-07 13:45 | -65.11434 | -175.29773 | 35956 ft | 437 kts | 309° |
| 2026-05-07 13:45 | -65.07249 | -175.40170 | 35958 ft | 435 kts | 309° |
| 2026-05-07 13:46 | -65.02385 | -175.52192 | 35968 ft | 434 kts | 310° |
| 2026-05-07 13:46 | -64.98208 | -175.62462 | 35966 ft | 433 kts | 310° |
| 2026-05-07 13:47 | -64.94707 | -175.71033 | 35971 ft | 433 kts | 310° |
| 2026-05-07 13:47 | -64.90512 | -175.81260 | 35970 ft | 435 kts | 310° |
| 2026-05-07 13:48 | -64.86332 | -175.91397 | 35972 ft | 435 kts | 310° |
| 2026-05-07 13:48 | -64.82116 | -176.01575 | 35978 ft | 434 kts | 310° |
| 2026-05-07 13:49 | -64.77899 | -176.11707 | 35979 ft | 433 kts | 310° |
| 2026-05-07 13:49 | -64.73681 | -176.21792 | 35988 ft | 433 kts | 310° |
| 2026-05-07 13:50 | -64.69464 | -176.31828 | 35980 ft | 432 kts | 310° |
| 2026-05-07 13:50 | -64.65247 | -176.41817 | 35984 ft | 431 kts | 310° |
| 2026-05-07 13:51 | -64.61033 | -176.51752 | 35994 ft | 430 kts | 310° |
| 2026-05-07 13:51 | -64.56819 | -176.61640 | 35993 ft | 430 kts | 310° |
| 2026-05-07 13:52 | -64.52597 | -176.71504 | 35997 ft | 431 kts | 310° |
| 2026-05-07 13:52 | -64.48349 | -176.81379 | 35995 ft | 433 kts | 311° |
| 2026-05-07 13:53 | -64.44083 | -176.91249 | 35997 ft | 433 kts | 311° |
| 2026-05-07 13:53 | -64.39847 | -177.01003 | 35999 ft | 432 kts | 311° |
| 2026-05-07 13:54 | -64.35594 | -177.10755 | 36008 ft | 430 kts | 311° |
| 2026-05-07 13:54 | -64.31348 | -177.20446 | 36000 ft | 429 kts | 311° |
| 2026-05-07 13:55 | -64.27093 | -177.30112 | 36006 ft | 430 kts | 311° |
| 2026-05-07 13:55 | -64.22832 | -177.39747 | 36016 ft | 430 kts | 311° |
| 2026-05-07 13:56 | -64.18556 | -177.49374 | 36013 ft | 431 kts | 311° |
| 2026-05-07 13:56 | -64.14268 | -177.58981 | 36011 ft | 431 kts | 311° |
| 2026-05-07 13:57 | -64.09972 | -177.68564 | 36013 ft | 431 kts | 311° |
| 2026-05-07 13:57 | -64.05670 | -177.78116 | 36010 ft | 430 kts | 311° |
| 2026-05-07 13:58 | -64.01376 | -177.87607 | 36015 ft | 429 kts | 311° |
| 2026-05-07 13:58 | -63.97090 | -177.97039 | 36023 ft | 428 kts | 311° |
| 2026-05-07 13:59 | -63.92837 | -178.06354 | 36023 ft | 427 kts | 311° |
| 2026-05-07 13:59 | -63.88547 | -178.15711 | 36020 ft | 428 kts | 311° |
| 2026-05-07 14:00 | -63.84249 | -178.25042 | 36027 ft | 428 kts | 312° |
| 2026-05-07 14:00 | -63.79934 | -178.34370 | 36027 ft | 429 kts | 312° |
| 2026-05-07 14:01 | -63.75609 | -178.43677 | 36029 ft | 429 kts | 312° |
| 2026-05-07 14:01 | -63.71273 | -178.52967 | 36031 ft | 430 kts | 312° |
| 2026-05-07 14:02 | -63.66934 | -178.62220 | 36047 ft | 428 kts | 312° |
| 2026-05-07 14:02 | -63.62607 | -178.71409 | 36036 ft | 427 kts | 312° |
| 2026-05-07 14:03 | -63.58281 | -178.80553 | 36041 ft | 427 kts | 312° |
| 2026-05-07 14:03 | -63.53954 | -178.89664 | 36040 ft | 427 kts | 312° |
| 2026-05-07 14:04 | -63.49606 | -178.98774 | 36034 ft | 428 kts | 312° |
| 2026-05-07 14:04 | -63.45284 | -179.07793 | 36030 ft | 428 kts | 312° |
| 2026-05-07 14:05 | -63.40926 | -179.16847 | 36032 ft | 428 kts | 312° |
| 2026-05-07 14:05 | -63.36562 | -179.25875 | 36036 ft | 428 kts | 313° |
| 2026-05-07 14:06 | -63.32199 | -179.34861 | 36037 ft | 427 kts | 313° |
| 2026-05-07 14:06 | -63.27839 | -179.43802 | 36042 ft | 425 kts | 313° |
| 2026-05-07 14:07 | -63.23490 | -179.52681 | 36040 ft | 424 kts | 313° |
| 2026-05-07 14:07 | -63.19143 | -179.61523 | 36047 ft | 424 kts | 313° |
| 2026-05-07 14:08 | -63.14779 | -179.70356 | 36048 ft | 425 kts | 313° |
| 2026-05-07 14:08 | -63.10403 | -179.79178 | 36044 ft | 426 kts | 313° |
| 2026-05-07 14:09 | -63.06045 | -179.87927 | 36044 ft | 426 kts | 313° |
| 2026-05-07 14:09 | -63.01657 | -179.96696 | 36044 ft | 425 kts | 313° |
| 2026-05-07 14:10 | -62.97379 | 179.94395 | 36046 ft | 422 kts | 311° |
| 2026-05-07 14:10 | -62.93171 | 179.85401 | 36041 ft | 422 kts | 311° |
| 2026-05-07 14:11 | -62.88948 | 179.76439 | 36043 ft | 423 kts | 311° |
| 2026-05-07 14:11 | -62.84722 | 179.67488 | 36053 ft | 423 kts | 311° |
| 2026-05-07 14:12 | -62.80475 | 179.58544 | 36047 ft | 424 kts | 311° |
| 2026-05-07 14:12 | -62.76246 | 179.49666 | 36045 ft | 425 kts | 312° |
| 2026-05-07 14:13 | -62.71975 | 179.40745 | 36046 ft | 425 kts | 312° |
| 2026-05-07 14:13 | -62.67694 | 179.31838 | 36052 ft | 426 kts | 312° |
| 2026-05-07 14:14 | -62.63403 | 179.22948 | 36047 ft | 426 kts | 312° |
| 2026-05-07 14:14 | -62.59104 | 179.14076 | 36049 ft | 426 kts | 312° |
| 2026-05-07 14:15 | -62.54808 | 179.05252 | 36049 ft | 425 kts | 312° |
| 2026-05-07 14:15 | -62.50520 | 178.96478 | 36053 ft | 423 kts | 312° |
| 2026-05-07 14:16 | -62.46231 | 178.87736 | 36051 ft | 424 kts | 312° |
| 2026-05-07 14:16 | -62.41923 | 178.78995 | 36061 ft | 426 kts | 313° |
| 2026-05-07 14:17 | -62.37602 | 178.70263 | 36052 ft | 427 kts | 313° |
| 2026-05-07 14:17 | -62.33261 | 178.61529 | 36045 ft | 427 kts | 313° |
| 2026-05-07 14:18 | -62.28920 | 178.52830 | 36048 ft | 426 kts | 313° |
| 2026-05-07 14:18 | -62.24584 | 178.44175 | 36052 ft | 425 kts | 313° |
| 2026-05-07 14:19 | -62.20278 | 178.35618 | 36055 ft | 424 kts | 313° |
| 2026-05-07 14:19 | -62.15942 | 178.27033 | 36052 ft | 425 kts | 313° |
| 2026-05-07 14:20 | -62.11583 | 178.18439 | 36058 ft | 427 kts | 313° |
| 2026-05-07 14:20 | -62.07201 | 178.09836 | 36053 ft | 429 kts | 313° |
| 2026-05-07 14:21 | -62.02810 | 178.01254 | 36052 ft | 428 kts | 313° |
| 2026-05-07 14:21 | -61.98425 | 177.92713 | 36051 ft | 427 kts | 313° |
| 2026-05-07 14:22 | -61.94040 | 177.84208 | 36054 ft | 426 kts | 313° |
| 2026-05-07 14:22 | -61.89659 | 177.75747 | 36052 ft | 426 kts | 313° |
| 2026-05-07 14:23 | -61.85259 | 177.67281 | 36058 ft | 428 kts | 313° |
| 2026-05-07 14:23 | -61.80834 | 177.58805 | 36052 ft | 429 kts | 314° |
| 2026-05-07 14:24 | -61.76404 | 177.50352 | 36058 ft | 429 kts | 314° |
| 2026-05-07 14:24 | -61.72007 | 177.41994 | 36067 ft | 428 kts | 314° |
| 2026-05-07 14:25 | -61.67581 | 177.33617 | 36065 ft | 427 kts | 314° |
| 2026-05-07 14:25 | -61.63152 | 177.25267 | 36056 ft | 428 kts | 314° |
| 2026-05-07 14:26 | -61.58708 | 177.16921 | 36063 ft | 429 kts | 314° |
| 2026-05-07 14:26 | -61.54250 | 177.08585 | 36062 ft | 430 kts | 314° |
| 2026-05-07 14:27 | -61.49781 | 177.00262 | 36062 ft | 430 kts | 314° |
| 2026-05-07 14:27 | -61.45310 | 176.91966 | 36065 ft | 429 kts | 314° |
| 2026-05-07 14:28 | -61.40839 | 176.83704 | 36067 ft | 429 kts | 314° |
| 2026-05-07 14:28 | -61.36368 | 176.75475 | 36073 ft | 428 kts | 314° |
| 2026-05-07 14:29 | -61.31896 | 176.67277 | 36071 ft | 428 kts | 315° |
| 2026-05-07 14:29 | -61.27414 | 176.59092 | 36080 ft | 429 kts | 315° |
| 2026-05-07 14:30 | -61.22918 | 176.50915 | 36083 ft | 430 kts | 315° |
| 2026-05-07 14:30 | -61.18414 | 176.42756 | 36082 ft | 431 kts | 315° |
| 2026-05-07 14:31 | -61.13887 | 176.34587 | 36086 ft | 431 kts | 315° |
| 2026-05-07 14:31 | -61.09386 | 176.26496 | 36090 ft | 431 kts | 315° |
| 2026-05-07 14:32 | -61.04863 | 176.18401 | 36095 ft | 429 kts | 315° |
| 2026-05-07 14:32 | -61.00331 | 176.10317 | 36095 ft | 428 kts | 315° |
| 2026-05-07 14:33 | -60.95843 | 176.02344 | 36098 ft | 430 kts | 315° |
| 2026-05-07 14:33 | -60.91305 | 175.94315 | 36102 ft | 431 kts | 315° |
| 2026-05-07 14:34 | -60.86750 | 175.86285 | 36105 ft | 432 kts | 315° |
| 2026-05-07 14:34 | -60.82192 | 175.78284 | 36114 ft | 431 kts | 315° |
| 2026-05-07 14:35 | -60.77641 | 175.70323 | 36113 ft | 430 kts | 315° |
| 2026-05-07 14:35 | -60.73093 | 175.62400 | 36122 ft | 429 kts | 316° |
| 2026-05-07 14:36 | -60.68539 | 175.54497 | 36118 ft | 430 kts | 316° |
| 2026-05-07 14:36 | -60.63969 | 175.46597 | 36127 ft | 431 kts | 316° |
| 2026-05-07 14:37 | -60.59384 | 175.38700 | 36130 ft | 432 kts | 316° |
| 2026-05-07 14:37 | -60.52482 | 175.26871 | 36143 ft | 433 kts | 316° |
| 2026-05-07 14:38 | -60.47871 | 175.19008 | 36140 ft | 432 kts | 316° |
| 2026-05-07 14:38 | -60.43268 | 175.11186 | 36143 ft | 431 kts | 316° |
| 2026-05-07 14:39 | -60.38670 | 175.03403 | 36145 ft | 430 kts | 316° |
| 2026-05-07 14:39 | -60.34103 | 174.95703 | 36147 ft | 431 kts | 316° |
| 2026-05-07 14:40 | -60.29494 | 174.87960 | 36154 ft | 432 kts | 316° |
| 2026-05-07 14:40 | -60.24869 | 174.80221 | 36158 ft | 433 kts | 316° |
| 2026-05-07 14:41 | -60.20982 | 174.73739 | 36165 ft | 433 kts | 316° |
| 2026-05-07 14:41 | -60.16341 | 174.66025 | 36165 ft | 433 kts | 316° |
| 2026-05-07 14:42 | -60.11725 | 174.58384 | 36163 ft | 433 kts | 316° |
| 2026-05-07 14:42 | -60.07083 | 174.50728 | 36170 ft | 432 kts | 316° |
| 2026-05-07 14:43 | -60.02445 | 174.43107 | 36172 ft | 431 kts | 317° |
| 2026-05-07 14:43 | -59.97811 | 174.35522 | 36176 ft | 430 kts | 317° |
| 2026-05-07 14:44 | -59.93178 | 174.27964 | 36178 ft | 431 kts | 317° |
| 2026-05-07 14:44 | -59.88528 | 174.20409 | 36183 ft | 432 kts | 317° |
| 2026-05-07 14:45 | -59.83860 | 174.12854 | 36185 ft | 433 kts | 317° |
| 2026-05-07 14:45 | -59.79184 | 174.05313 | 36184 ft | 433 kts | 317° |
| 2026-05-07 14:46 | -59.74507 | 173.97798 | 36185 ft | 432 kts | 317° |
| 2026-05-07 14:46 | -59.69862 | 173.90362 | 36190 ft | 432 kts | 317° |
| 2026-05-07 14:47 | -59.65192 | 173.82915 | 36194 ft | 431 kts | 317° |
| 2026-05-07 14:47 | -59.60518 | 173.75487 | 36194 ft | 431 kts | 317° |
| 2026-05-07 14:48 | -59.55846 | 173.68090 | 36198 ft | 430 kts | 317° |
| 2026-05-07 14:48 | -59.51177 | 173.60725 | 36195 ft | 429 kts | 317° |
| 2026-05-07 14:49 | -59.46510 | 173.53391 | 36204 ft | 430 kts | 317° |
| 2026-05-07 14:49 | -59.41828 | 173.46057 | 36196 ft | 431 kts | 318° |
| 2026-05-07 14:50 | -59.37125 | 173.38720 | 36201 ft | 432 kts | 318° |
| 2026-05-07 14:50 | -59.32412 | 173.31394 | 36202 ft | 432 kts | 318° |
| 2026-05-07 14:51 | -59.27705 | 173.24104 | 36204 ft | 431 kts | 318° |
| 2026-05-07 14:51 | -59.23006 | 173.16852 | 36203 ft | 430 kts | 318° |
| 2026-05-07 14:52 | -59.18318 | 173.09642 | 36204 ft | 429 kts | 318° |
| 2026-05-07 14:52 | -59.13660 | 173.02505 | 36207 ft | 428 kts | 318° |
| 2026-05-07 14:53 | -59.08966 | 172.95337 | 36206 ft | 430 kts | 318° |
| 2026-05-07 14:53 | -59.04250 | 172.88162 | 36211 ft | 431 kts | 319° |
| 2026-05-07 14:54 | -58.99515 | 172.80986 | 36213 ft | 432 kts | 319° |
| 2026-05-07 14:54 | -58.94780 | 172.73833 | 36212 ft | 431 kts | 319° |
| 2026-05-07 14:55 | -58.90057 | 172.66725 | 36216 ft | 429 kts | 319° |
| 2026-05-07 14:55 | -58.85345 | 172.59658 | 36216 ft | 428 kts | 319° |
| 2026-05-07 14:56 | -58.80630 | 172.52611 | 36216 ft | 429 kts | 319° |
| 2026-05-07 14:56 | -58.75902 | 172.45571 | 36223 ft | 430 kts | 319° |
| 2026-05-07 14:57 | -58.71168 | 172.38547 | 36218 ft | 430 kts | 319° |
| 2026-05-07 14:57 | -58.66451 | 172.31570 | 36225 ft | 431 kts | 319° |
| 2026-05-07 14:58 | -58.61696 | 172.24564 | 36215 ft | 430 kts | 319° |
| 2026-05-07 14:58 | -58.56945 | 172.17588 | 36218 ft | 430 kts | 319° |
| 2026-05-07 14:59 | -58.52196 | 172.10639 | 36223 ft | 429 kts | 319° |
| 2026-05-07 14:59 | -58.47449 | 172.03718 | 36228 ft | 429 kts | 319° |
| 2026-05-07 15:00 | -58.42704 | 171.96823 | 36228 ft | 428 kts | 319° |
| 2026-05-07 15:00 | -58.37961 | 171.89955 | 36231 ft | 428 kts | 320° |
| 2026-05-07 15:01 | -58.33206 | 171.83094 | 36229 ft | 429 kts | 320° |
| 2026-05-07 15:01 | -58.28434 | 171.76232 | 36234 ft | 431 kts | 320° |
| 2026-05-07 15:02 | -58.23681 | 171.69421 | 36237 ft | 431 kts | 320° |
| 2026-05-07 15:02 | -58.18897 | 171.62588 | 36236 ft | 431 kts | 320° |
| 2026-05-07 15:03 | -58.14102 | 171.55765 | 36238 ft | 431 kts | 320° |
| 2026-05-07 15:03 | -58.09293 | 171.48944 | 36240 ft | 432 kts | 320° |
| 2026-05-07 15:04 | -58.04479 | 171.42140 | 36236 ft | 432 kts | 320° |
| 2026-05-07 15:04 | -57.99658 | 171.35350 | 36236 ft | 432 kts | 320° |
| 2026-05-07 15:05 | -57.94847 | 171.28598 | 36249 ft | 431 kts | 320° |
| 2026-05-07 15:05 | -57.90038 | 171.21868 | 36245 ft | 431 kts | 320° |
| 2026-05-07 15:06 | -57.85226 | 171.15161 | 36250 ft | 431 kts | 320° |
| 2026-05-07 15:06 | -57.80441 | 171.08513 | 36242 ft | 431 kts | 320° |
| 2026-05-07 15:07 | -57.75625 | 171.01844 | 36246 ft | 431 kts | 320° |
| 2026-05-07 15:07 | -57.70796 | 170.95179 | 36246 ft | 431 kts | 320° |
| 2026-05-07 15:08 | -57.65957 | 170.88525 | 36248 ft | 432 kts | 320° |
| 2026-05-07 15:08 | -57.61110 | 170.81881 | 36244 ft | 432 kts | 320° |
| 2026-05-07 15:09 | -57.56273 | 170.75274 | 36251 ft | 430 kts | 321° |
| 2026-05-07 15:09 | -57.51452 | 170.68711 | 36250 ft | 428 kts | 321° |
| 2026-05-07 15:10 | -57.46641 | 170.62182 | 36252 ft | 428 kts | 321° |
| 2026-05-07 15:10 | -57.41816 | 170.55656 | 36253 ft | 430 kts | 321° |
| 2026-05-07 15:11 | -57.36975 | 170.49132 | 36251 ft | 431 kts | 321° |
| 2026-05-07 15:11 | -57.32126 | 170.42617 | 36253 ft | 431 kts | 321° |
| 2026-05-07 15:12 | -57.27291 | 170.36144 | 36254 ft | 432 kts | 321° |
| 2026-05-07 15:12 | -57.22417 | 170.29639 | 36256 ft | 432 kts | 321° |
| 2026-05-07 15:13 | -57.17556 | 170.23175 | 36261 ft | 430 kts | 321° |
| 2026-05-07 15:13 | -57.12713 | 170.16753 | 36260 ft | 428 kts | 321° |
| 2026-05-07 15:14 | -57.07867 | 170.10350 | 36261 ft | 429 kts | 321° |
| 2026-05-07 15:14 | -57.03005 | 170.03947 | 36270 ft | 430 kts | 321° |
| 2026-05-07 15:15 | -56.98179 | 169.97460 | 36260 ft | 430 kts | 320° |
| 2026-05-07 15:15 | -56.93407 | 169.90785 | 36280 ft | 432 kts | 320° |
| 2026-05-07 15:16 | -56.88620 | 169.84137 | 36274 ft | 432 kts | 320° |
| 2026-05-07 15:16 | -56.83838 | 169.77499 | 36268 ft | 431 kts | 320° |
| 2026-05-07 15:17 | -56.79065 | 169.70907 | 36277 ft | 430 kts | 320° |
| 2026-05-07 15:17 | -56.74293 | 169.64331 | 36277 ft | 430 kts | 320° |
| 2026-05-07 15:18 | -56.69505 | 169.57758 | 36280 ft | 432 kts | 320° |
| 2026-05-07 15:18 | -56.64701 | 169.51183 | 36286 ft | 433 kts | 320° |
| 2026-05-07 15:19 | -56.59884 | 169.44613 | 36285 ft | 433 kts | 320° |
| 2026-05-07 15:19 | -56.55061 | 169.38054 | 36286 ft | 434 kts | 320° |
| 2026-05-07 15:20 | -56.50251 | 169.31536 | 36291 ft | 435 kts | 320° |
| 2026-05-07 15:20 | -56.45403 | 169.24988 | 36293 ft | 434 kts | 320° |
| 2026-05-07 15:21 | -56.40566 | 169.18476 | 36293 ft | 433 kts | 320° |
| 2026-05-07 15:21 | -56.35742 | 169.12001 | 36301 ft | 432 kts | 320° |
| 2026-05-07 15:22 | -56.30907 | 169.05532 | 36301 ft | 433 kts | 320° |
| 2026-05-07 15:22 | -56.26061 | 168.99072 | 36303 ft | 433 kts | 320° |
| 2026-05-07 15:23 | -56.21212 | 168.92626 | 36308 ft | 433 kts | 320° |
| 2026-05-07 15:23 | -56.16360 | 168.86198 | 36309 ft | 433 kts | 321° |
| 2026-05-07 15:24 | -56.11505 | 168.79786 | 36306 ft | 433 kts | 321° |
| 2026-05-07 15:24 | -56.06648 | 168.73393 | 36308 ft | 433 kts | 321° |
| 2026-05-07 15:25 | -56.01797 | 168.67027 | 36310 ft | 433 kts | 321° |
| 2026-05-07 15:25 | -55.96940 | 168.60675 | 36317 ft | 432 kts | 321° |
| 2026-05-07 15:26 | -55.92079 | 168.54336 | 36317 ft | 433 kts | 321° |
| 2026-05-07 15:26 | -55.87229 | 168.48033 | 36327 ft | 435 kts | 321° |
| 2026-05-07 15:27 | -55.82327 | 168.41681 | 36327 ft | 437 kts | 321° |
| 2026-05-07 15:27 | -55.77416 | 168.35339 | 36322 ft | 436 kts | 321° |
| 2026-05-07 15:28 | -55.72518 | 168.29034 | 36336 ft | 434 kts | 321° |
| 2026-05-07 15:28 | -55.67627 | 168.22758 | 36335 ft | 433 kts | 321° |
| 2026-05-07 15:29 | -55.62748 | 168.16515 | 36337 ft | 434 kts | 321° |
| 2026-05-07 15:29 | -55.57840 | 168.10256 | 36346 ft | 436 kts | 321° |
| 2026-05-07 15:30 | -55.52912 | 168.03992 | 36341 ft | 436 kts | 321° |
| 2026-05-07 15:30 | -55.47988 | 167.97752 | 36345 ft | 435 kts | 321° |
| 2026-05-07 15:31 | -55.43077 | 167.91549 | 36347 ft | 434 kts | 321° |
| 2026-05-07 15:31 | -55.38175 | 167.85375 | 36352 ft | 433 kts | 321° |
| 2026-05-07 15:32 | -55.33260 | 167.79204 | 36357 ft | 435 kts | 321° |
| 2026-05-07 15:32 | -55.28360 | 167.73072 | 36361 ft | 436 kts | 321° |
| 2026-05-07 15:33 | -55.23385 | 167.66865 | 36363 ft | 437 kts | 321° |
| 2026-05-07 15:33 | -55.18466 | 167.60748 | 36364 ft | 436 kts | 321° |
| 2026-05-07 15:34 | -55.13525 | 167.54621 | 36377 ft | 435 kts | 321° |
| 2026-05-07 15:34 | -55.08593 | 167.48524 | 36372 ft | 434 kts | 321° |
| 2026-05-07 15:35 | -55.04463 | 167.43435 | 36381 ft | 433 kts | 321° |
| 2026-05-07 15:35 | -54.99528 | 167.37368 | 36371 ft | 435 kts | 321° |
| 2026-05-07 15:36 | -54.94616 | 167.31350 | 36378 ft | 436 kts | 321° |
| 2026-05-07 15:36 | -54.89653 | 167.25286 | 36388 ft | 436 kts | 321° |
| 2026-05-07 15:37 | -54.84679 | 167.19229 | 36386 ft | 437 kts | 321° |
| 2026-05-07 15:37 | -54.79709 | 167.13196 | 36389 ft | 435 kts | 321° |
| 2026-05-07 15:38 | -54.74750 | 167.07192 | 36392 ft | 434 kts | 321° |
| 2026-05-07 15:38 | -54.69798 | 167.01218 | 36399 ft | 433 kts | 321° |
| 2026-05-07 15:39 | -54.64852 | 166.95266 | 36405 ft | 434 kts | 321° |
| 2026-05-07 15:39 | -54.59888 | 166.89312 | 36400 ft | 435 kts | 321° |
| 2026-05-07 15:40 | -54.54910 | 166.83359 | 36404 ft | 436 kts | 322° |
| 2026-05-07 15:40 | -54.49954 | 166.77452 | 36405 ft | 436 kts | 322° |
| 2026-05-07 15:41 | -54.44962 | 166.71519 | 36406 ft | 436 kts | 322° |
| 2026-05-07 15:41 | -54.39975 | 166.65608 | 36411 ft | 435 kts | 322° |
| 2026-05-07 15:42 | -54.35055 | 166.59795 | 36421 ft | 434 kts | 322° |
| 2026-05-07 15:42 | -54.30078 | 166.53933 | 36425 ft | 434 kts | 322° |
| 2026-05-07 15:43 | -54.25113 | 166.48103 | 36968 ft | 430 kts | 322° |
| 2026-05-07 15:43 | -54.22649 | 166.45215 | 37330 ft | 429 kts | 322° |
| 2026-05-07 15:43 | -54.20185 | 166.42330 | 37617 ft | 430 kts | 322° |
| 2026-05-07 15:44 | -54.17715 | 166.39442 | 37881 ft | 431 kts | 322° |
| 2026-05-07 15:44 | -54.15237 | 166.36553 | 38134 ft | 432 kts | 322° |
| 2026-05-07 15:44 | -54.12750 | 166.33655 | 38296 ft | 434 kts | 322° |
| 2026-05-07 15:44 | -54.10252 | 166.30749 | 38404 ft | 437 kts | 322° |
| 2026-05-07 15:45 | -54.05186 | 166.24870 | 38431 ft | 441 kts | 322° |
| 2026-05-07 15:45 | -54.00139 | 166.19033 | 38432 ft | 438 kts | 322° |
| 2026-05-07 15:46 | -53.92589 | 166.10327 | 38435 ft | 437 kts | 322° |
| 2026-05-07 15:47 | -53.87584 | 166.04577 | 38440 ft | 438 kts | 322° |
| 2026-05-07 15:47 | -53.82536 | 165.98796 | 38443 ft | 438 kts | 322° |
| 2026-05-07 15:48 | -53.77480 | 165.93023 | 38448 ft | 439 kts | 322° |
| 2026-05-07 15:48 | -53.72429 | 165.87273 | 38450 ft | 438 kts | 322° |
| 2026-05-07 15:49 | -53.67382 | 165.81544 | 38452 ft | 437 kts | 322° |
| 2026-05-07 15:49 | -53.62341 | 165.75839 | 38457 ft | 436 kts | 323° |
| 2026-05-07 15:50 | -53.57309 | 165.70159 | 38457 ft | 435 kts | 323° |
| 2026-05-07 15:50 | -53.52274 | 165.64495 | 38470 ft | 435 kts | 323° |
| 2026-05-07 15:51 | -53.47241 | 165.58847 | 38464 ft | 436 kts | 323° |
| 2026-05-07 15:51 | -53.42187 | 165.53194 | 38470 ft | 437 kts | 323° |
| 2026-05-07 15:52 | -53.37156 | 165.47582 | 38468 ft | 438 kts | 323° |
| 2026-05-07 15:52 | -53.32079 | 165.41936 | 38463 ft | 438 kts | 323° |
| 2026-05-07 15:53 | -53.26993 | 165.36295 | 38471 ft | 439 kts | 323° |
| 2026-05-07 15:53 | -53.21912 | 165.30678 | 38472 ft | 438 kts | 323° |
| 2026-05-07 15:54 | -53.16843 | 165.25088 | 38477 ft | 436 kts | 323° |
| 2026-05-07 15:54 | -53.11786 | 165.19528 | 38476 ft | 435 kts | 323° |
| 2026-05-07 15:55 | -53.06723 | 165.13977 | 38480 ft | 436 kts | 323° |
| 2026-05-07 15:55 | -53.01646 | 165.08427 | 38482 ft | 437 kts | 323° |
| 2026-05-07 15:56 | -52.96558 | 165.02881 | 38483 ft | 438 kts | 323° |
| 2026-05-07 15:56 | -52.91492 | 164.97375 | 38485 ft | 439 kts | 323° |
| 2026-05-07 15:57 | -52.86384 | 164.91839 | 38492 ft | 439 kts | 323° |
| 2026-05-07 15:57 | -52.81285 | 164.86329 | 38488 ft | 437 kts | 323° |
| 2026-05-07 15:58 | -52.76199 | 164.80847 | 38489 ft | 436 kts | 323° |
| 2026-05-07 15:58 | -52.71127 | 164.75397 | 38494 ft | 435 kts | 323° |
| 2026-05-07 15:59 | -52.66053 | 164.69959 | 38498 ft | 436 kts | 323° |
| 2026-05-07 15:59 | -52.60958 | 164.64515 | 38495 ft | 437 kts | 323° |
| 2026-05-07 16:00 | -52.55846 | 164.59068 | 38502 ft | 438 kts | 324° |
| 2026-05-07 16:00 | -52.50742 | 164.53646 | 38497 ft | 436 kts | 324° |
| 2026-05-07 16:01 | -52.45657 | 164.48257 | 38500 ft | 434 kts | 324° |
| 2026-05-07 16:01 | -52.40585 | 164.42897 | 38513 ft | 434 kts | 324° |
| 2026-05-07 16:02 | -52.35512 | 164.37550 | 38131 ft | 432 kts | 323° |
| 2026-05-07 16:02 | -52.33040 | 164.34944 | 38279 ft | 412 kts | 324° |
| 2026-05-07 16:02 | -52.30681 | 164.32485 | 38356 ft | 396 kts | 324° |
| 2026-05-07 16:02 | -52.28375 | 164.30068 | 38775 ft | 395 kts | 323° |
| 2026-05-07 16:03 | -52.26045 | 164.27589 | 38628 ft | 404 kts | 323° |
| 2026-05-07 16:03 | -52.23648 | 164.25084 | 38522 ft | 413 kts | 324° |
| 2026-05-07 16:03 | -52.21232 | 164.22590 | 38528 ft | 419 kts | 324° |
| 2026-05-07 16:04 | -52.16250 | 164.17384 | 38540 ft | 431 kts | 324° |
| 2026-05-07 16:04 | -52.11151 | 164.12086 | 38535 ft | 435 kts | 324° |
| 2026-05-07 16:05 | -52.06055 | 164.06804 | 38530 ft | 434 kts | 324° |
| 2026-05-07 16:05 | -52.00968 | 164.01539 | 38533 ft | 433 kts | 324° |
| 2026-05-07 16:06 | -51.95876 | 163.96291 | 38530 ft | 434 kts | 324° |
| 2026-05-07 16:06 | -51.90786 | 163.91053 | 38526 ft | 433 kts | 324° |
| 2026-05-07 16:07 | -51.85697 | 163.85835 | 38533 ft | 432 kts | 324° |
| 2026-05-07 16:07 | -51.80622 | 163.80642 | 38530 ft | 432 kts | 325° |
| 2026-05-07 16:08 | -51.75547 | 163.75465 | 38543 ft | 431 kts | 325° |
| 2026-05-07 16:08 | -51.70465 | 163.70294 | 38539 ft | 432 kts | 325° |
| 2026-05-07 16:09 | -51.65369 | 163.65123 | 38541 ft | 433 kts | 325° |
| 2026-05-07 16:09 | -51.60267 | 163.59960 | 38540 ft | 433 kts | 325° |
| 2026-05-07 16:10 | -51.55197 | 163.54842 | 38549 ft | 433 kts | 325° |
| 2026-05-07 16:10 | -51.50096 | 163.49709 | 38541 ft | 432 kts | 325° |
| 2026-05-07 16:11 | -51.44999 | 163.44591 | 38547 ft | 432 kts | 325° |
| 2026-05-07 16:11 | -51.39914 | 163.39501 | 38538 ft | 431 kts | 325° |
| 2026-05-07 16:12 | -51.34831 | 163.34424 | 38549 ft | 430 kts | 325° |
| 2026-05-07 16:12 | -51.29745 | 163.29359 | 38545 ft | 431 kts | 325° |
| 2026-05-07 16:13 | -51.24638 | 163.24286 | 38549 ft | 433 kts | 325° |
| 2026-05-07 16:13 | -51.19519 | 163.19215 | 38554 ft | 433 kts | 325° |
| 2026-05-07 16:14 | -51.14396 | 163.14153 | 38561 ft | 433 kts | 326° |
| 2026-05-07 16:14 | -51.09313 | 163.09145 | 38547 ft | 432 kts | 326° |
| 2026-05-07 16:15 | -51.04205 | 163.04124 | 38555 ft | 431 kts | 326° |
| 2026-05-07 16:15 | -50.99109 | 162.99129 | 38556 ft | 431 kts | 326° |
| 2026-05-07 16:16 | -50.93950 | 162.94231 | 38556 ft | 432 kts | 326° |
| 2026-05-07 16:16 | -50.88800 | 162.89325 | 38557 ft | 432 kts | 326° |
| 2026-05-07 16:17 | -50.83646 | 162.84429 | 38562 ft | 432 kts | 326° |
| 2026-05-07 16:17 | -50.78500 | 162.79562 | 38555 ft | 431 kts | 326° |
| 2026-05-07 16:18 | -50.73352 | 162.74695 | 38563 ft | 430 kts | 326° |
| 2026-05-07 16:18 | -50.68208 | 162.69852 | 38563 ft | 432 kts | 326° |
| 2026-05-07 16:19 | -50.63044 | 162.64999 | 38580 ft | 432 kts | 326° |
| 2026-05-07 16:19 | -50.57872 | 162.60153 | 38570 ft | 433 kts | 326° |
| 2026-05-07 16:20 | -50.52731 | 162.55348 | 38562 ft | 432 kts | 327° |
| 2026-05-07 16:20 | -50.47563 | 162.50530 | 38573 ft | 431 kts | 327° |
| 2026-05-07 16:21 | -50.42407 | 162.45735 | 38570 ft | 430 kts | 327° |
| 2026-05-07 16:21 | -50.37252 | 162.40954 | 38564 ft | 431 kts | 327° |
| 2026-05-07 16:22 | -50.32088 | 162.36177 | 38573 ft | 432 kts | 327° |
| 2026-05-07 16:22 | -50.26901 | 162.31390 | 38575 ft | 433 kts | 327° |
| 2026-05-07 16:23 | -50.21711 | 162.26613 | 38574 ft | 433 kts | 327° |
| 2026-05-07 16:23 | -50.16522 | 162.21849 | 38572 ft | 432 kts | 327° |
| 2026-05-07 16:24 | -50.11344 | 162.17108 | 38575 ft | 431 kts | 327° |
| 2026-05-07 16:24 | -50.06214 | 162.12422 | 38580 ft | 430 kts | 327° |
| 2026-05-07 16:25 | -50.01048 | 162.07714 | 38578 ft | 431 kts | 327° |
| 2026-05-07 16:25 | -49.95872 | 162.03009 | 38580 ft | 431 kts | 327° |
| 2026-05-07 16:26 | -49.90699 | 161.98320 | 38585 ft | 431 kts | 327° |
| 2026-05-07 16:26 | -49.85524 | 161.93640 | 38578 ft | 430 kts | 327° |
| 2026-05-07 16:27 | -49.80354 | 161.88977 | 38580 ft | 429 kts | 327° |
| 2026-05-07 16:27 | -49.75181 | 161.84321 | 38581 ft | 431 kts | 327° |
| 2026-05-07 16:28 | -49.69982 | 161.79656 | 38581 ft | 432 kts | 327° |
| 2026-05-07 16:28 | -49.64775 | 161.74994 | 38582 ft | 433 kts | 327° |
| 2026-05-07 16:29 | -49.59552 | 161.70327 | 38655 ft | 439 kts | 327° |
| 2026-05-07 16:29 | -49.54245 | 161.65591 | 38599 ft | 445 kts | 328° |
| 2026-05-07 16:30 | -49.48872 | 161.60833 | 38592 ft | 446 kts | 328° |
| 2026-05-07 16:30 | -49.43498 | 161.56060 | 38592 ft | 446 kts | 328° |
| 2026-05-07 16:31 | -49.39024 | 161.52110 | 38589 ft | 446 kts | 328° |
| 2026-05-07 16:31 | -49.33643 | 161.47361 | 38588 ft | 446 kts | 328° |
| 2026-05-07 16:32 | -49.28224 | 161.42594 | 38588 ft | 446 kts | 328° |
| 2026-05-07 16:32 | -49.22883 | 161.37906 | 38591 ft | 446 kts | 328° |
| 2026-05-07 16:33 | -49.17502 | 161.33195 | 38590 ft | 446 kts | 328° |
| 2026-05-07 16:33 | -49.12120 | 161.28495 | 38589 ft | 445 kts | 328° |
| 2026-05-07 16:34 | -49.06743 | 161.23812 | 38588 ft | 445 kts | 328° |
| 2026-05-07 16:34 | -49.01368 | 161.19141 | 38588 ft | 445 kts | 328° |
| 2026-05-07 16:35 | -48.95990 | 161.14480 | 38592 ft | 445 kts | 328° |
| 2026-05-07 16:35 | -48.90594 | 161.09816 | 38595 ft | 447 kts | 328° |
| 2026-05-07 16:36 | -48.85180 | 161.05147 | 38599 ft | 448 kts | 328° |
| 2026-05-07 16:36 | -48.79751 | 161.00477 | 38600 ft | 449 kts | 328° |
| 2026-05-07 16:37 | -48.74357 | 160.95849 | 38591 ft | 448 kts | 328° |
| 2026-05-07 16:37 | -48.68907 | 160.91185 | 38605 ft | 447 kts | 328° |
| 2026-05-07 16:38 | -48.63531 | 160.86595 | 38601 ft | 446 kts | 328° |
| 2026-05-07 16:38 | -48.58125 | 160.81991 | 38601 ft | 446 kts | 328° |
| 2026-05-07 16:39 | -48.52714 | 160.77394 | 38599 ft | 447 kts | 328° |
| 2026-05-07 16:39 | -48.47282 | 160.72791 | 38602 ft | 448 kts | 328° |
| 2026-05-07 16:40 | -48.41831 | 160.68184 | 38602 ft | 450 kts | 328° |
| 2026-05-07 16:40 | -48.36380 | 160.63587 | 38605 ft | 449 kts | 329° |
| 2026-05-07 16:41 | -48.30929 | 160.59002 | 38596 ft | 449 kts | 329° |
| 2026-05-07 16:41 | -48.25485 | 160.54434 | 38604 ft | 448 kts | 329° |
| 2026-05-07 16:42 | -48.20047 | 160.49883 | 38599 ft | 447 kts | 329° |
| 2026-05-07 16:42 | -48.14614 | 160.45346 | 38599 ft | 447 kts | 329° |
| 2026-05-07 16:43 | -48.09169 | 160.40811 | 38601 ft | 448 kts | 329° |
| 2026-05-07 16:43 | -48.03716 | 160.36280 | 38601 ft | 448 kts | 329° |
| 2026-05-07 16:44 | -47.98259 | 160.31757 | 38601 ft | 449 kts | 329° |
| 2026-05-07 16:44 | -47.92799 | 160.27243 | 38604 ft | 449 kts | 329° |
| 2026-05-07 16:45 | -47.87346 | 160.22745 | 38607 ft | 448 kts | 329° |
| 2026-05-07 16:45 | -47.81888 | 160.18254 | 38605 ft | 448 kts | 329° |
| 2026-05-07 16:46 | -47.76426 | 160.13770 | 38601 ft | 448 kts | 329° |
| 2026-05-07 16:46 | -47.71012 | 160.09337 | 38608 ft | 449 kts | 329° |
| 2026-05-07 16:47 | -47.65530 | 160.04859 | 38612 ft | 451 kts | 329° |
| 2026-05-07 16:47 | -47.60024 | 160.00373 | 38609 ft | 452 kts | 329° |
| 2026-05-07 16:48 | -47.54513 | 159.95892 | 38613 ft | 452 kts | 329° |
| 2026-05-07 16:48 | -47.49005 | 159.91425 | 38609 ft | 451 kts | 329° |
| 2026-05-07 16:49 | -47.43502 | 159.86973 | 38607 ft | 451 kts | 329° |
| 2026-05-07 16:49 | -47.38004 | 159.82536 | 38603 ft | 450 kts | 329° |
| 2026-05-07 16:50 | -47.32510 | 159.78113 | 38603 ft | 449 kts | 329° |
| 2026-05-07 16:50 | -47.27022 | 159.73704 | 38603 ft | 450 kts | 329° |
| 2026-05-07 16:51 | -47.21519 | 159.69295 | 38607 ft | 450 kts | 329° |
| 2026-05-07 16:51 | -47.16014 | 159.64894 | 38606 ft | 450 kts | 329° |
| 2026-05-07 16:52 | -47.10508 | 159.60502 | 38605 ft | 450 kts | 329° |
| 2026-05-07 16:52 | -47.05036 | 159.56149 | 38602 ft | 450 kts | 329° |
| 2026-05-07 16:53 | -46.99526 | 159.51776 | 38610 ft | 450 kts | 329° |
| 2026-05-07 16:53 | -46.94014 | 159.47411 | 38608 ft | 450 kts | 329° |
| 2026-05-07 16:54 | -46.88498 | 159.43053 | 38615 ft | 452 kts | 329° |
| 2026-05-07 16:54 | -46.82953 | 159.38683 | 38615 ft | 453 kts | 330° |
| 2026-05-07 16:55 | -46.77389 | 159.34307 | 38617 ft | 455 kts | 330° |
| 2026-05-07 16:55 | -46.71814 | 159.29935 | 38612 ft | 454 kts | 330° |
| 2026-05-07 16:56 | -46.66252 | 159.25582 | 38610 ft | 453 kts | 330° |
| 2026-05-07 16:56 | -46.57930 | 159.19089 | 38614 ft | 452 kts | 330° |
| 2026-05-07 16:57 | -46.52420 | 159.14802 | 38608 ft | 453 kts | 330° |
| 2026-05-07 16:57 | -46.46847 | 159.10476 | 38612 ft | 455 kts | 330° |
| 2026-05-07 16:58 | -46.41258 | 159.06148 | 38615 ft | 456 kts | 330° |
| 2026-05-07 16:58 | -46.35662 | 159.01825 | 38612 ft | 455 kts | 330° |
| 2026-05-07 16:59 | -46.30083 | 158.97525 | 38612 ft | 454 kts | 330° |
| 2026-05-07 16:59 | -46.24510 | 158.93240 | 38614 ft | 454 kts | 330° |
| 2026-05-07 17:00 | -46.18921 | 158.88952 | 38614 ft | 455 kts | 330° |
| 2026-05-07 17:00 | -46.13340 | 158.84680 | 38615 ft | 454 kts | 330° |
| 2026-05-07 17:01 | -46.07752 | 158.80412 | 38613 ft | 455 kts | 330° |
| 2026-05-07 17:01 | -46.02139 | 158.76136 | 38615 ft | 457 kts | 330° |
| 2026-05-07 17:02 | -45.96516 | 158.71862 | 38620 ft | 457 kts | 330° |
| 2026-05-07 17:02 | -45.90894 | 158.67599 | 38616 ft | 456 kts | 330° |
| 2026-05-07 17:03 | -45.85312 | 158.63375 | 38616 ft | 456 kts | 330° |
| 2026-05-07 17:03 | -45.79704 | 158.59142 | 38612 ft | 455 kts | 330° |
| 2026-05-07 17:04 | -45.74099 | 158.54920 | 38616 ft | 456 kts | 330° |
| 2026-05-07 17:04 | -45.68468 | 158.50688 | 38616 ft | 458 kts | 330° |
| 2026-05-07 17:05 | -45.62818 | 158.46453 | 38622 ft | 459 kts | 330° |
| 2026-05-07 17:05 | -45.57153 | 158.42215 | 38615 ft | 460 kts | 330° |
| 2026-05-07 17:06 | -45.51479 | 158.37981 | 38622 ft | 459 kts | 330° |
| 2026-05-07 17:06 | -45.45829 | 158.33775 | 38621 ft | 458 kts | 330° |
| 2026-05-07 17:07 | -45.40183 | 158.29579 | 38613 ft | 458 kts | 330° |
| 2026-05-07 17:07 | -45.34529 | 158.25389 | 38620 ft | 459 kts | 330° |
| 2026-05-07 17:08 | -45.28859 | 158.21196 | 38626 ft | 460 kts | 331° |
| 2026-05-07 17:08 | -45.23174 | 158.17001 | 38624 ft | 461 kts | 331° |
| 2026-05-07 17:09 | -45.17476 | 158.12807 | 38629 ft | 461 kts | 331° |
| 2026-05-07 17:09 | -45.11828 | 158.08658 | 38632 ft | 461 kts | 331° |
| 2026-05-07 17:10 | -45.06134 | 158.04485 | 38631 ft | 461 kts | 331° |
| 2026-05-07 17:10 | -45.00432 | 158.00316 | 38632 ft | 462 kts | 331° |
| 2026-05-07 17:11 | -44.94740 | 157.96105 | 38635 ft | 462 kts | 330° |
| 2026-05-07 17:11 | -44.89048 | 157.91874 | 38633 ft | 463 kts | 331° |
| 2026-05-07 17:12 | -44.83344 | 157.87672 | 38633 ft | 462 kts | 330° |
| 2026-05-07 17:12 | -44.77653 | 157.83467 | 38633 ft | 461 kts | 331° |
| 2026-05-07 17:13 | -44.71973 | 157.79295 | 38632 ft | 461 kts | 331° |
| 2026-05-07 17:13 | -44.66296 | 157.75125 | 38632 ft | 460 kts | 331° |
| 2026-05-07 17:14 | -44.60609 | 157.70962 | 38632 ft | 461 kts | 331° |
| 2026-05-07 17:14 | -44.54910 | 157.66797 | 38636 ft | 462 kts | 331° |
| 2026-05-07 17:15 | -44.49236 | 157.62661 | 38639 ft | 463 kts | 331° |
| 2026-05-07 17:15 | -44.43513 | 157.58496 | 38640 ft | 464 kts | 331° |
| 2026-05-07 17:16 | -44.37777 | 157.54333 | 38644 ft | 465 kts | 331° |
| 2026-05-07 17:16 | -44.32031 | 157.50172 | 38645 ft | 465 kts | 331° |
| 2026-05-07 17:17 | -44.26276 | 157.46013 | 38647 ft | 465 kts | 331° |
| 2026-05-07 17:17 | -44.20530 | 157.41870 | 38644 ft | 464 kts | 331° |
| 2026-05-07 17:18 | -44.14837 | 157.37774 | 38644 ft | 463 kts | 331° |
| 2026-05-07 17:18 | -44.09116 | 157.33668 | 38645 ft | 463 kts | 331° |
| 2026-05-07 17:19 | -44.03374 | 157.29554 | 38646 ft | 465 kts | 331° |
| 2026-05-07 17:19 | -43.97608 | 157.25433 | 38668 ft | 467 kts | 331° |
| 2026-05-07 17:20 | -43.91832 | 157.21314 | 38668 ft | 467 kts | 331° |
| 2026-05-07 17:20 | -43.86054 | 157.17203 | 38668 ft | 467 kts | 331° |
| 2026-05-07 17:21 | -43.80276 | 157.13100 | 38665 ft | 466 kts | 331° |
| 2026-05-07 17:21 | -43.74501 | 157.09009 | 38667 ft | 466 kts | 331° |
| 2026-05-07 17:22 | -43.68734 | 157.04932 | 38663 ft | 466 kts | 331° |
| 2026-05-07 17:22 | -43.62956 | 157.00856 | 38667 ft | 466 kts | 331° |
| 2026-05-07 17:23 | -43.57228 | 156.96825 | 38671 ft | 466 kts | 332° |
| 2026-05-07 17:23 | -43.51438 | 156.92757 | 38672 ft | 468 kts | 332° |
| 2026-05-07 17:24 | -43.45625 | 156.88684 | 38674 ft | 469 kts | 332° |
| 2026-05-07 17:24 | -43.39795 | 156.84607 | 38677 ft | 470 kts | 332° |
| 2026-05-07 17:25 | -43.34955 | 156.81229 | 38675 ft | 469 kts | 332° |
| 2026-05-07 17:25 | -43.29135 | 156.77176 | 38672 ft | 468 kts | 332° |
| 2026-05-07 17:26 | -43.23326 | 156.73137 | 38673 ft | 468 kts | 332° |
| 2026-05-07 17:26 | -43.17516 | 156.69108 | 38676 ft | 467 kts | 332° |
| 2026-05-07 17:27 | -43.11712 | 156.65092 | 38677 ft | 469 kts | 332° |
| 2026-05-07 17:27 | -43.05870 | 156.61057 | 38678 ft | 471 kts | 332° |
| 2026-05-07 17:28 | -43.00014 | 156.57021 | 38685 ft | 471 kts | 332° |
| 2026-05-07 17:28 | -42.94157 | 156.52995 | 38683 ft | 471 kts | 332° |
| 2026-05-07 17:29 | -42.88315 | 156.48986 | 38678 ft | 470 kts | 332° |
| 2026-05-07 17:29 | -42.82472 | 156.44985 | 38676 ft | 470 kts | 332° |
| 2026-05-07 17:30 | -42.76637 | 156.40999 | 38678 ft | 469 kts | 332° |
| 2026-05-07 17:30 | -42.70836 | 156.37043 | 38681 ft | 471 kts | 332° |
| 2026-05-07 17:31 | -42.64970 | 156.33053 | 38683 ft | 472 kts | 332° |
| 2026-05-07 17:31 | -42.59092 | 156.29062 | 38681 ft | 472 kts | 332° |
| 2026-05-07 17:32 | -42.53209 | 156.25077 | 38686 ft | 473 kts | 332° |
| 2026-05-07 17:32 | -42.47325 | 156.21099 | 38686 ft | 473 kts | 332° |
| 2026-05-07 17:33 | -42.41439 | 156.17129 | 38683 ft | 472 kts | 332° |
| 2026-05-07 17:33 | -42.35554 | 156.13167 | 38685 ft | 472 kts | 332° |
| 2026-05-07 17:34 | -42.29676 | 156.09219 | 38687 ft | 472 kts | 332° |
| 2026-05-07 17:34 | -42.23794 | 156.05275 | 38684 ft | 472 kts | 332° |
| 2026-05-07 17:35 | -42.17913 | 156.01341 | 38687 ft | 472 kts | 332° |
| 2026-05-07 17:35 | -42.12034 | 155.97416 | 38688 ft | 471 kts | 332° |
| 2026-05-07 17:36 | -42.06153 | 155.93499 | 38689 ft | 471 kts | 332° |
| 2026-05-07 17:36 | -42.00272 | 155.89589 | 38690 ft | 472 kts | 332° |
| 2026-05-07 17:37 | -41.94374 | 155.85676 | 38692 ft | 473 kts | 331° |
| 2026-05-07 17:37 | -41.88457 | 155.81759 | 38693 ft | 475 kts | 331° |
| 2026-05-07 17:38 | -41.82522 | 155.77838 | 38695 ft | 476 kts | 331° |
| 2026-05-07 17:38 | -41.76593 | 155.73930 | 38695 ft | 475 kts | 331° |
| 2026-05-07 17:39 | -41.70708 | 155.70057 | 38693 ft | 474 kts | 331° |
| 2026-05-07 17:39 | -41.64791 | 155.66173 | 38695 ft | 473 kts | 331° |
| 2026-05-07 17:40 | -41.58879 | 155.62299 | 38692 ft | 472 kts | 331° |
| 2026-05-07 17:40 | -41.52984 | 155.58444 | 38696 ft | 472 kts | 331° |
| 2026-05-07 17:41 | -41.47070 | 155.54585 | 38701 ft | 474 kts | 331° |
| 2026-05-07 17:41 | -41.41125 | 155.50713 | 38707 ft | 476 kts | 331° |
| 2026-05-07 17:42 | -41.35178 | 155.46849 | 38712 ft | 476 kts | 331° |
| 2026-05-07 17:42 | -41.29232 | 155.42993 | 38709 ft | 475 kts | 331° |
| 2026-05-07 17:43 | -41.23300 | 155.39153 | 38703 ft | 474 kts | 331° |
| 2026-05-07 17:43 | -41.17377 | 155.35327 | 38700 ft | 473 kts | 331° |
| 2026-05-07 17:44 | -41.11462 | 155.31514 | 38701 ft | 473 kts | 331° |
| 2026-05-07 17:44 | -41.05541 | 155.27705 | 38710 ft | 474 kts | 331° |
| 2026-05-07 17:45 | -40.99634 | 155.23913 | 38711 ft | 475 kts | 331° |
| 2026-05-07 17:45 | -40.93673 | 155.20093 | 38716 ft | 477 kts | 331° |
| 2026-05-07 17:46 | -40.87712 | 155.16282 | 38712 ft | 475 kts | 331° |
| 2026-05-07 17:46 | -40.81771 | 155.12490 | 38710 ft | 473 kts | 331° |
| 2026-05-07 17:47 | -40.75843 | 155.08715 | 38704 ft | 473 kts | 331° |
| 2026-05-07 17:47 | -40.69901 | 155.04937 | 38709 ft | 475 kts | 331° |
| 2026-05-07 17:48 | -40.63976 | 155.01179 | 38716 ft | 476 kts | 331° |
| 2026-05-07 17:48 | -40.58004 | 154.97398 | 38713 ft | 476 kts | 331° |
| 2026-05-07 17:49 | -40.52041 | 154.93631 | 38713 ft | 475 kts | 331° |
| 2026-05-07 17:49 | -40.46081 | 154.89872 | 38716 ft | 475 kts | 331° |
| 2026-05-07 17:50 | -40.40115 | 154.86117 | 38717 ft | 476 kts | 331° |
| 2026-05-07 17:50 | -40.34139 | 154.82364 | 38713 ft | 476 kts | 331° |
| 2026-05-07 17:51 | -40.28154 | 154.78612 | 38719 ft | 477 kts | 330° |
| 2026-05-07 17:51 | -40.22164 | 154.74865 | 38717 ft | 477 kts | 330° |
| 2026-05-07 17:52 | -40.16187 | 154.71133 | 38910 ft | 476 kts | 330° |
| 2026-05-07 17:52 | -40.13205 | 154.69274 | 39247 ft | 474 kts | 330° |
| 2026-05-07 17:52 | -40.10222 | 154.67416 | 39507 ft | 474 kts | 330° |
| 2026-05-07 17:53 | -40.07245 | 154.65562 | 39669 ft | 477 kts | 330° |
| 2026-05-07 17:53 | -40.04239 | 154.63692 | 39723 ft | 480 kts | 330° |
| 2026-05-07 17:53 | -39.98215 | 154.59958 | 39720 ft | 476 kts | 330° |
| 2026-05-07 17:54 | -39.92245 | 154.56255 | 39723 ft | 475 kts | 330° |
| 2026-05-07 17:54 | -39.86320 | 154.52593 | 39726 ft | 474 kts | 330° |
| 2026-05-07 17:55 | -39.80352 | 154.48910 | 39725 ft | 475 kts | 330° |
| 2026-05-07 17:55 | -39.74383 | 154.45232 | 39724 ft | 476 kts | 330° |
| 2026-05-07 17:56 | -39.68396 | 154.41552 | 39736 ft | 476 kts | 330° |
| 2026-05-07 17:56 | -39.62399 | 154.37872 | 39736 ft | 477 kts | 330° |
| 2026-05-07 17:57 | -39.57403 | 154.34813 | 39732 ft | 478 kts | 330° |
| 2026-05-07 17:57 | -39.50382 | 154.30521 | 39729 ft | 477 kts | 330° |
| 2026-05-07 17:58 | -39.44391 | 154.26866 | 39732 ft | 475 kts | 330° |
| 2026-05-07 17:58 | -39.38451 | 154.23249 | 39736 ft | 474 kts | 330° |
| 2026-05-07 17:59 | -39.32487 | 154.19624 | 39736 ft | 475 kts | 330° |
| 2026-05-07 17:59 | -39.26500 | 154.15993 | 39737 ft | 476 kts | 330° |
| 2026-05-07 18:00 | -39.20498 | 154.12359 | 39735 ft | 477 kts | 330° |
| 2026-05-07 18:00 | -39.14482 | 154.08724 | 39739 ft | 478 kts | 330° |
| 2026-05-07 18:01 | -39.08458 | 154.05091 | 39737 ft | 478 kts | 330° |
| 2026-05-07 18:01 | -39.02447 | 154.01472 | 39741 ft | 476 kts | 330° |
| 2026-05-07 18:02 | -38.93065 | 153.97136 | 39756 ft | 480 kts | 337° |
| 2026-05-07 18:03 | -38.86707 | 153.94452 | 39755 ft | 481 kts | 337° |
| 2026-05-07 18:03 | -38.80366 | 153.91849 | 39757 ft | 482 kts | 337° |
| 2026-05-07 18:04 | -38.73992 | 153.89192 | 39760 ft | 482 kts | 337° |
| 2026-05-07 18:04 | -38.67610 | 153.86564 | 39756 ft | 482 kts | 337° |
| 2026-05-07 18:05 | -38.61232 | 153.83927 | 39766 ft | 482 kts | 337° |
| 2026-05-07 18:05 | -38.54853 | 153.81302 | 39765 ft | 481 kts | 337° |
| 2026-05-07 18:06 | -38.48477 | 153.78681 | 39776 ft | 481 kts | 337° |
| 2026-05-07 18:06 | -38.42105 | 153.76067 | 39780 ft | 481 kts | 337° |
| 2026-05-07 18:07 | -38.35736 | 153.73459 | 39780 ft | 480 kts | 337° |
| 2026-05-07 18:07 | -38.29415 | 153.70874 | 39791 ft | 480 kts | 337° |
| 2026-05-07 18:08 | -38.23062 | 153.68283 | 39793 ft | 480 kts | 336° |
| 2026-05-07 18:08 | -38.16705 | 153.65693 | 39793 ft | 480 kts | 336° |
| 2026-05-07 18:09 | -38.10351 | 153.63111 | 39804 ft | 479 kts | 336° |
| 2026-05-07 18:09 | -38.04000 | 153.60534 | 39803 ft | 479 kts | 336° |
| 2026-05-07 18:10 | -37.97634 | 153.57954 | 39808 ft | 481 kts | 336° |
| 2026-05-07 18:10 | -37.91244 | 153.55371 | 39814 ft | 483 kts | 336° |
| 2026-05-07 18:11 | -37.84841 | 153.52788 | 39816 ft | 482 kts | 336° |
| 2026-05-07 18:11 | -37.78455 | 153.50216 | 39819 ft | 481 kts | 336° |
| 2026-05-07 18:12 | -37.72089 | 153.47655 | 39825 ft | 479 kts | 336° |
| 2026-05-07 18:12 | -37.65742 | 153.45108 | 39826 ft | 478 kts | 336° |
| 2026-05-07 18:13 | -37.59431 | 153.42578 | 39835 ft | 480 kts | 336° |
| 2026-05-07 18:13 | -37.53068 | 153.40034 | 39841 ft | 481 kts | 336° |
| 2026-05-07 18:14 | -37.46687 | 153.37487 | 39839 ft | 481 kts | 336° |
| 2026-05-07 18:14 | -37.40313 | 153.34948 | 39844 ft | 479 kts | 336° |
| 2026-05-07 18:15 | -37.33964 | 153.32421 | 39858 ft | 478 kts | 336° |
| 2026-05-07 18:15 | -37.27637 | 153.29909 | 39858 ft | 476 kts | 336° |
| 2026-05-07 18:16 | -37.21332 | 153.27410 | 39861 ft | 474 kts | 336° |
| 2026-05-07 18:16 | -37.15036 | 153.24918 | 39864 ft | 475 kts | 336° |
| 2026-05-07 18:17 | -37.08726 | 153.22425 | 39867 ft | 476 kts | 336° |
| 2026-05-07 18:17 | -37.02447 | 153.19949 | 39878 ft | 477 kts | 336° |
| 2026-05-07 18:18 | -36.96120 | 153.17460 | 39877 ft | 476 kts | 335° |
| 2026-05-07 18:18 | -36.89819 | 153.14984 | 39877 ft | 474 kts | 335° |
| 2026-05-07 18:19 | -36.83532 | 153.12517 | 39883 ft | 473 kts | 335° |
| 2026-05-07 18:19 | -36.77260 | 153.10061 | 39890 ft | 472 kts | 335° |
| 2026-05-07 18:20 | -36.70981 | 153.07606 | 39891 ft | 473 kts | 335° |
| 2026-05-07 18:20 | -36.65750 | 153.05564 | 39892 ft | 474 kts | 335° |
| 2026-05-07 18:21 | -36.58429 | 153.02712 | 39899 ft | 475 kts | 335° |
| 2026-05-07 18:21 | -36.52116 | 153.00257 | 39902 ft | 475 kts | 335° |
| 2026-05-07 18:22 | -36.45807 | 152.97808 | 39904 ft | 474 kts | 335° |
| 2026-05-07 18:22 | -36.40540 | 152.95766 | 39910 ft | 473 kts | 335° |
| 2026-05-07 18:23 | -36.34304 | 152.93352 | 39910 ft | 472 kts | 335° |
| 2026-05-07 18:23 | -36.28030 | 152.90927 | 39920 ft | 473 kts | 335° |
| 2026-05-07 18:24 | -36.21731 | 152.88497 | 39921 ft | 475 kts | 335° |
| 2026-05-07 18:24 | -36.15411 | 152.86064 | 39921 ft | 476 kts | 335° |
| 2026-05-07 18:25 | -36.09114 | 152.83644 | 39924 ft | 473 kts | 335° |
| 2026-05-07 18:25 | -36.02839 | 152.81235 | 39926 ft | 471 kts | 335° |
| 2026-05-07 18:26 | -35.96575 | 152.78834 | 39932 ft | 472 kts | 335° |
| 2026-05-07 18:26 | -35.90295 | 152.76432 | 39936 ft | 473 kts | 335° |
| 2026-05-07 18:27 | -35.84001 | 152.74029 | 39940 ft | 473 kts | 335° |
| 2026-05-07 18:27 | -35.77716 | 152.71633 | 39938 ft | 472 kts | 335° |
| 2026-05-07 18:28 | -35.71452 | 152.69249 | 39946 ft | 470 kts | 335° |
| 2026-05-07 18:28 | -35.65210 | 152.66877 | 39951 ft | 469 kts | 335° |
| 2026-05-07 18:29 | -35.59030 | 152.64532 | 39957 ft | 468 kts | 335° |
| 2026-05-07 18:29 | -35.52807 | 152.62174 | 39961 ft | 468 kts | 334° |
| 2026-05-07 18:30 | -35.46580 | 152.59820 | 39965 ft | 469 kts | 334° |
| 2026-05-07 18:30 | -35.40338 | 152.57463 | 39967 ft | 470 kts | 334° |
| 2026-05-07 18:31 | -35.34088 | 152.55108 | 39978 ft | 470 kts | 334° |
| 2026-05-07 18:31 | -35.30988 | 152.53945 | 39704 ft | 463 kts | 334° |
| 2026-05-07 18:31 | -35.27902 | 152.52783 | 38993 ft | 464 kts | 334° |
| 2026-05-07 18:31 | -35.24813 | 152.51616 | 38244 ft | 465 kts | 334° |
| 2026-05-07 18:32 | -35.21723 | 152.50456 | 37440 ft | 464 kts | 334° |
| 2026-05-07 18:32 | -35.18638 | 152.49303 | 36679 ft | 463 kts | 333° |
| 2026-05-07 18:32 | -35.15565 | 152.48153 | 35926 ft | 461 kts | 333° |
| 2026-05-07 18:33 | -35.13110 | 152.47231 | 35411 ft | 458 kts | 333° |
| 2026-05-07 18:33 | -35.10092 | 152.46104 | 34923 ft | 450 kts | 333° |
| 2026-05-07 18:33 | -35.07160 | 152.45009 | 34419 ft | 443 kts | 332° |
| 2026-05-07 18:33 | -35.04234 | 152.43914 | 33893 ft | 437 kts | 332° |
| 2026-05-07 18:34 | -35.01348 | 152.42834 | 33291 ft | 431 kts | 332° |
| 2026-05-07 18:34 | -34.98495 | 152.41767 | 32667 ft | 427 kts | 332° |
| 2026-05-07 18:34 | -34.95670 | 152.40714 | 32057 ft | 423 kts | 331° |
| 2026-05-07 18:34 | -34.92871 | 152.39671 | 31464 ft | 419 kts | 331° |
| 2026-05-07 18:35 | -34.90096 | 152.38637 | 30884 ft | 415 kts | 331° |
| 2026-05-07 18:35 | -34.87343 | 152.37611 | 30314 ft | 412 kts | 331° |
| 2026-05-07 18:35 | -34.84611 | 152.36595 | 29688 ft | 409 kts | 331° |
| 2026-05-07 18:35 | -34.81897 | 152.35585 | 29005 ft | 407 kts | 331° |
| 2026-05-07 18:36 | -34.79202 | 152.34584 | 28439 ft | 403 kts | 331° |
| 2026-05-07 18:36 | -34.76536 | 152.33596 | 27910 ft | 399 kts | 331° |
| 2026-05-07 18:36 | -34.73889 | 152.32613 | 27416 ft | 397 kts | 331° |
| 2026-05-07 18:36 | -34.71235 | 152.31622 | 26923 ft | 401 kts | 331° |
| 2026-05-07 18:37 | -34.68555 | 152.30624 | 26458 ft | 406 kts | 331° |
| 2026-05-07 18:37 | -34.65851 | 152.29631 | 25966 ft | 403 kts | 332° |
| 2026-05-07 18:37 | -34.63186 | 152.28655 | 25488 ft | 399 kts | 332° |
| 2026-05-07 18:37 | -34.60530 | 152.27668 | 25035 ft | 400 kts | 331° |
| 2026-05-07 18:38 | -34.57886 | 152.26679 | 24561 ft | 404 kts | 332° |
| 2026-05-07 18:38 | -34.55145 | 152.25666 | 24087 ft | 407 kts | 332° |
| 2026-05-07 18:38 | -34.52484 | 152.24697 | 23620 ft | 404 kts | 332° |
| 2026-05-07 18:38 | -34.49806 | 152.23714 | 23082 ft | 401 kts | 332° |
| 2026-05-07 18:39 | -34.47145 | 152.22727 | 22580 ft | 399 kts | 332° |
| 2026-05-07 18:39 | -34.44491 | 152.21744 | 22100 ft | 398 kts | 333° |
| 2026-05-07 18:39 | -34.41841 | 152.20772 | 21629 ft | 397 kts | 333° |
| 2026-05-07 18:39 | -34.39201 | 152.19804 | 21175 ft | 395 kts | 333° |
| 2026-05-07 18:40 | -34.36592 | 152.18849 | 20723 ft | 389 kts | 333° |
| 2026-05-07 18:40 | -34.34014 | 152.17900 | 20279 ft | 386 kts | 333° |
| 2026-05-07 18:40 | -34.31445 | 152.16952 | 19851 ft | 386 kts | 333° |
| 2026-05-07 18:40 | -34.28867 | 152.16004 | 19417 ft | 388 kts | 333° |
| 2026-05-07 18:41 | -34.26288 | 152.15062 | 18985 ft | 385 kts | 334° |
| 2026-05-07 18:41 | -34.23738 | 152.14134 | 18553 ft | 380 kts | 334° |
| 2026-05-07 18:41 | -34.21209 | 152.13205 | 18105 ft | 380 kts | 334° |
| 2026-05-07 18:41 | -34.18680 | 152.12274 | 17645 ft | 380 kts | 334° |
| 2026-05-07 18:42 | -34.16187 | 152.11363 | 17193 ft | 379 kts | 334° |
| 2026-05-07 18:42 | -34.13688 | 152.10456 | 16748 ft | 373 kts | 334° |
| 2026-05-07 18:42 | -34.11223 | 152.09559 | 16320 ft | 369 kts | 334° |
| 2026-05-07 18:42 | -34.08785 | 152.08629 | 15899 ft | 364 kts | 331° |
| 2026-05-07 18:43 | -34.06620 | 152.07175 | 15411 ft | 349 kts | 315° |
| 2026-05-07 18:43 | -34.04903 | 152.05236 | 14975 ft | 330 kts | 301° |
| 2026-05-07 18:43 | -34.03669 | 152.02976 | 14582 ft | 318 kts | 289° |
| 2026-05-07 18:43 | -34.02909 | 152.00517 | 14217 ft | 310 kts | 277° |
| 2026-05-07 18:44 | -34.02584 | 151.97978 | 13850 ft | 306 kts | 270° |
| 2026-05-07 18:44 | -34.02344 | 151.95441 | 13436 ft | 301 kts | 270° |
| 2026-05-07 18:44 | -34.02092 | 151.92942 | 13045 ft | 299 kts | 270° |
| 2026-05-07 18:44 | -34.01837 | 151.90447 | 12657 ft | 302 kts | 271° |
| 2026-05-07 18:45 | -34.01582 | 151.87927 | 12265 ft | 303 kts | 271° |
| 2026-05-07 18:45 | -34.01327 | 151.85436 | 11848 ft | 297 kts | 271° |
| 2026-05-07 18:45 | -34.01076 | 151.82969 | 11458 ft | 297 kts | 271° |
| 2026-05-07 18:45 | -34.00826 | 151.80496 | 11067 ft | 295 kts | 271° |
| 2026-05-07 18:46 | -34.00577 | 151.78084 | 10690 ft | 287 kts | 271° |
| 2026-05-07 18:46 | -34.00335 | 151.75742 | 10448 ft | 275 kts | 271° |
| 2026-05-07 18:46 | -34.00105 | 151.73510 | 10386 ft | 265 kts | 270° |
| 2026-05-07 18:46 | -33.99887 | 151.71335 | 10355 ft | 261 kts | 270° |
| 2026-05-07 18:47 | -34.00080 | 151.69237 | 9879 ft | 245 kts | 243° |
| 2026-05-07 18:47 | -34.00939 | 151.67502 | 9541 ft | 237 kts | 237° |
| 2026-05-07 18:47 | -34.01698 | 151.65796 | 9237 ft | 234 kts | 241° |
| 2026-05-07 18:47 | -34.02358 | 151.63994 | 8950 ft | 233 kts | 243° |
| 2026-05-07 18:48 | -34.02982 | 151.62219 | 8668 ft | 226 kts | 243° |
| 2026-05-07 18:48 | -34.03611 | 151.60505 | 8408 ft | 222 kts | 242° |
| 2026-05-07 18:48 | -34.04251 | 151.58793 | 8160 ft | 226 kts | 242° |
| 2026-05-07 18:48 | -34.04891 | 151.57066 | 7912 ft | 223 kts | 242° |
| 2026-05-07 18:49 | -34.05499 | 151.55410 | 7693 ft | 215 kts | 242° |
| 2026-05-07 18:49 | -34.06133 | 151.53704 | 7440 ft | 230 kts | 242° |
| 2026-05-07 18:49 | -34.06797 | 151.51907 | 6778 ft | 240 kts | 242° |
| 2026-05-07 18:49 | -34.07489 | 151.50025 | 6056 ft | 250 kts | 242° |
| 2026-05-07 18:50 | -34.08209 | 151.48075 | 5324 ft | 259 kts | 242° |
| 2026-05-07 18:50 | -34.08946 | 151.46066 | 4641 ft | 264 kts | 243° |
| 2026-05-07 18:50 | -34.09675 | 151.44076 | 4526 ft | 252 kts | 242° |
| 2026-05-07 18:50 | -34.10363 | 151.42199 | 4492 ft | 237 kts | 242° |
| 2026-05-07 18:51 | -34.11012 | 151.40432 | 4435 ft | 225 kts | 242° |
| 2026-05-07 18:51 | -34.11641 | 151.38727 | 4186 ft | 221 kts | 242° |
| 2026-05-07 18:51 | -34.12265 | 151.37038 | 3895 ft | 219 kts | 243° |
| 2026-05-07 18:51 | -34.12882 | 151.35356 | 3581 ft | 219 kts | 243° |
| 2026-05-07 18:52 | -34.13493 | 151.33687 | 3291 ft | 217 kts | 243° |
| 2026-05-07 18:52 | -34.14091 | 151.32056 | 3122 ft | 204 kts | 243° |
| 2026-05-07 18:52 | -34.14629 | 151.30579 | 3034 ft | 179 kts | 243° |
| 2026-05-07 18:52 | -34.15112 | 151.29259 | 3028 ft | 168 kts | 243° |
| 2026-05-07 18:53 | -34.15571 | 151.28007 | 3028 ft | 158 kts | 243° |
| 2026-05-07 18:53 | -34.16013 | 151.26799 | 3029 ft | 156 kts | 242° |
| 2026-05-07 18:53 | -34.16375 | 151.25562 | 2980 ft | 160 kts | 254° |
| 2026-05-07 18:53 | -34.16180 | 151.24232 | 2966 ft | 165 kts | 284° |
| 2026-05-07 18:54 | -34.15396 | 151.23170 | 2894 ft | 184 kts | 320° |
| 2026-05-07 18:54 | -34.14152 | 151.22702 | 2954 ft | 188 kts | 340° |
| 2026-05-07 18:54 | -34.12840 | 151.22340 | 3071 ft | 207 kts | 341° |
| 2026-05-07 18:54 | -34.11421 | 151.21955 | 3047 ft | 200 kts | 342° |
| 2026-05-07 18:55 | -34.10108 | 151.21625 | 3024 ft | 195 kts | 342° |
| 2026-05-07 18:55 | -34.08761 | 151.21279 | 2595 ft | 201 kts | 341° |
| 2026-05-07 18:55 | -34.07420 | 151.20932 | 2302 ft | 192 kts | 340° |
| 2026-05-07 18:55 | -34.06145 | 151.20604 | 2047 ft | 183 kts | 339° |
| 2026-05-07 18:56 | -34.04955 | 151.20298 | 1807 ft | 165 kts | 338° |
| 2026-05-07 18:56 | -34.03885 | 151.20006 | 1591 ft | 154 kts | 336° |
| 2026-05-07 18:56 | -34.02831 | 151.19730 | 1412 ft | 153 kts | 337° |
| 2026-05-07 18:56 | -34.01783 | 151.19473 | 1147 ft | 155 kts | 340° |
| 2026-05-07 18:57 | -34.00776 | 151.19208 | 929 ft | 143 kts | 341° |
| 2026-05-07 18:57 | -33.99815 | 151.18958 | 760 ft | 139 kts | 341° |
| 2026-05-07 18:57 | -33.98861 | 151.18712 | 562 ft | 141 kts | 342° |
| 2026-05-07 18:57 | -33.97895 | 151.18454 | 356 ft | 142 kts | 342° |
| 2026-05-07 18:58 | -33.96948 | 151.18209 | 162 ft | 139 kts | 342° |
| 2026-05-07 18:58 | -33.95992 | 151.17962 | 45 ft | 140 kts | 342° |
| 2026-05-07 18:58 | -33.95146 | 151.17730 | 34 ft | 103 kts | 347° |
| 2026-05-07 18:58 | -33.94549 | 151.17577 | 35 ft | 73 kts | 348° |
| 2026-05-07 18:59 | -33.94131 | 151.17468 | 33 ft | 42 kts | 347° |
| 2026-05-07 18:59 | -33.93949 | 151.17394 | 32 ft | 15 kts | 305° |
| 2026-05-07 18:59 | -33.93949 | 151.17309 | 33 ft | 7 kts | 249° |
| 2026-05-07 18:59 | -33.93966 | 151.17255 | 34 ft | 7 kts | 250° |
| 2026-05-07 19:00 | -33.93980 | 151.17201 | 35 ft | 7 kts | 256° |
| 2026-05-07 19:00 | -33.93992 | 151.17142 | 35 ft | 8 kts | 256° |
| 2026-05-07 19:00 | -33.94006 | 151.17074 | 35 ft | 9 kts | 256° |
| 2026-05-07 19:00 | -33.94023 | 151.16994 | 35 ft | 10 kts | 256° |
| 2026-05-07 19:01 | -33.94043 | 151.16906 | 35 ft | 11 kts | 256° |
| 2026-05-07 19:01 | -33.94028 | 151.16824 | 35 ft | 10 kts | 314° |
| 2026-05-07 19:01 | -33.93968 | 151.16787 | 35 ft | 10 kts | 341° |
| 2026-05-07 19:01 | -33.93929 | 151.16779 | 35 ft | 3 kts | 13° |
| 2026-05-07 19:02 | -33.93916 | 151.16791 | 35 ft | 4 kts | 42° |
| 2026-05-07 19:02 | -33.93898 | 151.16834 | 35 ft | 6 kts | 72° |
| 2026-05-07 19:02 | -33.93891 | 151.16862 | 35 ft | 3 kts | 73° |
| 2026-05-07 19:02 | -33.93890 | 151.16863 | 35 ft | 0 kts | 73° |